<?xml version="1.0" encoding="UTF-8" standalone="no" ?>
<gpx xmlns="http://www.topografix.com/GPX/1/1" xmlns:xsi="http://www.w3.org/2001/XMLSchema-instance" xsi:schemaLocation="http://www.topografix.com/GPX/1/1 http://www.topografix.com/GPX/1/1/gpx.xsd" version="1.1" creator="VisuGPX - https://www.visugpx.com">
  <metadata>
    <name>LAC DE MEAULX 18 JUIN 2019</name>
    <desc><![CDATA[Le départ de la randonnée se situe sur le parking de la tuilière sur la D562 (route de Grasse).
Nous empruntons le sentier qui descend vers le lac de Meaulx à gauche jusqu'au barrage. La surprise, on est dans un cul de sac sans repère et pourtant, nous trouvons un sentier qui nous fait contourner le barrage pour reprendre le chemin le long de lac où nous retrouvons notre trace. Peaux panoramas.
]]></desc>
  </metadata>
  <trk>
    <name><![CDATA[Tracé actuel: 18 JUIN 2019 09:13]]></name>
    <trkseg>
      <trkpt lat="43.58011" lon="6.63181">
        <ele>220.76</ele>
        <time>2019-06-18T07:13:25Z</time>
      </trkpt>
      <trkpt lat="43.58003" lon="6.63179">
        <ele>220.28</ele>
        <time>2019-06-18T07:13:22Z</time>
      </trkpt>
      <trkpt lat="43.57974" lon="6.6317">
        <ele>220.76</ele>
        <time>2019-06-18T07:13:34Z</time>
      </trkpt>
      <trkpt lat="43.57974" lon="6.63162">
        <ele>220.76</ele>
        <time>2019-06-18T07:13:51Z</time>
      </trkpt>
      <trkpt lat="43.5799" lon="6.6317">
        <ele>224.12</ele>
        <time>2019-06-18T07:14:05Z</time>
      </trkpt>
      <trkpt lat="43.57992" lon="6.6317">
        <ele>227.49</ele>
        <time>2019-06-18T07:14:07Z</time>
      </trkpt>
      <trkpt lat="43.57994" lon="6.63169">
        <ele>230.85</ele>
        <time>2019-06-18T07:14:09Z</time>
      </trkpt>
      <trkpt lat="43.57995" lon="6.63168">
        <ele>235.18</ele>
        <time>2019-06-18T07:14:12Z</time>
      </trkpt>
      <trkpt lat="43.57995" lon="6.63168">
        <ele>239.51</ele>
        <time>2019-06-18T07:14:15Z</time>
      </trkpt>
      <trkpt lat="43.57996" lon="6.63169">
        <ele>242.87</ele>
        <time>2019-06-18T07:14:18Z</time>
      </trkpt>
      <trkpt lat="43.57996" lon="6.63168">
        <ele>246.23</ele>
        <time>2019-06-18T07:14:21Z</time>
      </trkpt>
      <trkpt lat="43.57996" lon="6.63168">
        <ele>246.23</ele>
        <time>2019-06-18T07:14:22Z</time>
      </trkpt>
      <trkpt lat="43.57996" lon="6.63169">
        <ele>249.12</ele>
        <time>2019-06-18T07:14:23Z</time>
      </trkpt>
      <trkpt lat="43.57996" lon="6.63169">
        <ele>249.12</ele>
        <time>2019-06-18T07:14:24Z</time>
      </trkpt>
      <trkpt lat="43.57996" lon="6.63169">
        <ele>252.96</ele>
        <time>2019-06-18T07:14:28Z</time>
      </trkpt>
      <trkpt lat="43.57999" lon="6.63167">
        <ele>255.85</ele>
        <time>2019-06-18T07:14:32Z</time>
      </trkpt>
      <trkpt lat="43.58" lon="6.63167">
        <ele>259.21</ele>
        <time>2019-06-18T07:14:37Z</time>
      </trkpt>
      <trkpt lat="43.57999" lon="6.63168">
        <ele>262.58</ele>
        <time>2019-06-18T07:14:43Z</time>
      </trkpt>
      <trkpt lat="43.57999" lon="6.63167">
        <ele>265.94</ele>
        <time>2019-06-18T07:14:49Z</time>
      </trkpt>
      <trkpt lat="43.58" lon="6.63167">
        <ele>269.31</ele>
        <time>2019-06-18T07:14:56Z</time>
      </trkpt>
      <trkpt lat="43.57998" lon="6.63166">
        <ele>272.67</ele>
        <time>2019-06-18T07:15:07Z</time>
      </trkpt>
      <trkpt lat="43.57998" lon="6.63166">
        <ele>276.52</ele>
        <time>2019-06-18T07:15:23Z</time>
      </trkpt>
      <trkpt lat="43.57997" lon="6.63165">
        <ele>276.52</ele>
        <time>2019-06-18T07:15:31Z</time>
      </trkpt>
      <trkpt lat="43.57997" lon="6.63165">
        <ele>277.96</ele>
        <time>2019-06-18T07:15:48Z</time>
      </trkpt>
      <trkpt lat="43.57997" lon="6.63166">
        <ele>278.44</ele>
        <time>2019-06-18T07:15:59Z</time>
      </trkpt>
      <trkpt lat="43.57998" lon="6.63167">
        <ele>278.44</ele>
        <time>2019-06-18T07:16:14Z</time>
      </trkpt>
      <trkpt lat="43.57999" lon="6.63166">
        <ele>278.44</ele>
        <time>2019-06-18T07:16:25Z</time>
      </trkpt>
      <trkpt lat="43.57999" lon="6.63166">
        <ele>277.96</ele>
        <time>2019-06-18T07:16:34Z</time>
      </trkpt>
      <trkpt lat="43.57999" lon="6.63167">
        <ele>277.96</ele>
        <time>2019-06-18T07:16:52Z</time>
      </trkpt>
      <trkpt lat="43.58" lon="6.63166">
        <ele>277.96</ele>
        <time>2019-06-18T07:17:04Z</time>
      </trkpt>
      <trkpt lat="43.58001" lon="6.63166">
        <ele>277.96</ele>
        <time>2019-06-18T07:17:19Z</time>
      </trkpt>
      <trkpt lat="43.58002" lon="6.63165">
        <ele>277.96</ele>
        <time>2019-06-18T07:17:35Z</time>
      </trkpt>
      <trkpt lat="43.58004" lon="6.63165">
        <ele>277.96</ele>
        <time>2019-06-18T07:17:48Z</time>
      </trkpt>
      <trkpt lat="43.58006" lon="6.63165">
        <ele>278.44</ele>
        <time>2019-06-18T07:17:58Z</time>
      </trkpt>
      <trkpt lat="43.58006" lon="6.63165">
        <ele>277.96</ele>
        <time>2019-06-18T07:18:09Z</time>
      </trkpt>
      <trkpt lat="43.58005" lon="6.63166">
        <ele>277.96</ele>
        <time>2019-06-18T07:18:19Z</time>
      </trkpt>
      <trkpt lat="43.58005" lon="6.63166">
        <ele>277.96</ele>
        <time>2019-06-18T07:18:33Z</time>
      </trkpt>
      <trkpt lat="43.58005" lon="6.63167">
        <ele>277.96</ele>
        <time>2019-06-18T07:18:45Z</time>
      </trkpt>
      <trkpt lat="43.58005" lon="6.63166">
        <ele>277.96</ele>
        <time>2019-06-18T07:18:57Z</time>
      </trkpt>
      <trkpt lat="43.58004" lon="6.63168">
        <ele>277.96</ele>
        <time>2019-06-18T07:19:10Z</time>
      </trkpt>
      <trkpt lat="43.57999" lon="6.63171">
        <ele>277.96</ele>
        <time>2019-06-18T07:19:19Z</time>
      </trkpt>
      <trkpt lat="43.57992" lon="6.63173">
        <ele>277.48</ele>
        <time>2019-06-18T07:19:27Z</time>
      </trkpt>
      <trkpt lat="43.57985" lon="6.63176">
        <ele>277.48</ele>
        <time>2019-06-18T07:19:36Z</time>
      </trkpt>
      <trkpt lat="43.5798" lon="6.63177">
        <ele>277</ele>
        <time>2019-06-18T07:19:41Z</time>
      </trkpt>
      <trkpt lat="43.57969" lon="6.63184">
        <ele>276.52</ele>
        <time>2019-06-18T07:19:52Z</time>
      </trkpt>
      <trkpt lat="43.57964" lon="6.6319">
        <ele>276.04</ele>
        <time>2019-06-18T07:20:00Z</time>
      </trkpt>
      <trkpt lat="43.57964" lon="6.63198">
        <ele>276.04</ele>
        <time>2019-06-18T07:20:05Z</time>
      </trkpt>
      <trkpt lat="43.57969" lon="6.63209">
        <ele>275.56</ele>
        <time>2019-06-18T07:20:16Z</time>
      </trkpt>
      <trkpt lat="43.57973" lon="6.63218">
        <ele>275.07</ele>
        <time>2019-06-18T07:20:26Z</time>
      </trkpt>
      <trkpt lat="43.57978" lon="6.63228">
        <ele>274.59</ele>
        <time>2019-06-18T07:20:36Z</time>
      </trkpt>
      <trkpt lat="43.57979" lon="6.63229">
        <ele>274.59</ele>
        <time>2019-06-18T07:20:37Z</time>
      </trkpt>
      <trkpt lat="43.57983" lon="6.63242">
        <ele>274.11</ele>
        <time>2019-06-18T07:20:47Z</time>
      </trkpt>
      <trkpt lat="43.57986" lon="6.63256">
        <ele>270.27</ele>
        <time>2019-06-18T07:20:57Z</time>
      </trkpt>
      <trkpt lat="43.57986" lon="6.63257">
        <ele>276.04</ele>
        <time>2019-06-18T07:20:58Z</time>
      </trkpt>
      <trkpt lat="43.57985" lon="6.63259">
        <ele>271.71</ele>
        <time>2019-06-18T07:20:59Z</time>
      </trkpt>
      <trkpt lat="43.57985" lon="6.63261">
        <ele>274.59</ele>
        <time>2019-06-18T07:21:00Z</time>
      </trkpt>
      <trkpt lat="43.57986" lon="6.63268">
        <ele>270.27</ele>
        <time>2019-06-18T07:21:07Z</time>
      </trkpt>
      <trkpt lat="43.57986" lon="6.63268">
        <ele>275.56</ele>
        <time>2019-06-18T07:21:08Z</time>
      </trkpt>
      <trkpt lat="43.57986" lon="6.63269">
        <ele>272.19</ele>
        <time>2019-06-18T07:21:10Z</time>
      </trkpt>
      <trkpt lat="43.57986" lon="6.6327">
        <ele>276.52</ele>
        <time>2019-06-18T07:21:11Z</time>
      </trkpt>
      <trkpt lat="43.57986" lon="6.63271">
        <ele>272.67</ele>
        <time>2019-06-18T07:21:12Z</time>
      </trkpt>
      <trkpt lat="43.57984" lon="6.63284">
        <ele>273.63</ele>
        <time>2019-06-18T07:21:21Z</time>
      </trkpt>
      <trkpt lat="43.57983" lon="6.63286">
        <ele>274.11</ele>
        <time>2019-06-18T07:21:23Z</time>
      </trkpt>
      <trkpt lat="43.57982" lon="6.63303">
        <ele>273.63</ele>
        <time>2019-06-18T07:21:34Z</time>
      </trkpt>
      <trkpt lat="43.57982" lon="6.63315">
        <ele>274.11</ele>
        <time>2019-06-18T07:21:43Z</time>
      </trkpt>
      <trkpt lat="43.57986" lon="6.63334">
        <ele>275.07</ele>
        <time>2019-06-18T07:21:55Z</time>
      </trkpt>
      <trkpt lat="43.57987" lon="6.63339">
        <ele>275.56</ele>
        <time>2019-06-18T07:21:59Z</time>
      </trkpt>
      <trkpt lat="43.57987" lon="6.63342">
        <ele>275.56</ele>
        <time>2019-06-18T07:22:01Z</time>
      </trkpt>
      <trkpt lat="43.57987" lon="6.63352">
        <ele>276.04</ele>
        <time>2019-06-18T07:22:08Z</time>
      </trkpt>
      <trkpt lat="43.57982" lon="6.63371">
        <ele>275.56</ele>
        <time>2019-06-18T07:22:21Z</time>
      </trkpt>
      <trkpt lat="43.57981" lon="6.63376">
        <ele>275.56</ele>
        <time>2019-06-18T07:22:26Z</time>
      </trkpt>
      <trkpt lat="43.57979" lon="6.6338">
        <ele>275.56</ele>
        <time>2019-06-18T07:22:29Z</time>
      </trkpt>
      <trkpt lat="43.57973" lon="6.634">
        <ele>275.07</ele>
        <time>2019-06-18T07:22:43Z</time>
      </trkpt>
      <trkpt lat="43.57969" lon="6.63417">
        <ele>274.59</ele>
        <time>2019-06-18T07:22:54Z</time>
      </trkpt>
      <trkpt lat="43.57965" lon="6.63432">
        <ele>274.11</ele>
        <time>2019-06-18T07:23:05Z</time>
      </trkpt>
      <trkpt lat="43.57961" lon="6.63447">
        <ele>273.15</ele>
        <time>2019-06-18T07:23:16Z</time>
      </trkpt>
      <trkpt lat="43.57954" lon="6.6346">
        <ele>272.67</ele>
        <time>2019-06-18T07:23:27Z</time>
      </trkpt>
      <trkpt lat="43.57945" lon="6.63472">
        <ele>271.23</ele>
        <time>2019-06-18T07:23:39Z</time>
      </trkpt>
      <trkpt lat="43.57942" lon="6.63474">
        <ele>271.23</ele>
        <time>2019-06-18T07:23:43Z</time>
      </trkpt>
      <trkpt lat="43.57932" lon="6.63485">
        <ele>270.75</ele>
        <time>2019-06-18T07:23:54Z</time>
      </trkpt>
      <trkpt lat="43.57923" lon="6.63494">
        <ele>269.79</ele>
        <time>2019-06-18T07:24:04Z</time>
      </trkpt>
      <trkpt lat="43.57915" lon="6.63504">
        <ele>268.83</ele>
        <time>2019-06-18T07:24:14Z</time>
      </trkpt>
      <trkpt lat="43.57908" lon="6.63513">
        <ele>268.35</ele>
        <time>2019-06-18T07:24:23Z</time>
      </trkpt>
      <trkpt lat="43.57897" lon="6.63518">
        <ele>267.86</ele>
        <time>2019-06-18T07:24:33Z</time>
      </trkpt>
      <trkpt lat="43.57894" lon="6.63518">
        <ele>267.86</ele>
        <time>2019-06-18T07:24:35Z</time>
      </trkpt>
      <trkpt lat="43.57882" lon="6.63514">
        <ele>267.38</ele>
        <time>2019-06-18T07:24:47Z</time>
      </trkpt>
      <trkpt lat="43.57874" lon="6.63505">
        <ele>266.42</ele>
        <time>2019-06-18T07:24:58Z</time>
      </trkpt>
      <trkpt lat="43.57867" lon="6.63491">
        <ele>265.46</ele>
        <time>2019-06-18T07:25:10Z</time>
      </trkpt>
      <trkpt lat="43.57861" lon="6.63477">
        <ele>264.5</ele>
        <time>2019-06-18T07:25:21Z</time>
      </trkpt>
      <trkpt lat="43.57852" lon="6.63463">
        <ele>263.54</ele>
        <time>2019-06-18T07:25:33Z</time>
      </trkpt>
      <trkpt lat="43.57848" lon="6.63461">
        <ele>263.54</ele>
        <time>2019-06-18T07:25:37Z</time>
      </trkpt>
      <trkpt lat="43.57842" lon="6.63457">
        <ele>263.06</ele>
        <time>2019-06-18T07:25:43Z</time>
      </trkpt>
      <trkpt lat="43.57839" lon="6.63458">
        <ele>262.58</ele>
        <time>2019-06-18T07:25:46Z</time>
      </trkpt>
      <trkpt lat="43.57833" lon="6.63456">
        <ele>262.1</ele>
        <time>2019-06-18T07:25:52Z</time>
      </trkpt>
      <trkpt lat="43.57829" lon="6.63454">
        <ele>262.1</ele>
        <time>2019-06-18T07:25:56Z</time>
      </trkpt>
      <trkpt lat="43.57822" lon="6.63457">
        <ele>261.62</ele>
        <time>2019-06-18T07:26:03Z</time>
      </trkpt>
      <trkpt lat="43.57809" lon="6.6346">
        <ele>261.14</ele>
        <time>2019-06-18T07:26:14Z</time>
      </trkpt>
      <trkpt lat="43.57799" lon="6.63466">
        <ele>261.14</ele>
        <time>2019-06-18T07:26:24Z</time>
      </trkpt>
      <trkpt lat="43.57796" lon="6.63469">
        <ele>261.14</ele>
        <time>2019-06-18T07:26:27Z</time>
      </trkpt>
      <trkpt lat="43.57785" lon="6.6348">
        <ele>261.14</ele>
        <time>2019-06-18T07:26:39Z</time>
      </trkpt>
      <trkpt lat="43.57784" lon="6.63481">
        <ele>261.14</ele>
        <time>2019-06-18T07:26:40Z</time>
      </trkpt>
      <trkpt lat="43.5777" lon="6.63484">
        <ele>261.62</ele>
        <time>2019-06-18T07:26:51Z</time>
      </trkpt>
      <trkpt lat="43.57756" lon="6.63489">
        <ele>261.62</ele>
        <time>2019-06-18T07:27:02Z</time>
      </trkpt>
      <trkpt lat="43.57751" lon="6.6349">
        <ele>261.62</ele>
        <time>2019-06-18T07:27:06Z</time>
      </trkpt>
      <trkpt lat="43.57743" lon="6.6349">
        <ele>261.62</ele>
        <time>2019-06-18T07:27:13Z</time>
      </trkpt>
      <trkpt lat="43.57741" lon="6.63488">
        <ele>261.14</ele>
        <time>2019-06-18T07:27:16Z</time>
      </trkpt>
      <trkpt lat="43.57736" lon="6.63489">
        <ele>261.14</ele>
        <time>2019-06-18T07:27:20Z</time>
      </trkpt>
      <trkpt lat="43.57733" lon="6.63489">
        <ele>260.65</ele>
        <time>2019-06-18T07:27:23Z</time>
      </trkpt>
      <trkpt lat="43.5772" lon="6.63486">
        <ele>260.17</ele>
        <time>2019-06-18T07:27:36Z</time>
      </trkpt>
      <trkpt lat="43.57711" lon="6.63479">
        <ele>259.69</ele>
        <time>2019-06-18T07:27:46Z</time>
      </trkpt>
      <trkpt lat="43.57698" lon="6.63469">
        <ele>260.17</ele>
        <time>2019-06-18T07:27:58Z</time>
      </trkpt>
      <trkpt lat="43.57692" lon="6.63467">
        <ele>259.69</ele>
        <time>2019-06-18T07:28:04Z</time>
      </trkpt>
      <trkpt lat="43.57688" lon="6.63467">
        <ele>259.69</ele>
        <time>2019-06-18T07:28:08Z</time>
      </trkpt>
      <trkpt lat="43.57676" lon="6.63466">
        <ele>259.21</ele>
        <time>2019-06-18T07:28:19Z</time>
      </trkpt>
      <trkpt lat="43.57675" lon="6.63466">
        <ele>258.73</ele>
        <time>2019-06-18T07:28:20Z</time>
      </trkpt>
      <trkpt lat="43.57667" lon="6.63462">
        <ele>258.25</ele>
        <time>2019-06-18T07:28:27Z</time>
      </trkpt>
      <trkpt lat="43.57662" lon="6.63462">
        <ele>257.77</ele>
        <time>2019-06-18T07:28:30Z</time>
      </trkpt>
      <trkpt lat="43.57658" lon="6.63461">
        <ele>257.77</ele>
        <time>2019-06-18T07:28:36Z</time>
      </trkpt>
      <trkpt lat="43.57654" lon="6.63459">
        <ele>257.77</ele>
        <time>2019-06-18T07:28:39Z</time>
      </trkpt>
      <trkpt lat="43.57647" lon="6.63447">
        <ele>256.81</ele>
        <time>2019-06-18T07:28:50Z</time>
      </trkpt>
      <trkpt lat="43.57644" lon="6.63432">
        <ele>256.33</ele>
        <time>2019-06-18T07:29:00Z</time>
      </trkpt>
      <trkpt lat="43.57641" lon="6.63414">
        <ele>254.89</ele>
        <time>2019-06-18T07:29:12Z</time>
      </trkpt>
      <trkpt lat="43.5764" lon="6.63411">
        <ele>254.89</ele>
        <time>2019-06-18T07:29:14Z</time>
      </trkpt>
      <trkpt lat="43.57632" lon="6.63404">
        <ele>254.41</ele>
        <time>2019-06-18T07:29:20Z</time>
      </trkpt>
      <trkpt lat="43.57626" lon="6.63402">
        <ele>253.93</ele>
        <time>2019-06-18T07:29:26Z</time>
      </trkpt>
      <trkpt lat="43.5762" lon="6.63405">
        <ele>253.44</ele>
        <time>2019-06-18T07:29:31Z</time>
      </trkpt>
      <trkpt lat="43.57614" lon="6.63415">
        <ele>252.96</ele>
        <time>2019-06-18T07:29:38Z</time>
      </trkpt>
      <trkpt lat="43.57611" lon="6.63421">
        <ele>252.48</ele>
        <time>2019-06-18T07:29:43Z</time>
      </trkpt>
      <trkpt lat="43.57602" lon="6.63433">
        <ele>252</ele>
        <time>2019-06-18T07:29:54Z</time>
      </trkpt>
      <trkpt lat="43.57591" lon="6.63435">
        <ele>251.52</ele>
        <time>2019-06-18T07:30:04Z</time>
      </trkpt>
      <trkpt lat="43.57581" lon="6.6343">
        <ele>250.56</ele>
        <time>2019-06-18T07:30:14Z</time>
      </trkpt>
      <trkpt lat="43.57577" lon="6.63428">
        <ele>250.08</ele>
        <time>2019-06-18T07:30:18Z</time>
      </trkpt>
      <trkpt lat="43.57573" lon="6.63426">
        <ele>250.08</ele>
        <time>2019-06-18T07:30:22Z</time>
      </trkpt>
      <trkpt lat="43.57558" lon="6.63424">
        <ele>249.12</ele>
        <time>2019-06-18T07:30:35Z</time>
      </trkpt>
      <trkpt lat="43.57556" lon="6.63427">
        <ele>248.64</ele>
        <time>2019-06-18T07:30:38Z</time>
      </trkpt>
      <trkpt lat="43.5755" lon="6.63449">
        <ele>247.68</ele>
        <time>2019-06-18T07:30:50Z</time>
      </trkpt>
      <trkpt lat="43.57545" lon="6.63465">
        <ele>247.2</ele>
        <time>2019-06-18T07:31:01Z</time>
      </trkpt>
      <trkpt lat="43.57544" lon="6.63469">
        <ele>246.72</ele>
        <time>2019-06-18T07:31:04Z</time>
      </trkpt>
      <trkpt lat="43.57539" lon="6.63485">
        <ele>245.75</ele>
        <time>2019-06-18T07:31:14Z</time>
      </trkpt>
      <trkpt lat="43.57538" lon="6.63487">
        <ele>245.75</ele>
        <time>2019-06-18T07:31:16Z</time>
      </trkpt>
      <trkpt lat="43.57536" lon="6.63493">
        <ele>245.27</ele>
        <time>2019-06-18T07:31:20Z</time>
      </trkpt>
      <trkpt lat="43.57528" lon="6.63498">
        <ele>244.31</ele>
        <time>2019-06-18T07:31:28Z</time>
      </trkpt>
      <trkpt lat="43.57521" lon="6.63497">
        <ele>244.31</ele>
        <time>2019-06-18T07:31:33Z</time>
      </trkpt>
      <trkpt lat="43.57507" lon="6.635">
        <ele>243.35</ele>
        <time>2019-06-18T07:31:45Z</time>
      </trkpt>
      <trkpt lat="43.57498" lon="6.6351">
        <ele>242.39</ele>
        <time>2019-06-18T07:31:55Z</time>
      </trkpt>
      <trkpt lat="43.57494" lon="6.63515">
        <ele>242.39</ele>
        <time>2019-06-18T07:31:59Z</time>
      </trkpt>
      <trkpt lat="43.57485" lon="6.63513">
        <ele>241.91</ele>
        <time>2019-06-18T07:32:06Z</time>
      </trkpt>
      <trkpt lat="43.57474" lon="6.63505">
        <ele>240.95</ele>
        <time>2019-06-18T07:32:17Z</time>
      </trkpt>
      <trkpt lat="43.57461" lon="6.63494">
        <ele>239.51</ele>
        <time>2019-06-18T07:32:30Z</time>
      </trkpt>
      <trkpt lat="43.57459" lon="6.63493">
        <ele>239.51</ele>
        <time>2019-06-18T07:32:32Z</time>
      </trkpt>
      <trkpt lat="43.57449" lon="6.63489">
        <ele>238.06</ele>
        <time>2019-06-18T07:32:41Z</time>
      </trkpt>
      <trkpt lat="43.57438" lon="6.63501">
        <ele>237.1</ele>
        <time>2019-06-18T07:32:53Z</time>
      </trkpt>
      <trkpt lat="43.57434" lon="6.63506">
        <ele>236.62</ele>
        <time>2019-06-18T07:32:57Z</time>
      </trkpt>
      <trkpt lat="43.57433" lon="6.63509">
        <ele>236.62</ele>
        <time>2019-06-18T07:32:59Z</time>
      </trkpt>
      <trkpt lat="43.57424" lon="6.63523">
        <ele>235.66</ele>
        <time>2019-06-18T07:33:11Z</time>
      </trkpt>
      <trkpt lat="43.57423" lon="6.63523">
        <ele>235.66</ele>
        <time>2019-06-18T07:33:12Z</time>
      </trkpt>
      <trkpt lat="43.5742" lon="6.63524">
        <ele>235.18</ele>
        <time>2019-06-18T07:33:15Z</time>
      </trkpt>
      <trkpt lat="43.57416" lon="6.63533">
        <ele>234.7</ele>
        <time>2019-06-18T07:33:22Z</time>
      </trkpt>
      <trkpt lat="43.57411" lon="6.63542">
        <ele>234.22</ele>
        <time>2019-06-18T07:33:29Z</time>
      </trkpt>
      <trkpt lat="43.57409" lon="6.63548">
        <ele>233.74</ele>
        <time>2019-06-18T07:33:33Z</time>
      </trkpt>
      <trkpt lat="43.57406" lon="6.63555">
        <ele>233.74</ele>
        <time>2019-06-18T07:33:37Z</time>
      </trkpt>
      <trkpt lat="43.57398" lon="6.63572">
        <ele>232.3</ele>
        <time>2019-06-18T07:33:50Z</time>
      </trkpt>
      <trkpt lat="43.57388" lon="6.63586">
        <ele>231.33</ele>
        <time>2019-06-18T07:34:01Z</time>
      </trkpt>
      <trkpt lat="43.57383" lon="6.6359">
        <ele>230.85</ele>
        <time>2019-06-18T07:34:07Z</time>
      </trkpt>
      <trkpt lat="43.57373" lon="6.63601">
        <ele>229.89</ele>
        <time>2019-06-18T07:34:17Z</time>
      </trkpt>
      <trkpt lat="43.57363" lon="6.63607">
        <ele>229.41</ele>
        <time>2019-06-18T07:34:27Z</time>
      </trkpt>
      <trkpt lat="43.57356" lon="6.63607">
        <ele>228.45</ele>
        <time>2019-06-18T07:34:33Z</time>
      </trkpt>
      <trkpt lat="43.57345" lon="6.6361">
        <ele>227.49</ele>
        <time>2019-06-18T07:34:43Z</time>
      </trkpt>
      <trkpt lat="43.57339" lon="6.63619">
        <ele>226.53</ele>
        <time>2019-06-18T07:34:50Z</time>
      </trkpt>
      <trkpt lat="43.57331" lon="6.6363">
        <ele>225.09</ele>
        <time>2019-06-18T07:35:00Z</time>
      </trkpt>
      <trkpt lat="43.57329" lon="6.63634">
        <ele>224.61</ele>
        <time>2019-06-18T07:35:04Z</time>
      </trkpt>
      <trkpt lat="43.57323" lon="6.63647">
        <ele>223.64</ele>
        <time>2019-06-18T07:35:13Z</time>
      </trkpt>
      <trkpt lat="43.57314" lon="6.63659">
        <ele>220.28</ele>
        <time>2019-06-18T07:35:24Z</time>
      </trkpt>
      <trkpt lat="43.57314" lon="6.63661">
        <ele>223.64</ele>
        <time>2019-06-18T07:35:25Z</time>
      </trkpt>
      <trkpt lat="43.57307" lon="6.63676">
        <ele>220.28</ele>
        <time>2019-06-18T07:35:36Z</time>
      </trkpt>
      <trkpt lat="43.57305" lon="6.6368">
        <ele>220.28</ele>
        <time>2019-06-18T07:35:39Z</time>
      </trkpt>
      <trkpt lat="43.57299" lon="6.63694">
        <ele>219.32</ele>
        <time>2019-06-18T07:35:50Z</time>
      </trkpt>
      <trkpt lat="43.57294" lon="6.63709">
        <ele>218.36</ele>
        <time>2019-06-18T07:36:00Z</time>
      </trkpt>
      <trkpt lat="43.57294" lon="6.63714">
        <ele>217.88</ele>
        <time>2019-06-18T07:36:11Z</time>
      </trkpt>
      <trkpt lat="43.57295" lon="6.63715">
        <ele>217.88</ele>
        <time>2019-06-18T07:36:29Z</time>
      </trkpt>
      <trkpt lat="43.57295" lon="6.63719">
        <ele>217.4</ele>
        <time>2019-06-18T07:36:41Z</time>
      </trkpt>
      <trkpt lat="43.57296" lon="6.63726">
        <ele>216.91</ele>
        <time>2019-06-18T07:36:46Z</time>
      </trkpt>
      <trkpt lat="43.57296" lon="6.63738">
        <ele>216.43</ele>
        <time>2019-06-18T07:36:53Z</time>
      </trkpt>
      <trkpt lat="43.57296" lon="6.63749">
        <ele>215.95</ele>
        <time>2019-06-18T07:36:59Z</time>
      </trkpt>
      <trkpt lat="43.57294" lon="6.63765">
        <ele>214.51</ele>
        <time>2019-06-18T07:37:10Z</time>
      </trkpt>
      <trkpt lat="43.57294" lon="6.63781">
        <ele>212.59</ele>
        <time>2019-06-18T07:37:21Z</time>
      </trkpt>
      <trkpt lat="43.57302" lon="6.63797">
        <ele>211.63</ele>
        <time>2019-06-18T07:37:33Z</time>
      </trkpt>
      <trkpt lat="43.57305" lon="6.63799">
        <ele>211.15</ele>
        <time>2019-06-18T07:37:37Z</time>
      </trkpt>
      <trkpt lat="43.57307" lon="6.63801">
        <ele>211.15</ele>
        <time>2019-06-18T07:37:39Z</time>
      </trkpt>
      <trkpt lat="43.5732" lon="6.6381">
        <ele>209.7</ele>
        <time>2019-06-18T07:37:50Z</time>
      </trkpt>
      <trkpt lat="43.57331" lon="6.63818">
        <ele>209.22</ele>
        <time>2019-06-18T07:38:00Z</time>
      </trkpt>
      <trkpt lat="43.57342" lon="6.63825">
        <ele>208.26</ele>
        <time>2019-06-18T07:38:09Z</time>
      </trkpt>
      <trkpt lat="43.57356" lon="6.63833">
        <ele>207.78</ele>
        <time>2019-06-18T07:38:21Z</time>
      </trkpt>
      <trkpt lat="43.5737" lon="6.63837">
        <ele>206.34</ele>
        <time>2019-06-18T07:38:32Z</time>
      </trkpt>
      <trkpt lat="43.57381" lon="6.63841">
        <ele>205.38</ele>
        <time>2019-06-18T07:38:42Z</time>
      </trkpt>
      <trkpt lat="43.57388" lon="6.63851">
        <ele>204.42</ele>
        <time>2019-06-18T07:38:52Z</time>
      </trkpt>
      <trkpt lat="43.57389" lon="6.63854">
        <ele>203.94</ele>
        <time>2019-06-18T07:38:55Z</time>
      </trkpt>
      <trkpt lat="43.5739" lon="6.63861">
        <ele>204.42</ele>
        <time>2019-06-18T07:39:06Z</time>
      </trkpt>
      <trkpt lat="43.57385" lon="6.63861">
        <ele>204.42</ele>
        <time>2019-06-18T07:39:11Z</time>
      </trkpt>
      <trkpt lat="43.57383" lon="6.63862">
        <ele>204.42</ele>
        <time>2019-06-18T07:39:14Z</time>
      </trkpt>
      <trkpt lat="43.57375" lon="6.63863">
        <ele>205.38</ele>
        <time>2019-06-18T07:39:23Z</time>
      </trkpt>
      <trkpt lat="43.57372" lon="6.6386">
        <ele>205.86</ele>
        <time>2019-06-18T07:39:27Z</time>
      </trkpt>
      <trkpt lat="43.57361" lon="6.63855">
        <ele>205.38</ele>
        <time>2019-06-18T07:39:37Z</time>
      </trkpt>
      <trkpt lat="43.5736" lon="6.63855">
        <ele>205.38</ele>
        <time>2019-06-18T07:39:38Z</time>
      </trkpt>
      <trkpt lat="43.57357" lon="6.63854">
        <ele>205.38</ele>
        <time>2019-06-18T07:39:41Z</time>
      </trkpt>
      <trkpt lat="43.57347" lon="6.63853">
        <ele>204.9</ele>
        <time>2019-06-18T07:39:50Z</time>
      </trkpt>
      <trkpt lat="43.57343" lon="6.63852">
        <ele>204.9</ele>
        <time>2019-06-18T07:39:54Z</time>
      </trkpt>
      <trkpt lat="43.5734" lon="6.63852">
        <ele>204.9</ele>
        <time>2019-06-18T07:39:57Z</time>
      </trkpt>
      <trkpt lat="43.57328" lon="6.6385">
        <ele>204.42</ele>
        <time>2019-06-18T07:40:08Z</time>
      </trkpt>
      <trkpt lat="43.57327" lon="6.6385">
        <ele>204.42</ele>
        <time>2019-06-18T07:40:09Z</time>
      </trkpt>
      <trkpt lat="43.57323" lon="6.63848">
        <ele>204.42</ele>
        <time>2019-06-18T07:40:13Z</time>
      </trkpt>
      <trkpt lat="43.57313" lon="6.63849">
        <ele>203.94</ele>
        <time>2019-06-18T07:40:23Z</time>
      </trkpt>
      <trkpt lat="43.57311" lon="6.63848">
        <ele>203.94</ele>
        <time>2019-06-18T07:40:25Z</time>
      </trkpt>
      <trkpt lat="43.57299" lon="6.63847">
        <ele>203.94</ele>
        <time>2019-06-18T07:40:37Z</time>
      </trkpt>
      <trkpt lat="43.57295" lon="6.63848">
        <ele>203.94</ele>
        <time>2019-06-18T07:40:41Z</time>
      </trkpt>
      <trkpt lat="43.57292" lon="6.63852">
        <ele>203.94</ele>
        <time>2019-06-18T07:40:45Z</time>
      </trkpt>
      <trkpt lat="43.57288" lon="6.63855">
        <ele>203.94</ele>
        <time>2019-06-18T07:40:50Z</time>
      </trkpt>
      <trkpt lat="43.57276" lon="6.63859">
        <ele>203.94</ele>
        <time>2019-06-18T07:41:02Z</time>
      </trkpt>
      <trkpt lat="43.57265" lon="6.63862">
        <ele>203.94</ele>
        <time>2019-06-18T07:41:13Z</time>
      </trkpt>
      <trkpt lat="43.57265" lon="6.63863">
        <ele>203.46</ele>
        <time>2019-06-18T07:41:24Z</time>
      </trkpt>
      <trkpt lat="43.57264" lon="6.63865">
        <ele>203.46</ele>
        <time>2019-06-18T07:41:43Z</time>
      </trkpt>
      <trkpt lat="43.57263" lon="6.63865">
        <ele>203.46</ele>
        <time>2019-06-18T07:41:52Z</time>
      </trkpt>
      <trkpt lat="43.57257" lon="6.63864">
        <ele>202.98</ele>
        <time>2019-06-18T07:41:59Z</time>
      </trkpt>
      <trkpt lat="43.57247" lon="6.63864">
        <ele>202.49</ele>
        <time>2019-06-18T07:42:10Z</time>
      </trkpt>
      <trkpt lat="43.57241" lon="6.63865">
        <ele>202.49</ele>
        <time>2019-06-18T07:42:16Z</time>
      </trkpt>
      <trkpt lat="43.57229" lon="6.63868">
        <ele>202.49</ele>
        <time>2019-06-18T07:42:28Z</time>
      </trkpt>
      <trkpt lat="43.5722" lon="6.63869">
        <ele>202.49</ele>
        <time>2019-06-18T07:42:38Z</time>
      </trkpt>
      <trkpt lat="43.57218" lon="6.63869">
        <ele>202.49</ele>
        <time>2019-06-18T07:42:40Z</time>
      </trkpt>
      <trkpt lat="43.57206" lon="6.63868">
        <ele>202.49</ele>
        <time>2019-06-18T07:42:52Z</time>
      </trkpt>
      <trkpt lat="43.57203" lon="6.63867">
        <ele>202.49</ele>
        <time>2019-06-18T07:42:55Z</time>
      </trkpt>
      <trkpt lat="43.57198" lon="6.63863">
        <ele>202.49</ele>
        <time>2019-06-18T07:43:01Z</time>
      </trkpt>
      <trkpt lat="43.57194" lon="6.63863">
        <ele>202.49</ele>
        <time>2019-06-18T07:43:05Z</time>
      </trkpt>
      <trkpt lat="43.57192" lon="6.63863">
        <ele>202.49</ele>
        <time>2019-06-18T07:43:07Z</time>
      </trkpt>
      <trkpt lat="43.57186" lon="6.63862">
        <ele>202.49</ele>
        <time>2019-06-18T07:43:14Z</time>
      </trkpt>
      <trkpt lat="43.57184" lon="6.63862">
        <ele>202.49</ele>
        <time>2019-06-18T07:43:16Z</time>
      </trkpt>
      <trkpt lat="43.57179" lon="6.63865">
        <ele>202.49</ele>
        <time>2019-06-18T07:43:22Z</time>
      </trkpt>
      <trkpt lat="43.57171" lon="6.63866">
        <ele>202.01</ele>
        <time>2019-06-18T07:43:31Z</time>
      </trkpt>
      <trkpt lat="43.57169" lon="6.63867">
        <ele>202.01</ele>
        <time>2019-06-18T07:43:33Z</time>
      </trkpt>
      <trkpt lat="43.57165" lon="6.63868">
        <ele>202.01</ele>
        <time>2019-06-18T07:43:39Z</time>
      </trkpt>
      <trkpt lat="43.57156" lon="6.63872">
        <ele>202.01</ele>
        <time>2019-06-18T07:43:49Z</time>
      </trkpt>
      <trkpt lat="43.57153" lon="6.6388">
        <ele>201.53</ele>
        <time>2019-06-18T07:43:56Z</time>
      </trkpt>
      <trkpt lat="43.57153" lon="6.63885">
        <ele>202.01</ele>
        <time>2019-06-18T07:44:06Z</time>
      </trkpt>
      <trkpt lat="43.57153" lon="6.63886">
        <ele>201.53</ele>
        <time>2019-06-18T07:44:17Z</time>
      </trkpt>
      <trkpt lat="43.57153" lon="6.63886">
        <ele>201.53</ele>
        <time>2019-06-18T07:44:29Z</time>
      </trkpt>
      <trkpt lat="43.57151" lon="6.63894">
        <ele>201.53</ele>
        <time>2019-06-18T07:44:39Z</time>
      </trkpt>
      <trkpt lat="43.57151" lon="6.63901">
        <ele>202.01</ele>
        <time>2019-06-18T07:44:47Z</time>
      </trkpt>
      <trkpt lat="43.5715" lon="6.63906">
        <ele>202.01</ele>
        <time>2019-06-18T07:44:57Z</time>
      </trkpt>
      <trkpt lat="43.57149" lon="6.63906">
        <ele>202.01</ele>
        <time>2019-06-18T07:45:11Z</time>
      </trkpt>
      <trkpt lat="43.57149" lon="6.63906">
        <ele>202.01</ele>
        <time>2019-06-18T07:45:24Z</time>
      </trkpt>
      <trkpt lat="43.57148" lon="6.63905">
        <ele>202.01</ele>
        <time>2019-06-18T07:45:34Z</time>
      </trkpt>
      <trkpt lat="43.57149" lon="6.63906">
        <ele>202.01</ele>
        <time>2019-06-18T07:45:43Z</time>
      </trkpt>
      <trkpt lat="43.57149" lon="6.63905">
        <ele>202.01</ele>
        <time>2019-06-18T07:45:56Z</time>
      </trkpt>
      <trkpt lat="43.57149" lon="6.63904">
        <ele>202.01</ele>
        <time>2019-06-18T07:46:15Z</time>
      </trkpt>
      <trkpt lat="43.57149" lon="6.63904">
        <ele>202.01</ele>
        <time>2019-06-18T07:46:32Z</time>
      </trkpt>
      <trkpt lat="43.57149" lon="6.63905">
        <ele>202.01</ele>
        <time>2019-06-18T07:46:49Z</time>
      </trkpt>
      <trkpt lat="43.57149" lon="6.63905">
        <ele>202.01</ele>
        <time>2019-06-18T07:47:06Z</time>
      </trkpt>
      <trkpt lat="43.57149" lon="6.63904">
        <ele>201.53</ele>
        <time>2019-06-18T07:47:10Z</time>
      </trkpt>
      <trkpt lat="43.57147" lon="6.63904">
        <ele>201.53</ele>
        <time>2019-06-18T07:47:20Z</time>
      </trkpt>
      <trkpt lat="43.57145" lon="6.63902">
        <ele>201.53</ele>
        <time>2019-06-18T07:47:30Z</time>
      </trkpt>
      <trkpt lat="43.57146" lon="6.63901">
        <ele>201.53</ele>
        <time>2019-06-18T07:47:44Z</time>
      </trkpt>
      <trkpt lat="43.57146" lon="6.63902">
        <ele>201.53</ele>
        <time>2019-06-18T07:47:58Z</time>
      </trkpt>
      <trkpt lat="43.57147" lon="6.63904">
        <ele>201.53</ele>
        <time>2019-06-18T07:48:17Z</time>
      </trkpt>
      <trkpt lat="43.57152" lon="6.63907">
        <ele>202.01</ele>
        <time>2019-06-18T07:48:26Z</time>
      </trkpt>
      <trkpt lat="43.57156" lon="6.63912">
        <ele>202.49</ele>
        <time>2019-06-18T07:48:32Z</time>
      </trkpt>
      <trkpt lat="43.57159" lon="6.63915">
        <ele>202.49</ele>
        <time>2019-06-18T07:48:36Z</time>
      </trkpt>
      <trkpt lat="43.57165" lon="6.6392">
        <ele>202.98</ele>
        <time>2019-06-18T07:48:45Z</time>
      </trkpt>
      <trkpt lat="43.57174" lon="6.63919">
        <ele>206.82</ele>
        <time>2019-06-18T07:48:53Z</time>
      </trkpt>
      <trkpt lat="43.57177" lon="6.6392">
        <ele>199.61</ele>
        <time>2019-06-18T07:48:57Z</time>
      </trkpt>
      <trkpt lat="43.57179" lon="6.6392">
        <ele>207.3</ele>
        <time>2019-06-18T07:48:58Z</time>
      </trkpt>
      <trkpt lat="43.5718" lon="6.6392">
        <ele>203.94</ele>
        <time>2019-06-18T07:48:59Z</time>
      </trkpt>
      <trkpt lat="43.57187" lon="6.63923">
        <ele>204.42</ele>
        <time>2019-06-18T07:49:06Z</time>
      </trkpt>
      <trkpt lat="43.57194" lon="6.63927">
        <ele>204.9</ele>
        <time>2019-06-18T07:49:19Z</time>
      </trkpt>
      <trkpt lat="43.57203" lon="6.63931">
        <ele>206.34</ele>
        <time>2019-06-18T07:49:33Z</time>
      </trkpt>
      <trkpt lat="43.57209" lon="6.63935">
        <ele>207.78</ele>
        <time>2019-06-18T07:49:43Z</time>
      </trkpt>
      <trkpt lat="43.57209" lon="6.63939">
        <ele>208.26</ele>
        <time>2019-06-18T07:49:53Z</time>
      </trkpt>
      <trkpt lat="43.57206" lon="6.63941">
        <ele>207.78</ele>
        <time>2019-06-18T07:49:58Z</time>
      </trkpt>
      <trkpt lat="43.572" lon="6.63951">
        <ele>207.78</ele>
        <time>2019-06-18T07:50:09Z</time>
      </trkpt>
      <trkpt lat="43.57198" lon="6.63961">
        <ele>207.78</ele>
        <time>2019-06-18T07:50:16Z</time>
      </trkpt>
      <trkpt lat="43.57198" lon="6.63965">
        <ele>207.78</ele>
        <time>2019-06-18T07:50:19Z</time>
      </trkpt>
      <trkpt lat="43.57197" lon="6.63971">
        <ele>207.3</ele>
        <time>2019-06-18T07:50:23Z</time>
      </trkpt>
      <trkpt lat="43.57198" lon="6.63978">
        <ele>207.78</ele>
        <time>2019-06-18T07:50:28Z</time>
      </trkpt>
      <trkpt lat="43.57201" lon="6.63993">
        <ele>207.3</ele>
        <time>2019-06-18T07:50:39Z</time>
      </trkpt>
      <trkpt lat="43.57204" lon="6.63999">
        <ele>207.3</ele>
        <time>2019-06-18T07:50:43Z</time>
      </trkpt>
      <trkpt lat="43.57204" lon="6.64003">
        <ele>206.82</ele>
        <time>2019-06-18T07:50:46Z</time>
      </trkpt>
      <trkpt lat="43.57209" lon="6.6401">
        <ele>206.34</ele>
        <time>2019-06-18T07:50:52Z</time>
      </trkpt>
      <trkpt lat="43.57211" lon="6.64021">
        <ele>205.86</ele>
        <time>2019-06-18T07:51:00Z</time>
      </trkpt>
      <trkpt lat="43.57214" lon="6.64037">
        <ele>204.9</ele>
        <time>2019-06-18T07:51:12Z</time>
      </trkpt>
      <trkpt lat="43.57213" lon="6.64046">
        <ele>204.9</ele>
        <time>2019-06-18T07:51:18Z</time>
      </trkpt>
      <trkpt lat="43.57204" lon="6.64058">
        <ele>203.94</ele>
        <time>2019-06-18T07:51:30Z</time>
      </trkpt>
      <trkpt lat="43.57204" lon="6.64058">
        <ele>203.94</ele>
        <time>2019-06-18T07:51:31Z</time>
      </trkpt>
      <trkpt lat="43.57199" lon="6.64057">
        <ele>204.42</ele>
        <time>2019-06-18T07:51:37Z</time>
      </trkpt>
      <trkpt lat="43.57195" lon="6.64051">
        <ele>204.9</ele>
        <time>2019-06-18T07:51:43Z</time>
      </trkpt>
      <trkpt lat="43.57183" lon="6.64041">
        <ele>205.38</ele>
        <time>2019-06-18T07:51:56Z</time>
      </trkpt>
      <trkpt lat="43.57171" lon="6.64033">
        <ele>205.38</ele>
        <time>2019-06-18T07:52:08Z</time>
      </trkpt>
      <trkpt lat="43.57161" lon="6.64026">
        <ele>205.86</ele>
        <time>2019-06-18T07:52:18Z</time>
      </trkpt>
      <trkpt lat="43.57157" lon="6.64023">
        <ele>206.34</ele>
        <time>2019-06-18T07:52:22Z</time>
      </trkpt>
      <trkpt lat="43.57153" lon="6.64019">
        <ele>206.34</ele>
        <time>2019-06-18T07:52:27Z</time>
      </trkpt>
      <trkpt lat="43.57151" lon="6.64017">
        <ele>206.82</ele>
        <time>2019-06-18T07:52:30Z</time>
      </trkpt>
      <trkpt lat="43.57149" lon="6.64015">
        <ele>206.82</ele>
        <time>2019-06-18T07:52:33Z</time>
      </trkpt>
      <trkpt lat="43.57139" lon="6.64004">
        <ele>207.78</ele>
        <time>2019-06-18T07:52:44Z</time>
      </trkpt>
      <trkpt lat="43.57129" lon="6.64">
        <ele>207.78</ele>
        <time>2019-06-18T07:52:54Z</time>
      </trkpt>
      <trkpt lat="43.57115" lon="6.64004">
        <ele>208.26</ele>
        <time>2019-06-18T07:53:07Z</time>
      </trkpt>
      <trkpt lat="43.57105" lon="6.6401">
        <ele>208.74</ele>
        <time>2019-06-18T07:53:17Z</time>
      </trkpt>
      <trkpt lat="43.57104" lon="6.64012">
        <ele>208.74</ele>
        <time>2019-06-18T07:53:19Z</time>
      </trkpt>
      <trkpt lat="43.57096" lon="6.64025">
        <ele>209.7</ele>
        <time>2019-06-18T07:53:31Z</time>
      </trkpt>
      <trkpt lat="43.5709" lon="6.64036">
        <ele>210.19</ele>
        <time>2019-06-18T07:53:40Z</time>
      </trkpt>
      <trkpt lat="43.57088" lon="6.64041">
        <ele>210.19</ele>
        <time>2019-06-18T07:53:45Z</time>
      </trkpt>
      <trkpt lat="43.57088" lon="6.64049">
        <ele>210.67</ele>
        <time>2019-06-18T07:53:50Z</time>
      </trkpt>
      <trkpt lat="43.57088" lon="6.64053">
        <ele>210.67</ele>
        <time>2019-06-18T07:53:53Z</time>
      </trkpt>
      <trkpt lat="43.5709" lon="6.6406">
        <ele>211.15</ele>
        <time>2019-06-18T07:53:58Z</time>
      </trkpt>
      <trkpt lat="43.57088" lon="6.64072">
        <ele>211.15</ele>
        <time>2019-06-18T07:54:08Z</time>
      </trkpt>
      <trkpt lat="43.57082" lon="6.64077">
        <ele>211.63</ele>
        <time>2019-06-18T07:54:15Z</time>
      </trkpt>
      <trkpt lat="43.57068" lon="6.64076">
        <ele>212.59</ele>
        <time>2019-06-18T07:54:27Z</time>
      </trkpt>
      <trkpt lat="43.57057" lon="6.64072">
        <ele>213.07</ele>
        <time>2019-06-18T07:54:39Z</time>
      </trkpt>
      <trkpt lat="43.57046" lon="6.64068">
        <ele>214.03</ele>
        <time>2019-06-18T07:54:51Z</time>
      </trkpt>
      <trkpt lat="43.57041" lon="6.6407">
        <ele>214.03</ele>
        <time>2019-06-18T07:54:56Z</time>
      </trkpt>
      <trkpt lat="43.57037" lon="6.64071">
        <ele>214.51</ele>
        <time>2019-06-18T07:55:00Z</time>
      </trkpt>
      <trkpt lat="43.57028" lon="6.64078">
        <ele>214.99</ele>
        <time>2019-06-18T07:55:10Z</time>
      </trkpt>
      <trkpt lat="43.57023" lon="6.64085">
        <ele>215.47</ele>
        <time>2019-06-18T07:55:17Z</time>
      </trkpt>
      <trkpt lat="43.57018" lon="6.64101">
        <ele>216.43</ele>
        <time>2019-06-18T07:55:27Z</time>
      </trkpt>
      <trkpt lat="43.57014" lon="6.64118">
        <ele>215.95</ele>
        <time>2019-06-18T07:55:37Z</time>
      </trkpt>
      <trkpt lat="43.57012" lon="6.64134">
        <ele>216.43</ele>
        <time>2019-06-18T07:55:47Z</time>
      </trkpt>
      <trkpt lat="43.57007" lon="6.6415">
        <ele>217.4</ele>
        <time>2019-06-18T07:55:58Z</time>
      </trkpt>
      <trkpt lat="43.57005" lon="6.64156">
        <ele>216.91</ele>
        <time>2019-06-18T07:56:02Z</time>
      </trkpt>
      <trkpt lat="43.56996" lon="6.64167">
        <ele>216.91</ele>
        <time>2019-06-18T07:56:13Z</time>
      </trkpt>
      <trkpt lat="43.56988" lon="6.64179">
        <ele>217.4</ele>
        <time>2019-06-18T07:56:24Z</time>
      </trkpt>
      <trkpt lat="43.56981" lon="6.64194">
        <ele>217.88</ele>
        <time>2019-06-18T07:56:36Z</time>
      </trkpt>
      <trkpt lat="43.56976" lon="6.64209">
        <ele>218.84</ele>
        <time>2019-06-18T07:56:47Z</time>
      </trkpt>
      <trkpt lat="43.56975" lon="6.64225">
        <ele>218.84</ele>
        <time>2019-06-18T07:56:57Z</time>
      </trkpt>
      <trkpt lat="43.56975" lon="6.64228">
        <ele>218.84</ele>
        <time>2019-06-18T07:56:59Z</time>
      </trkpt>
      <trkpt lat="43.56976" lon="6.64244">
        <ele>218.84</ele>
        <time>2019-06-18T07:57:09Z</time>
      </trkpt>
      <trkpt lat="43.5698" lon="6.64255">
        <ele>218.84</ele>
        <time>2019-06-18T07:57:16Z</time>
      </trkpt>
      <trkpt lat="43.56994" lon="6.64261">
        <ele>219.32</ele>
        <time>2019-06-18T07:57:28Z</time>
      </trkpt>
      <trkpt lat="43.57003" lon="6.64258">
        <ele>218.84</ele>
        <time>2019-06-18T07:57:38Z</time>
      </trkpt>
      <trkpt lat="43.57016" lon="6.64256">
        <ele>217.88</ele>
        <time>2019-06-18T07:57:49Z</time>
      </trkpt>
      <trkpt lat="43.57021" lon="6.64256">
        <ele>217.88</ele>
        <time>2019-06-18T07:57:54Z</time>
      </trkpt>
      <trkpt lat="43.57033" lon="6.64251">
        <ele>217.88</ele>
        <time>2019-06-18T07:58:04Z</time>
      </trkpt>
      <trkpt lat="43.57041" lon="6.64252">
        <ele>217.88</ele>
        <time>2019-06-18T07:58:12Z</time>
      </trkpt>
      <trkpt lat="43.57053" lon="6.64251">
        <ele>217.88</ele>
        <time>2019-06-18T07:58:22Z</time>
      </trkpt>
      <trkpt lat="43.57064" lon="6.64254">
        <ele>217.88</ele>
        <time>2019-06-18T07:58:32Z</time>
      </trkpt>
      <trkpt lat="43.57072" lon="6.6426">
        <ele>216.91</ele>
        <time>2019-06-18T07:58:40Z</time>
      </trkpt>
      <trkpt lat="43.57084" lon="6.64269">
        <ele>215.95</ele>
        <time>2019-06-18T07:58:52Z</time>
      </trkpt>
      <trkpt lat="43.57087" lon="6.6427">
        <ele>215.47</ele>
        <time>2019-06-18T07:58:55Z</time>
      </trkpt>
      <trkpt lat="43.57089" lon="6.64274">
        <ele>214.51</ele>
        <time>2019-06-18T07:58:58Z</time>
      </trkpt>
      <trkpt lat="43.57088" lon="6.64281">
        <ele>214.03</ele>
        <time>2019-06-18T07:59:04Z</time>
      </trkpt>
      <trkpt lat="43.57083" lon="6.64282">
        <ele>214.99</ele>
        <time>2019-06-18T07:59:15Z</time>
      </trkpt>
      <trkpt lat="43.57084" lon="6.64283">
        <ele>214.99</ele>
        <time>2019-06-18T07:59:30Z</time>
      </trkpt>
      <trkpt lat="43.57085" lon="6.64282">
        <ele>214.99</ele>
        <time>2019-06-18T07:59:48Z</time>
      </trkpt>
      <trkpt lat="43.57086" lon="6.64284">
        <ele>214.99</ele>
        <time>2019-06-18T08:00:09Z</time>
      </trkpt>
      <trkpt lat="43.57085" lon="6.64284">
        <ele>214.99</ele>
        <time>2019-06-18T08:00:29Z</time>
      </trkpt>
      <trkpt lat="43.57085" lon="6.64284">
        <ele>214.99</ele>
        <time>2019-06-18T08:00:50Z</time>
      </trkpt>
      <trkpt lat="43.57085" lon="6.64284">
        <ele>214.99</ele>
        <time>2019-06-18T08:01:02Z</time>
      </trkpt>
      <trkpt lat="43.57085" lon="6.64285">
        <ele>214.99</ele>
        <time>2019-06-18T08:01:25Z</time>
      </trkpt>
      <trkpt lat="43.57085" lon="6.64285">
        <ele>214.99</ele>
        <time>2019-06-18T08:01:51Z</time>
      </trkpt>
      <trkpt lat="43.57085" lon="6.64285">
        <ele>214.99</ele>
        <time>2019-06-18T08:02:08Z</time>
      </trkpt>
      <trkpt lat="43.57085" lon="6.64285">
        <ele>214.99</ele>
        <time>2019-06-18T08:02:28Z</time>
      </trkpt>
      <trkpt lat="43.57085" lon="6.64284">
        <ele>214.99</ele>
        <time>2019-06-18T08:02:53Z</time>
      </trkpt>
      <trkpt lat="43.57085" lon="6.64285">
        <ele>214.99</ele>
        <time>2019-06-18T08:03:14Z</time>
      </trkpt>
      <trkpt lat="43.57085" lon="6.64285">
        <ele>214.51</ele>
        <time>2019-06-18T08:03:25Z</time>
      </trkpt>
      <trkpt lat="43.57086" lon="6.64284">
        <ele>214.51</ele>
        <time>2019-06-18T08:03:37Z</time>
      </trkpt>
      <trkpt lat="43.57087" lon="6.64284">
        <ele>214.51</ele>
        <time>2019-06-18T08:03:52Z</time>
      </trkpt>
      <trkpt lat="43.57086" lon="6.64286">
        <ele>214.51</ele>
        <time>2019-06-18T08:04:04Z</time>
      </trkpt>
      <trkpt lat="43.57085" lon="6.64284">
        <ele>214.51</ele>
        <time>2019-06-18T08:04:14Z</time>
      </trkpt>
      <trkpt lat="43.57085" lon="6.64285">
        <ele>214.99</ele>
        <time>2019-06-18T08:04:35Z</time>
      </trkpt>
      <trkpt lat="43.57085" lon="6.64284">
        <ele>208.26</ele>
        <time>2019-06-18T08:04:50Z</time>
      </trkpt>
      <trkpt lat="43.57085" lon="6.64284">
        <ele>219.8</ele>
        <time>2019-06-18T08:04:51Z</time>
      </trkpt>
      <trkpt lat="43.57085" lon="6.64284">
        <ele>214.99</ele>
        <time>2019-06-18T08:04:52Z</time>
      </trkpt>
      <trkpt lat="43.57085" lon="6.64283">
        <ele>214.51</ele>
        <time>2019-06-18T08:05:00Z</time>
      </trkpt>
      <trkpt lat="43.57085" lon="6.64284">
        <ele>214.99</ele>
        <time>2019-06-18T08:05:22Z</time>
      </trkpt>
      <trkpt lat="43.57085" lon="6.64285">
        <ele>214.51</ele>
        <time>2019-06-18T08:05:40Z</time>
      </trkpt>
      <trkpt lat="43.57085" lon="6.64284">
        <ele>214.51</ele>
        <time>2019-06-18T08:05:58Z</time>
      </trkpt>
      <trkpt lat="43.57085" lon="6.64285">
        <ele>214.51</ele>
        <time>2019-06-18T08:06:19Z</time>
      </trkpt>
      <trkpt lat="43.57084" lon="6.64286">
        <ele>214.51</ele>
        <time>2019-06-18T08:06:38Z</time>
      </trkpt>
      <trkpt lat="43.57082" lon="6.64287">
        <ele>214.51</ele>
        <time>2019-06-18T08:07:03Z</time>
      </trkpt>
      <trkpt lat="43.57081" lon="6.64289">
        <ele>214.51</ele>
        <time>2019-06-18T08:07:29Z</time>
      </trkpt>
      <trkpt lat="43.57082" lon="6.64289">
        <ele>214.51</ele>
        <time>2019-06-18T08:07:54Z</time>
      </trkpt>
      <trkpt lat="43.57082" lon="6.6429">
        <ele>214.99</ele>
        <time>2019-06-18T08:08:05Z</time>
      </trkpt>
      <trkpt lat="43.57083" lon="6.64289">
        <ele>214.51</ele>
        <time>2019-06-18T08:08:15Z</time>
      </trkpt>
      <trkpt lat="43.57082" lon="6.64287">
        <ele>214.99</ele>
        <time>2019-06-18T08:08:26Z</time>
      </trkpt>
      <trkpt lat="43.57076" lon="6.64285">
        <ele>215.47</ele>
        <time>2019-06-18T08:08:36Z</time>
      </trkpt>
      <trkpt lat="43.57072" lon="6.64284">
        <ele>215.47</ele>
        <time>2019-06-18T08:08:45Z</time>
      </trkpt>
      <trkpt lat="43.57063" lon="6.64287">
        <ele>216.43</ele>
        <time>2019-06-18T08:08:56Z</time>
      </trkpt>
      <trkpt lat="43.57055" lon="6.64291">
        <ele>216.91</ele>
        <time>2019-06-18T08:09:04Z</time>
      </trkpt>
      <trkpt lat="43.57045" lon="6.64298">
        <ele>217.88</ele>
        <time>2019-06-18T08:09:14Z</time>
      </trkpt>
      <trkpt lat="43.57036" lon="6.64303">
        <ele>217.88</ele>
        <time>2019-06-18T08:09:23Z</time>
      </trkpt>
      <trkpt lat="43.57025" lon="6.6431">
        <ele>217.4</ele>
        <time>2019-06-18T08:09:34Z</time>
      </trkpt>
      <trkpt lat="43.57014" lon="6.64318">
        <ele>217.4</ele>
        <time>2019-06-18T08:09:46Z</time>
      </trkpt>
      <trkpt lat="43.57009" lon="6.64323">
        <ele>217.4</ele>
        <time>2019-06-18T08:09:51Z</time>
      </trkpt>
      <trkpt lat="43.57002" lon="6.64334">
        <ele>216.91</ele>
        <time>2019-06-18T08:10:02Z</time>
      </trkpt>
      <trkpt lat="43.56999" lon="6.64339">
        <ele>216.91</ele>
        <time>2019-06-18T08:10:06Z</time>
      </trkpt>
      <trkpt lat="43.56995" lon="6.64345">
        <ele>216.91</ele>
        <time>2019-06-18T08:10:12Z</time>
      </trkpt>
      <trkpt lat="43.56988" lon="6.64356">
        <ele>216.43</ele>
        <time>2019-06-18T08:10:23Z</time>
      </trkpt>
      <trkpt lat="43.56986" lon="6.64361">
        <ele>215.95</ele>
        <time>2019-06-18T08:10:28Z</time>
      </trkpt>
      <trkpt lat="43.56984" lon="6.64374">
        <ele>215.95</ele>
        <time>2019-06-18T08:10:37Z</time>
      </trkpt>
      <trkpt lat="43.56983" lon="6.64378">
        <ele>215.47</ele>
        <time>2019-06-18T08:10:40Z</time>
      </trkpt>
      <trkpt lat="43.56978" lon="6.64384">
        <ele>215.47</ele>
        <time>2019-06-18T08:10:48Z</time>
      </trkpt>
      <trkpt lat="43.56973" lon="6.64383">
        <ele>215.95</ele>
        <time>2019-06-18T08:10:54Z</time>
      </trkpt>
      <trkpt lat="43.56964" lon="6.64373">
        <ele>216.43</ele>
        <time>2019-06-18T08:11:07Z</time>
      </trkpt>
      <trkpt lat="43.56961" lon="6.6437">
        <ele>216.43</ele>
        <time>2019-06-18T08:11:10Z</time>
      </trkpt>
      <trkpt lat="43.56949" lon="6.64362">
        <ele>216.43</ele>
        <time>2019-06-18T08:11:22Z</time>
      </trkpt>
      <trkpt lat="43.56944" lon="6.6436">
        <ele>216.43</ele>
        <time>2019-06-18T08:11:26Z</time>
      </trkpt>
      <trkpt lat="43.56938" lon="6.64362">
        <ele>216.43</ele>
        <time>2019-06-18T08:11:32Z</time>
      </trkpt>
      <trkpt lat="43.56929" lon="6.64368">
        <ele>215.95</ele>
        <time>2019-06-18T08:11:42Z</time>
      </trkpt>
      <trkpt lat="43.56922" lon="6.64372">
        <ele>215.95</ele>
        <time>2019-06-18T08:11:48Z</time>
      </trkpt>
      <trkpt lat="43.56915" lon="6.6438">
        <ele>215.95</ele>
        <time>2019-06-18T08:11:57Z</time>
      </trkpt>
      <trkpt lat="43.5691" lon="6.64383">
        <ele>215.95</ele>
        <time>2019-06-18T08:12:03Z</time>
      </trkpt>
      <trkpt lat="43.569" lon="6.64392">
        <ele>215.47</ele>
        <time>2019-06-18T08:12:12Z</time>
      </trkpt>
      <trkpt lat="43.56898" lon="6.64394">
        <ele>215.47</ele>
        <time>2019-06-18T08:12:15Z</time>
      </trkpt>
      <trkpt lat="43.56888" lon="6.64403">
        <ele>215.47</ele>
        <time>2019-06-18T08:12:26Z</time>
      </trkpt>
      <trkpt lat="43.56887" lon="6.64404">
        <ele>215.47</ele>
        <time>2019-06-18T08:12:27Z</time>
      </trkpt>
      <trkpt lat="43.56884" lon="6.64411">
        <ele>214.99</ele>
        <time>2019-06-18T08:12:33Z</time>
      </trkpt>
      <trkpt lat="43.56882" lon="6.64418">
        <ele>214.99</ele>
        <time>2019-06-18T08:12:38Z</time>
      </trkpt>
      <trkpt lat="43.56881" lon="6.6442">
        <ele>214.99</ele>
        <time>2019-06-18T08:12:48Z</time>
      </trkpt>
      <trkpt lat="43.5688" lon="6.64416">
        <ele>214.99</ele>
        <time>2019-06-18T08:12:56Z</time>
      </trkpt>
      <trkpt lat="43.5688" lon="6.6442">
        <ele>214.99</ele>
        <time>2019-06-18T08:13:00Z</time>
      </trkpt>
      <trkpt lat="43.56877" lon="6.64427">
        <ele>214.99</ele>
        <time>2019-06-18T08:13:05Z</time>
      </trkpt>
      <trkpt lat="43.56875" lon="6.6443">
        <ele>214.51</ele>
        <time>2019-06-18T08:13:08Z</time>
      </trkpt>
      <trkpt lat="43.56868" lon="6.64443">
        <ele>214.51</ele>
        <time>2019-06-18T08:13:18Z</time>
      </trkpt>
      <trkpt lat="43.56864" lon="6.64459">
        <ele>214.03</ele>
        <time>2019-06-18T08:13:28Z</time>
      </trkpt>
      <trkpt lat="43.56864" lon="6.64476">
        <ele>214.03</ele>
        <time>2019-06-18T08:13:39Z</time>
      </trkpt>
      <trkpt lat="43.56866" lon="6.64487">
        <ele>213.55</ele>
        <time>2019-06-18T08:13:46Z</time>
      </trkpt>
      <trkpt lat="43.56868" lon="6.6449">
        <ele>213.55</ele>
        <time>2019-06-18T08:13:49Z</time>
      </trkpt>
      <trkpt lat="43.56868" lon="6.64506">
        <ele>213.07</ele>
        <time>2019-06-18T08:14:00Z</time>
      </trkpt>
      <trkpt lat="43.56868" lon="6.6451">
        <ele>212.59</ele>
        <time>2019-06-18T08:14:03Z</time>
      </trkpt>
      <trkpt lat="43.56869" lon="6.64519">
        <ele>212.11</ele>
        <time>2019-06-18T08:14:09Z</time>
      </trkpt>
      <trkpt lat="43.56875" lon="6.6453">
        <ele>211.63</ele>
        <time>2019-06-18T08:14:18Z</time>
      </trkpt>
      <trkpt lat="43.56883" lon="6.64543">
        <ele>210.67</ele>
        <time>2019-06-18T08:14:27Z</time>
      </trkpt>
      <trkpt lat="43.56884" lon="6.64547">
        <ele>210.67</ele>
        <time>2019-06-18T08:14:30Z</time>
      </trkpt>
      <trkpt lat="43.56883" lon="6.64551">
        <ele>210.67</ele>
        <time>2019-06-18T08:14:33Z</time>
      </trkpt>
      <trkpt lat="43.56877" lon="6.64568">
        <ele>209.7</ele>
        <time>2019-06-18T08:14:45Z</time>
      </trkpt>
      <trkpt lat="43.56874" lon="6.64573">
        <ele>209.7</ele>
        <time>2019-06-18T08:14:49Z</time>
      </trkpt>
      <trkpt lat="43.5687" lon="6.64583">
        <ele>209.7</ele>
        <time>2019-06-18T08:14:56Z</time>
      </trkpt>
      <trkpt lat="43.56869" lon="6.64599">
        <ele>209.22</ele>
        <time>2019-06-18T08:15:06Z</time>
      </trkpt>
      <trkpt lat="43.5687" lon="6.64602">
        <ele>208.74</ele>
        <time>2019-06-18T08:15:09Z</time>
      </trkpt>
      <trkpt lat="43.56869" lon="6.64616">
        <ele>208.74</ele>
        <time>2019-06-18T08:15:19Z</time>
      </trkpt>
      <trkpt lat="43.56866" lon="6.6463">
        <ele>207.78</ele>
        <time>2019-06-18T08:15:28Z</time>
      </trkpt>
      <trkpt lat="43.56866" lon="6.64633">
        <ele>207.78</ele>
        <time>2019-06-18T08:15:30Z</time>
      </trkpt>
      <trkpt lat="43.56859" lon="6.64649">
        <ele>206.82</ele>
        <time>2019-06-18T08:15:42Z</time>
      </trkpt>
      <trkpt lat="43.56857" lon="6.64656">
        <ele>206.82</ele>
        <time>2019-06-18T08:15:47Z</time>
      </trkpt>
      <trkpt lat="43.56852" lon="6.64669">
        <ele>206.34</ele>
        <time>2019-06-18T08:15:56Z</time>
      </trkpt>
      <trkpt lat="43.56849" lon="6.64678">
        <ele>205.86</ele>
        <time>2019-06-18T08:16:02Z</time>
      </trkpt>
      <trkpt lat="43.56849" lon="6.64682">
        <ele>205.86</ele>
        <time>2019-06-18T08:16:05Z</time>
      </trkpt>
      <trkpt lat="43.56848" lon="6.64685">
        <ele>205.38</ele>
        <time>2019-06-18T08:16:07Z</time>
      </trkpt>
      <trkpt lat="43.56846" lon="6.64697">
        <ele>201.53</ele>
        <time>2019-06-18T08:16:16Z</time>
      </trkpt>
      <trkpt lat="43.56845" lon="6.647">
        <ele>210.19</ele>
        <time>2019-06-18T08:16:18Z</time>
      </trkpt>
      <trkpt lat="43.56846" lon="6.64702">
        <ele>204.42</ele>
        <time>2019-06-18T08:16:19Z</time>
      </trkpt>
      <trkpt lat="43.56845" lon="6.64708">
        <ele>198.17</ele>
        <time>2019-06-18T08:16:24Z</time>
      </trkpt>
      <trkpt lat="43.56845" lon="6.6471">
        <ele>207.78</ele>
        <time>2019-06-18T08:16:25Z</time>
      </trkpt>
      <trkpt lat="43.56844" lon="6.64711">
        <ele>203.46</ele>
        <time>2019-06-18T08:16:26Z</time>
      </trkpt>
      <trkpt lat="43.56843" lon="6.64716">
        <ele>202.49</ele>
        <time>2019-06-18T08:16:30Z</time>
      </trkpt>
      <trkpt lat="43.5684" lon="6.64733">
        <ele>202.49</ele>
        <time>2019-06-18T08:16:41Z</time>
      </trkpt>
      <trkpt lat="43.56841" lon="6.64742">
        <ele>202.01</ele>
        <time>2019-06-18T08:16:47Z</time>
      </trkpt>
      <trkpt lat="43.56841" lon="6.64747">
        <ele>202.01</ele>
        <time>2019-06-18T08:16:51Z</time>
      </trkpt>
      <trkpt lat="43.56839" lon="6.64762">
        <ele>202.01</ele>
        <time>2019-06-18T08:17:02Z</time>
      </trkpt>
      <trkpt lat="43.56832" lon="6.6477">
        <ele>202.49</ele>
        <time>2019-06-18T08:17:12Z</time>
      </trkpt>
      <trkpt lat="43.56829" lon="6.64768">
        <ele>202.49</ele>
        <time>2019-06-18T08:17:15Z</time>
      </trkpt>
      <trkpt lat="43.56824" lon="6.64761">
        <ele>202.49</ele>
        <time>2019-06-18T08:17:24Z</time>
      </trkpt>
      <trkpt lat="43.56821" lon="6.64747">
        <ele>202.98</ele>
        <time>2019-06-18T08:17:35Z</time>
      </trkpt>
      <trkpt lat="43.56821" lon="6.64746">
        <ele>202.98</ele>
        <time>2019-06-18T08:17:36Z</time>
      </trkpt>
      <trkpt lat="43.56821" lon="6.64739">
        <ele>203.46</ele>
        <time>2019-06-18T08:17:41Z</time>
      </trkpt>
      <trkpt lat="43.56821" lon="6.64734">
        <ele>203.94</ele>
        <time>2019-06-18T08:17:45Z</time>
      </trkpt>
      <trkpt lat="43.56816" lon="6.6472">
        <ele>203.94</ele>
        <time>2019-06-18T08:17:55Z</time>
      </trkpt>
      <trkpt lat="43.56814" lon="6.64714">
        <ele>203.94</ele>
        <time>2019-06-18T08:18:00Z</time>
      </trkpt>
      <trkpt lat="43.56813" lon="6.6471">
        <ele>203.94</ele>
        <time>2019-06-18T08:18:02Z</time>
      </trkpt>
      <trkpt lat="43.56813" lon="6.64706">
        <ele>203.94</ele>
        <time>2019-06-18T08:18:05Z</time>
      </trkpt>
      <trkpt lat="43.56814" lon="6.64689">
        <ele>203.94</ele>
        <time>2019-06-18T08:18:17Z</time>
      </trkpt>
      <trkpt lat="43.56814" lon="6.64685">
        <ele>203.94</ele>
        <time>2019-06-18T08:18:20Z</time>
      </trkpt>
      <trkpt lat="43.56812" lon="6.64674">
        <ele>203.46</ele>
        <time>2019-06-18T08:18:27Z</time>
      </trkpt>
      <trkpt lat="43.56811" lon="6.64659">
        <ele>203.46</ele>
        <time>2019-06-18T08:18:37Z</time>
      </trkpt>
      <trkpt lat="43.56809" lon="6.64644">
        <ele>203.46</ele>
        <time>2019-06-18T08:18:47Z</time>
      </trkpt>
      <trkpt lat="43.56806" lon="6.64631">
        <ele>202.98</ele>
        <time>2019-06-18T08:18:56Z</time>
      </trkpt>
      <trkpt lat="43.56803" lon="6.64624">
        <ele>202.98</ele>
        <time>2019-06-18T08:19:01Z</time>
      </trkpt>
      <trkpt lat="43.568" lon="6.64613">
        <ele>202.98</ele>
        <time>2019-06-18T08:19:11Z</time>
      </trkpt>
      <trkpt lat="43.568" lon="6.64611">
        <ele>202.98</ele>
        <time>2019-06-18T08:19:13Z</time>
      </trkpt>
      <trkpt lat="43.56798" lon="6.646">
        <ele>202.98</ele>
        <time>2019-06-18T08:19:20Z</time>
      </trkpt>
      <trkpt lat="43.56798" lon="6.64596">
        <ele>202.98</ele>
        <time>2019-06-18T08:19:23Z</time>
      </trkpt>
      <trkpt lat="43.56796" lon="6.64591">
        <ele>202.98</ele>
        <time>2019-06-18T08:19:26Z</time>
      </trkpt>
      <trkpt lat="43.56791" lon="6.64578">
        <ele>202.98</ele>
        <time>2019-06-18T08:19:36Z</time>
      </trkpt>
      <trkpt lat="43.5679" lon="6.64573">
        <ele>202.98</ele>
        <time>2019-06-18T08:19:39Z</time>
      </trkpt>
      <trkpt lat="43.56783" lon="6.64559">
        <ele>202.98</ele>
        <time>2019-06-18T08:19:48Z</time>
      </trkpt>
      <trkpt lat="43.5678" lon="6.64549">
        <ele>202.98</ele>
        <time>2019-06-18T08:19:55Z</time>
      </trkpt>
      <trkpt lat="43.56774" lon="6.64538">
        <ele>203.46</ele>
        <time>2019-06-18T08:20:05Z</time>
      </trkpt>
      <trkpt lat="43.56767" lon="6.64527">
        <ele>203.94</ele>
        <time>2019-06-18T08:20:15Z</time>
      </trkpt>
      <trkpt lat="43.56755" lon="6.6452">
        <ele>204.42</ele>
        <time>2019-06-18T08:20:26Z</time>
      </trkpt>
      <trkpt lat="43.56744" lon="6.64514">
        <ele>204.42</ele>
        <time>2019-06-18T08:20:36Z</time>
      </trkpt>
      <trkpt lat="43.5674" lon="6.64511">
        <ele>204.9</ele>
        <time>2019-06-18T08:20:40Z</time>
      </trkpt>
      <trkpt lat="43.5673" lon="6.64503">
        <ele>204.9</ele>
        <time>2019-06-18T08:20:52Z</time>
      </trkpt>
      <trkpt lat="43.56723" lon="6.64497">
        <ele>204.9</ele>
        <time>2019-06-18T08:21:01Z</time>
      </trkpt>
      <trkpt lat="43.56712" lon="6.64489">
        <ele>205.38</ele>
        <time>2019-06-18T08:21:14Z</time>
      </trkpt>
      <trkpt lat="43.56702" lon="6.6448">
        <ele>205.38</ele>
        <time>2019-06-18T08:21:25Z</time>
      </trkpt>
      <trkpt lat="43.56694" lon="6.64472">
        <ele>205.38</ele>
        <time>2019-06-18T08:21:35Z</time>
      </trkpt>
      <trkpt lat="43.56683" lon="6.64462">
        <ele>205.38</ele>
        <time>2019-06-18T08:21:47Z</time>
      </trkpt>
      <trkpt lat="43.56675" lon="6.64451">
        <ele>204.9</ele>
        <time>2019-06-18T08:21:58Z</time>
      </trkpt>
      <trkpt lat="43.56674" lon="6.64448">
        <ele>204.9</ele>
        <time>2019-06-18T08:22:00Z</time>
      </trkpt>
      <trkpt lat="43.56669" lon="6.64441">
        <ele>204.9</ele>
        <time>2019-06-18T08:22:10Z</time>
      </trkpt>
      <trkpt lat="43.56669" lon="6.64441">
        <ele>204.9</ele>
        <time>2019-06-18T08:22:24Z</time>
      </trkpt>
      <trkpt lat="43.56668" lon="6.64441">
        <ele>204.9</ele>
        <time>2019-06-18T08:22:41Z</time>
      </trkpt>
      <trkpt lat="43.56667" lon="6.6444">
        <ele>204.9</ele>
        <time>2019-06-18T08:22:56Z</time>
      </trkpt>
      <trkpt lat="43.56667" lon="6.6444">
        <ele>204.9</ele>
        <time>2019-06-18T08:23:09Z</time>
      </trkpt>
      <trkpt lat="43.56666" lon="6.6444">
        <ele>204.9</ele>
        <time>2019-06-18T08:23:24Z</time>
      </trkpt>
      <trkpt lat="43.56665" lon="6.6444">
        <ele>204.9</ele>
        <time>2019-06-18T08:23:33Z</time>
      </trkpt>
      <trkpt lat="43.56665" lon="6.64439">
        <ele>204.9</ele>
        <time>2019-06-18T08:23:46Z</time>
      </trkpt>
      <trkpt lat="43.56664" lon="6.64438">
        <ele>204.9</ele>
        <time>2019-06-18T08:23:59Z</time>
      </trkpt>
      <trkpt lat="43.56664" lon="6.64439">
        <ele>204.9</ele>
        <time>2019-06-18T08:24:10Z</time>
      </trkpt>
      <trkpt lat="43.56665" lon="6.64439">
        <ele>204.9</ele>
        <time>2019-06-18T08:24:20Z</time>
      </trkpt>
      <trkpt lat="43.56665" lon="6.64438">
        <ele>204.9</ele>
        <time>2019-06-18T08:24:33Z</time>
      </trkpt>
      <trkpt lat="43.56665" lon="6.64439">
        <ele>204.9</ele>
        <time>2019-06-18T08:24:48Z</time>
      </trkpt>
      <trkpt lat="43.56665" lon="6.64439">
        <ele>204.9</ele>
        <time>2019-06-18T08:25:11Z</time>
      </trkpt>
      <trkpt lat="43.56665" lon="6.64439">
        <ele>204.42</ele>
        <time>2019-06-18T08:25:27Z</time>
      </trkpt>
      <trkpt lat="43.56665" lon="6.64439">
        <ele>204.9</ele>
        <time>2019-06-18T08:25:45Z</time>
      </trkpt>
      <trkpt lat="43.56662" lon="6.64437">
        <ele>204.42</ele>
        <time>2019-06-18T08:26:06Z</time>
      </trkpt>
      <trkpt lat="43.56658" lon="6.64437">
        <ele>204.42</ele>
        <time>2019-06-18T08:26:15Z</time>
      </trkpt>
      <trkpt lat="43.56658" lon="6.64436">
        <ele>204.42</ele>
        <time>2019-06-18T08:26:38Z</time>
      </trkpt>
      <trkpt lat="43.56657" lon="6.64436">
        <ele>204.42</ele>
        <time>2019-06-18T08:26:54Z</time>
      </trkpt>
      <trkpt lat="43.56656" lon="6.64437">
        <ele>204.42</ele>
        <time>2019-06-18T08:27:09Z</time>
      </trkpt>
      <trkpt lat="43.56657" lon="6.64437">
        <ele>204.42</ele>
        <time>2019-06-18T08:27:27Z</time>
      </trkpt>
      <trkpt lat="43.56659" lon="6.64437">
        <ele>204.42</ele>
        <time>2019-06-18T08:27:39Z</time>
      </trkpt>
      <trkpt lat="43.56659" lon="6.64437">
        <ele>204.42</ele>
        <time>2019-06-18T08:28:03Z</time>
      </trkpt>
      <trkpt lat="43.5666" lon="6.64437">
        <ele>203.94</ele>
        <time>2019-06-18T08:28:25Z</time>
      </trkpt>
      <trkpt lat="43.56661" lon="6.64438">
        <ele>204.42</ele>
        <time>2019-06-18T08:28:48Z</time>
      </trkpt>
      <trkpt lat="43.56661" lon="6.64438">
        <ele>203.94</ele>
        <time>2019-06-18T08:29:11Z</time>
      </trkpt>
      <trkpt lat="43.56661" lon="6.64438">
        <ele>203.94</ele>
        <time>2019-06-18T08:29:30Z</time>
      </trkpt>
      <trkpt lat="43.5666" lon="6.64438">
        <ele>203.94</ele>
        <time>2019-06-18T08:29:57Z</time>
      </trkpt>
      <trkpt lat="43.5666" lon="6.64439">
        <ele>203.94</ele>
        <time>2019-06-18T08:30:23Z</time>
      </trkpt>
      <trkpt lat="43.5666" lon="6.6444">
        <ele>203.94</ele>
        <time>2019-06-18T08:30:48Z</time>
      </trkpt>
      <trkpt lat="43.56661" lon="6.64441">
        <ele>203.94</ele>
        <time>2019-06-18T08:30:50Z</time>
      </trkpt>
      <trkpt lat="43.56664" lon="6.64441">
        <ele>203.94</ele>
        <time>2019-06-18T08:30:59Z</time>
      </trkpt>
      <trkpt lat="43.5666" lon="6.64438">
        <ele>203.94</ele>
        <time>2019-06-18T08:31:05Z</time>
      </trkpt>
      <trkpt lat="43.56653" lon="6.64436">
        <ele>203.46</ele>
        <time>2019-06-18T08:31:10Z</time>
      </trkpt>
      <trkpt lat="43.56646" lon="6.64437">
        <ele>203.46</ele>
        <time>2019-06-18T08:31:18Z</time>
      </trkpt>
      <trkpt lat="43.56632" lon="6.64436">
        <ele>202.98</ele>
        <time>2019-06-18T08:31:32Z</time>
      </trkpt>
      <trkpt lat="43.56624" lon="6.64438">
        <ele>202.98</ele>
        <time>2019-06-18T08:31:41Z</time>
      </trkpt>
      <trkpt lat="43.56617" lon="6.64441">
        <ele>202.98</ele>
        <time>2019-06-18T08:31:49Z</time>
      </trkpt>
      <trkpt lat="43.5661" lon="6.64447">
        <ele>202.49</ele>
        <time>2019-06-18T08:31:58Z</time>
      </trkpt>
      <trkpt lat="43.56607" lon="6.64449">
        <ele>202.49</ele>
        <time>2019-06-18T08:32:01Z</time>
      </trkpt>
      <trkpt lat="43.56599" lon="6.64456">
        <ele>202.01</ele>
        <time>2019-06-18T08:32:10Z</time>
      </trkpt>
      <trkpt lat="43.56595" lon="6.64458">
        <ele>201.05</ele>
        <time>2019-06-18T08:32:14Z</time>
      </trkpt>
      <trkpt lat="43.56592" lon="6.64461">
        <ele>201.05</ele>
        <time>2019-06-18T08:32:17Z</time>
      </trkpt>
      <trkpt lat="43.56589" lon="6.64462">
        <ele>200.57</ele>
        <time>2019-06-18T08:32:20Z</time>
      </trkpt>
      <trkpt lat="43.56587" lon="6.64463">
        <ele>200.09</ele>
        <time>2019-06-18T08:32:22Z</time>
      </trkpt>
      <trkpt lat="43.56584" lon="6.64467">
        <ele>199.61</ele>
        <time>2019-06-18T08:32:26Z</time>
      </trkpt>
      <trkpt lat="43.56572" lon="6.64472">
        <ele>199.13</ele>
        <time>2019-06-18T08:32:36Z</time>
      </trkpt>
      <trkpt lat="43.56563" lon="6.64481">
        <ele>198.17</ele>
        <time>2019-06-18T08:32:46Z</time>
      </trkpt>
      <trkpt lat="43.56562" lon="6.64482">
        <ele>197.69</ele>
        <time>2019-06-18T08:32:48Z</time>
      </trkpt>
      <trkpt lat="43.56556" lon="6.64485">
        <ele>197.21</ele>
        <time>2019-06-18T08:32:54Z</time>
      </trkpt>
      <trkpt lat="43.56553" lon="6.6449">
        <ele>196.73</ele>
        <time>2019-06-18T08:32:58Z</time>
      </trkpt>
      <trkpt lat="43.56551" lon="6.64494">
        <ele>196.25</ele>
        <time>2019-06-18T08:33:01Z</time>
      </trkpt>
      <trkpt lat="43.56548" lon="6.64498">
        <ele>195.77</ele>
        <time>2019-06-18T08:33:05Z</time>
      </trkpt>
      <trkpt lat="43.56547" lon="6.64501">
        <ele>195.77</ele>
        <time>2019-06-18T08:33:08Z</time>
      </trkpt>
      <trkpt lat="43.56541" lon="6.64511">
        <ele>193.84</ele>
        <time>2019-06-18T08:33:18Z</time>
      </trkpt>
      <trkpt lat="43.56536" lon="6.64522">
        <ele>193.36</ele>
        <time>2019-06-18T08:33:27Z</time>
      </trkpt>
      <trkpt lat="43.56531" lon="6.6453">
        <ele>192.4</ele>
        <time>2019-06-18T08:33:35Z</time>
      </trkpt>
      <trkpt lat="43.56523" lon="6.64533">
        <ele>192.88</ele>
        <time>2019-06-18T08:33:45Z</time>
      </trkpt>
      <trkpt lat="43.56522" lon="6.64534">
        <ele>192.4</ele>
        <time>2019-06-18T08:33:50Z</time>
      </trkpt>
      <trkpt lat="43.5652" lon="6.64538">
        <ele>191.92</ele>
        <time>2019-06-18T08:33:58Z</time>
      </trkpt>
      <trkpt lat="43.5652" lon="6.64538">
        <ele>191.44</ele>
        <time>2019-06-18T08:34:14Z</time>
      </trkpt>
      <trkpt lat="43.5652" lon="6.64539">
        <ele>191.44</ele>
        <time>2019-06-18T08:34:29Z</time>
      </trkpt>
      <trkpt lat="43.56519" lon="6.64539">
        <ele>190.96</ele>
        <time>2019-06-18T08:34:31Z</time>
      </trkpt>
      <trkpt lat="43.56512" lon="6.64545">
        <ele>189.52</ele>
        <time>2019-06-18T08:34:40Z</time>
      </trkpt>
      <trkpt lat="43.56508" lon="6.6455">
        <ele>188.56</ele>
        <time>2019-06-18T08:34:52Z</time>
      </trkpt>
      <trkpt lat="43.56503" lon="6.64545">
        <ele>186.15</ele>
        <time>2019-06-18T08:35:02Z</time>
      </trkpt>
      <trkpt lat="43.56501" lon="6.64543">
        <ele>185.67</ele>
        <time>2019-06-18T08:35:13Z</time>
      </trkpt>
      <trkpt lat="43.565" lon="6.64542">
        <ele>185.19</ele>
        <time>2019-06-18T08:35:27Z</time>
      </trkpt>
      <trkpt lat="43.565" lon="6.64538">
        <ele>184.71</ele>
        <time>2019-06-18T08:35:33Z</time>
      </trkpt>
      <trkpt lat="43.56502" lon="6.64533">
        <ele>184.71</ele>
        <time>2019-06-18T08:35:42Z</time>
      </trkpt>
      <trkpt lat="43.56502" lon="6.64532">
        <ele>184.71</ele>
        <time>2019-06-18T08:35:45Z</time>
      </trkpt>
      <trkpt lat="43.56504" lon="6.64528">
        <ele>184.71</ele>
        <time>2019-06-18T08:35:54Z</time>
      </trkpt>
      <trkpt lat="43.56503" lon="6.64527">
        <ele>184.71</ele>
        <time>2019-06-18T08:36:11Z</time>
      </trkpt>
      <trkpt lat="43.56503" lon="6.64526">
        <ele>184.71</ele>
        <time>2019-06-18T08:36:13Z</time>
      </trkpt>
      <trkpt lat="43.565" lon="6.64522">
        <ele>185.19</ele>
        <time>2019-06-18T08:36:24Z</time>
      </trkpt>
      <trkpt lat="43.56499" lon="6.6452">
        <ele>185.67</ele>
        <time>2019-06-18T08:36:33Z</time>
      </trkpt>
      <trkpt lat="43.56497" lon="6.64518">
        <ele>185.67</ele>
        <time>2019-06-18T08:36:37Z</time>
      </trkpt>
      <trkpt lat="43.56495" lon="6.64513">
        <ele>185.67</ele>
        <time>2019-06-18T08:36:42Z</time>
      </trkpt>
      <trkpt lat="43.56494" lon="6.64504">
        <ele>185.67</ele>
        <time>2019-06-18T08:36:49Z</time>
      </trkpt>
      <trkpt lat="43.56491" lon="6.64493">
        <ele>186.15</ele>
        <time>2019-06-18T08:36:58Z</time>
      </trkpt>
      <trkpt lat="43.56487" lon="6.64492">
        <ele>186.63</ele>
        <time>2019-06-18T08:37:07Z</time>
      </trkpt>
      <trkpt lat="43.56484" lon="6.64485">
        <ele>188.08</ele>
        <time>2019-06-18T08:37:18Z</time>
      </trkpt>
      <trkpt lat="43.56481" lon="6.64479">
        <ele>189.52</ele>
        <time>2019-06-18T08:37:28Z</time>
      </trkpt>
      <trkpt lat="43.56477" lon="6.64474">
        <ele>190</ele>
        <time>2019-06-18T08:37:35Z</time>
      </trkpt>
      <trkpt lat="43.56474" lon="6.64471">
        <ele>191.44</ele>
        <time>2019-06-18T08:37:45Z</time>
      </trkpt>
      <trkpt lat="43.56472" lon="6.64472">
        <ele>193.36</ele>
        <time>2019-06-18T08:37:54Z</time>
      </trkpt>
      <trkpt lat="43.56475" lon="6.64472">
        <ele>194.32</ele>
        <time>2019-06-18T08:38:03Z</time>
      </trkpt>
      <trkpt lat="43.56476" lon="6.6447">
        <ele>195.77</ele>
        <time>2019-06-18T08:38:13Z</time>
      </trkpt>
      <trkpt lat="43.56474" lon="6.64464">
        <ele>197.21</ele>
        <time>2019-06-18T08:38:24Z</time>
      </trkpt>
      <trkpt lat="43.56472" lon="6.64462">
        <ele>197.69</ele>
        <time>2019-06-18T08:38:39Z</time>
      </trkpt>
      <trkpt lat="43.5647" lon="6.6446">
        <ele>197.69</ele>
        <time>2019-06-18T08:38:47Z</time>
      </trkpt>
      <trkpt lat="43.56468" lon="6.64457">
        <ele>198.65</ele>
        <time>2019-06-18T08:38:57Z</time>
      </trkpt>
      <trkpt lat="43.56464" lon="6.64449">
        <ele>200.57</ele>
        <time>2019-06-18T08:39:08Z</time>
      </trkpt>
      <trkpt lat="43.56457" lon="6.64443">
        <ele>201.05</ele>
        <time>2019-06-18T08:39:18Z</time>
      </trkpt>
      <trkpt lat="43.56452" lon="6.64443">
        <ele>201.05</ele>
        <time>2019-06-18T08:39:23Z</time>
      </trkpt>
      <trkpt lat="43.56441" lon="6.6444">
        <ele>201.05</ele>
        <time>2019-06-18T08:39:34Z</time>
      </trkpt>
      <trkpt lat="43.56433" lon="6.6444">
        <ele>201.53</ele>
        <time>2019-06-18T08:39:46Z</time>
      </trkpt>
      <trkpt lat="43.56426" lon="6.64436">
        <ele>201.53</ele>
        <time>2019-06-18T08:39:55Z</time>
      </trkpt>
      <trkpt lat="43.56417" lon="6.64431">
        <ele>202.01</ele>
        <time>2019-06-18T08:40:06Z</time>
      </trkpt>
      <trkpt lat="43.56412" lon="6.64425">
        <ele>202.49</ele>
        <time>2019-06-18T08:40:15Z</time>
      </trkpt>
      <trkpt lat="43.56406" lon="6.64416">
        <ele>203.94</ele>
        <time>2019-06-18T08:40:23Z</time>
      </trkpt>
      <trkpt lat="43.56402" lon="6.64408">
        <ele>203.46</ele>
        <time>2019-06-18T08:40:30Z</time>
      </trkpt>
      <trkpt lat="43.56401" lon="6.64404">
        <ele>203.46</ele>
        <time>2019-06-18T08:40:33Z</time>
      </trkpt>
      <trkpt lat="43.56392" lon="6.64395">
        <ele>203.94</ele>
        <time>2019-06-18T08:40:44Z</time>
      </trkpt>
      <trkpt lat="43.56385" lon="6.64391">
        <ele>204.9</ele>
        <time>2019-06-18T08:40:53Z</time>
      </trkpt>
      <trkpt lat="43.56382" lon="6.64392">
        <ele>204.9</ele>
        <time>2019-06-18T08:41:04Z</time>
      </trkpt>
      <trkpt lat="43.5638" lon="6.64392">
        <ele>204.9</ele>
        <time>2019-06-18T08:41:21Z</time>
      </trkpt>
      <trkpt lat="43.56379" lon="6.64392">
        <ele>205.38</ele>
        <time>2019-06-18T08:41:35Z</time>
      </trkpt>
      <trkpt lat="43.56377" lon="6.64393">
        <ele>205.38</ele>
        <time>2019-06-18T08:41:50Z</time>
      </trkpt>
      <trkpt lat="43.56375" lon="6.64395">
        <ele>205.38</ele>
        <time>2019-06-18T08:42:12Z</time>
      </trkpt>
      <trkpt lat="43.56375" lon="6.64396">
        <ele>205.38</ele>
        <time>2019-06-18T08:42:30Z</time>
      </trkpt>
      <trkpt lat="43.56375" lon="6.64396">
        <ele>205.38</ele>
        <time>2019-06-18T08:42:56Z</time>
      </trkpt>
      <trkpt lat="43.56376" lon="6.64397">
        <ele>205.38</ele>
        <time>2019-06-18T08:43:17Z</time>
      </trkpt>
      <trkpt lat="43.56375" lon="6.64396">
        <ele>205.38</ele>
        <time>2019-06-18T08:43:38Z</time>
      </trkpt>
      <trkpt lat="43.56375" lon="6.64396">
        <ele>205.38</ele>
        <time>2019-06-18T08:43:53Z</time>
      </trkpt>
      <trkpt lat="43.56375" lon="6.64395">
        <ele>205.38</ele>
        <time>2019-06-18T08:44:10Z</time>
      </trkpt>
      <trkpt lat="43.56375" lon="6.64396">
        <ele>204.9</ele>
        <time>2019-06-18T08:44:29Z</time>
      </trkpt>
      <trkpt lat="43.56375" lon="6.64395">
        <ele>205.38</ele>
        <time>2019-06-18T08:44:49Z</time>
      </trkpt>
      <trkpt lat="43.56374" lon="6.64387">
        <ele>206.82</ele>
        <time>2019-06-18T08:45:00Z</time>
      </trkpt>
      <trkpt lat="43.56368" lon="6.64378">
        <ele>206.82</ele>
        <time>2019-06-18T08:45:11Z</time>
      </trkpt>
      <trkpt lat="43.56361" lon="6.64372">
        <ele>206.34</ele>
        <time>2019-06-18T08:45:21Z</time>
      </trkpt>
      <trkpt lat="43.56356" lon="6.64371">
        <ele>206.34</ele>
        <time>2019-06-18T08:45:32Z</time>
      </trkpt>
      <trkpt lat="43.56348" lon="6.64365">
        <ele>206.34</ele>
        <time>2019-06-18T08:45:42Z</time>
      </trkpt>
      <trkpt lat="43.56337" lon="6.64359">
        <ele>205.86</ele>
        <time>2019-06-18T08:45:54Z</time>
      </trkpt>
      <trkpt lat="43.56333" lon="6.64354">
        <ele>205.86</ele>
        <time>2019-06-18T08:46:02Z</time>
      </trkpt>
      <trkpt lat="43.56324" lon="6.64348">
        <ele>203.94</ele>
        <time>2019-06-18T08:46:12Z</time>
      </trkpt>
      <trkpt lat="43.56318" lon="6.6434">
        <ele>202.49</ele>
        <time>2019-06-18T08:46:22Z</time>
      </trkpt>
      <trkpt lat="43.56318" lon="6.64338">
        <ele>203.46</ele>
        <time>2019-06-18T08:46:24Z</time>
      </trkpt>
      <trkpt lat="43.56317" lon="6.64329">
        <ele>202.01</ele>
        <time>2019-06-18T08:46:31Z</time>
      </trkpt>
      <trkpt lat="43.56321" lon="6.64321">
        <ele>202.01</ele>
        <time>2019-06-18T08:46:40Z</time>
      </trkpt>
      <trkpt lat="43.56326" lon="6.64312">
        <ele>202.01</ele>
        <time>2019-06-18T08:46:52Z</time>
      </trkpt>
      <trkpt lat="43.56331" lon="6.64304">
        <ele>202.49</ele>
        <time>2019-06-18T08:47:03Z</time>
      </trkpt>
      <trkpt lat="43.56332" lon="6.64294">
        <ele>202.98</ele>
        <time>2019-06-18T08:47:14Z</time>
      </trkpt>
      <trkpt lat="43.56335" lon="6.64284">
        <ele>203.46</ele>
        <time>2019-06-18T08:47:25Z</time>
      </trkpt>
      <trkpt lat="43.56338" lon="6.64272">
        <ele>202.98</ele>
        <time>2019-06-18T08:47:35Z</time>
      </trkpt>
      <trkpt lat="43.56343" lon="6.64264">
        <ele>202.98</ele>
        <time>2019-06-18T08:47:45Z</time>
      </trkpt>
      <trkpt lat="43.56348" lon="6.64255">
        <ele>204.42</ele>
        <time>2019-06-18T08:47:56Z</time>
      </trkpt>
      <trkpt lat="43.56352" lon="6.64243">
        <ele>204.9</ele>
        <time>2019-06-18T08:48:06Z</time>
      </trkpt>
      <trkpt lat="43.56356" lon="6.64228">
        <ele>204.9</ele>
        <time>2019-06-18T08:48:19Z</time>
      </trkpt>
      <trkpt lat="43.56363" lon="6.64221">
        <ele>204.9</ele>
        <time>2019-06-18T08:48:28Z</time>
      </trkpt>
      <trkpt lat="43.56368" lon="6.64215">
        <ele>204.9</ele>
        <time>2019-06-18T08:48:35Z</time>
      </trkpt>
      <trkpt lat="43.56372" lon="6.64212">
        <ele>205.38</ele>
        <time>2019-06-18T08:48:42Z</time>
      </trkpt>
      <trkpt lat="43.56382" lon="6.64212">
        <ele>206.34</ele>
        <time>2019-06-18T08:48:54Z</time>
      </trkpt>
      <trkpt lat="43.56387" lon="6.64216">
        <ele>207.78</ele>
        <time>2019-06-18T08:49:05Z</time>
      </trkpt>
      <trkpt lat="43.56393" lon="6.64218">
        <ele>208.74</ele>
        <time>2019-06-18T08:49:16Z</time>
      </trkpt>
      <trkpt lat="43.56403" lon="6.64218">
        <ele>209.7</ele>
        <time>2019-06-18T08:49:27Z</time>
      </trkpt>
      <trkpt lat="43.56412" lon="6.64218">
        <ele>210.19</ele>
        <time>2019-06-18T08:49:38Z</time>
      </trkpt>
      <trkpt lat="43.5642" lon="6.64218">
        <ele>210.19</ele>
        <time>2019-06-18T08:49:48Z</time>
      </trkpt>
      <trkpt lat="43.56429" lon="6.64218">
        <ele>209.22</ele>
        <time>2019-06-18T08:49:58Z</time>
      </trkpt>
      <trkpt lat="43.56431" lon="6.64215">
        <ele>208.74</ele>
        <time>2019-06-18T08:50:08Z</time>
      </trkpt>
      <trkpt lat="43.56433" lon="6.64214">
        <ele>208.74</ele>
        <time>2019-06-18T08:50:25Z</time>
      </trkpt>
      <trkpt lat="43.56433" lon="6.64213">
        <ele>208.74</ele>
        <time>2019-06-18T08:50:46Z</time>
      </trkpt>
      <trkpt lat="43.56434" lon="6.64211">
        <ele>208.74</ele>
        <time>2019-06-18T08:51:05Z</time>
      </trkpt>
      <trkpt lat="43.56433" lon="6.6421">
        <ele>208.74</ele>
        <time>2019-06-18T08:51:15Z</time>
      </trkpt>
      <trkpt lat="43.56434" lon="6.6421">
        <ele>209.22</ele>
        <time>2019-06-18T08:51:34Z</time>
      </trkpt>
      <trkpt lat="43.56435" lon="6.64212">
        <ele>208.74</ele>
        <time>2019-06-18T08:51:48Z</time>
      </trkpt>
      <trkpt lat="43.56437" lon="6.6421">
        <ele>208.74</ele>
        <time>2019-06-18T08:52:02Z</time>
      </trkpt>
      <trkpt lat="43.56439" lon="6.64211">
        <ele>207.78</ele>
        <time>2019-06-18T08:52:09Z</time>
      </trkpt>
      <trkpt lat="43.56443" lon="6.6421">
        <ele>207.3</ele>
        <time>2019-06-18T08:52:11Z</time>
      </trkpt>
      <trkpt lat="43.5645" lon="6.64209">
        <ele>206.34</ele>
        <time>2019-06-18T08:52:21Z</time>
      </trkpt>
      <trkpt lat="43.56455" lon="6.64206">
        <ele>205.86</ele>
        <time>2019-06-18T08:52:26Z</time>
      </trkpt>
      <trkpt lat="43.56465" lon="6.642">
        <ele>203.94</ele>
        <time>2019-06-18T08:52:36Z</time>
      </trkpt>
      <trkpt lat="43.56472" lon="6.64195">
        <ele>202.49</ele>
        <time>2019-06-18T08:52:45Z</time>
      </trkpt>
      <trkpt lat="43.5648" lon="6.64192">
        <ele>201.53</ele>
        <time>2019-06-18T08:52:55Z</time>
      </trkpt>
      <trkpt lat="43.56481" lon="6.64191">
        <ele>201.53</ele>
        <time>2019-06-18T08:52:56Z</time>
      </trkpt>
      <trkpt lat="43.56487" lon="6.6419">
        <ele>201.05</ele>
        <time>2019-06-18T08:53:02Z</time>
      </trkpt>
      <trkpt lat="43.56495" lon="6.6419">
        <ele>200.57</ele>
        <time>2019-06-18T08:53:11Z</time>
      </trkpt>
      <trkpt lat="43.56501" lon="6.64182">
        <ele>199.61</ele>
        <time>2019-06-18T08:53:20Z</time>
      </trkpt>
      <trkpt lat="43.56502" lon="6.64179">
        <ele>199.61</ele>
        <time>2019-06-18T08:53:22Z</time>
      </trkpt>
      <trkpt lat="43.565" lon="6.64167">
        <ele>199.13</ele>
        <time>2019-06-18T08:53:32Z</time>
      </trkpt>
      <trkpt lat="43.565" lon="6.64161">
        <ele>199.13</ele>
        <time>2019-06-18T08:53:42Z</time>
      </trkpt>
      <trkpt lat="43.56499" lon="6.64151">
        <ele>199.13</ele>
        <time>2019-06-18T08:53:51Z</time>
      </trkpt>
      <trkpt lat="43.56499" lon="6.64147">
        <ele>199.13</ele>
        <time>2019-06-18T08:53:55Z</time>
      </trkpt>
      <trkpt lat="43.565" lon="6.64132">
        <ele>199.13</ele>
        <time>2019-06-18T08:54:07Z</time>
      </trkpt>
      <trkpt lat="43.565" lon="6.64127">
        <ele>198.65</ele>
        <time>2019-06-18T08:54:13Z</time>
      </trkpt>
      <trkpt lat="43.565" lon="6.64119">
        <ele>199.13</ele>
        <time>2019-06-18T08:54:21Z</time>
      </trkpt>
      <trkpt lat="43.56499" lon="6.64105">
        <ele>199.13</ele>
        <time>2019-06-18T08:54:32Z</time>
      </trkpt>
      <trkpt lat="43.56499" lon="6.64092">
        <ele>199.13</ele>
        <time>2019-06-18T08:54:43Z</time>
      </trkpt>
      <trkpt lat="43.56498" lon="6.64083">
        <ele>199.13</ele>
        <time>2019-06-18T08:54:53Z</time>
      </trkpt>
      <trkpt lat="43.56497" lon="6.64078">
        <ele>199.13</ele>
        <time>2019-06-18T08:54:57Z</time>
      </trkpt>
      <trkpt lat="43.56491" lon="6.6407">
        <ele>199.61</ele>
        <time>2019-06-18T08:55:08Z</time>
      </trkpt>
      <trkpt lat="43.56486" lon="6.64065">
        <ele>200.09</ele>
        <time>2019-06-18T08:55:16Z</time>
      </trkpt>
      <trkpt lat="43.56482" lon="6.64063">
        <ele>200.09</ele>
        <time>2019-06-18T08:55:20Z</time>
      </trkpt>
      <trkpt lat="43.56473" lon="6.64054">
        <ele>201.53</ele>
        <time>2019-06-18T08:55:33Z</time>
      </trkpt>
      <trkpt lat="43.56467" lon="6.64047">
        <ele>202.49</ele>
        <time>2019-06-18T08:55:42Z</time>
      </trkpt>
      <trkpt lat="43.56467" lon="6.6404">
        <ele>203.46</ele>
        <time>2019-06-18T08:55:49Z</time>
      </trkpt>
      <trkpt lat="43.56469" lon="6.64038">
        <ele>203.94</ele>
        <time>2019-06-18T08:55:51Z</time>
      </trkpt>
      <trkpt lat="43.56477" lon="6.64038">
        <ele>204.9</ele>
        <time>2019-06-18T08:56:02Z</time>
      </trkpt>
      <trkpt lat="43.56486" lon="6.64037">
        <ele>205.86</ele>
        <time>2019-06-18T08:56:12Z</time>
      </trkpt>
      <trkpt lat="43.56496" lon="6.64036">
        <ele>207.78</ele>
        <time>2019-06-18T08:56:25Z</time>
      </trkpt>
      <trkpt lat="43.56506" lon="6.64038">
        <ele>207.78</ele>
        <time>2019-06-18T08:56:37Z</time>
      </trkpt>
      <trkpt lat="43.56507" lon="6.64037">
        <ele>207.78</ele>
        <time>2019-06-18T08:56:38Z</time>
      </trkpt>
      <trkpt lat="43.56512" lon="6.64035">
        <ele>209.22</ele>
        <time>2019-06-18T08:56:48Z</time>
      </trkpt>
      <trkpt lat="43.56519" lon="6.64037">
        <ele>210.67</ele>
        <time>2019-06-18T08:56:58Z</time>
      </trkpt>
      <trkpt lat="43.56522" lon="6.64035">
        <ele>210.67</ele>
        <time>2019-06-18T08:57:02Z</time>
      </trkpt>
      <trkpt lat="43.56531" lon="6.64029">
        <ele>211.15</ele>
        <time>2019-06-18T08:57:15Z</time>
      </trkpt>
      <trkpt lat="43.56538" lon="6.64022">
        <ele>211.63</ele>
        <time>2019-06-18T08:57:25Z</time>
      </trkpt>
      <trkpt lat="43.56545" lon="6.64013">
        <ele>212.59</ele>
        <time>2019-06-18T08:57:36Z</time>
      </trkpt>
      <trkpt lat="43.56551" lon="6.6401">
        <ele>214.51</ele>
        <time>2019-06-18T08:57:49Z</time>
      </trkpt>
      <trkpt lat="43.56557" lon="6.64007">
        <ele>215.95</ele>
        <time>2019-06-18T08:58:00Z</time>
      </trkpt>
      <trkpt lat="43.56563" lon="6.64007">
        <ele>216.91</ele>
        <time>2019-06-18T08:58:11Z</time>
      </trkpt>
      <trkpt lat="43.56567" lon="6.63998">
        <ele>217.88</ele>
        <time>2019-06-18T08:58:20Z</time>
      </trkpt>
      <trkpt lat="43.56572" lon="6.63993">
        <ele>218.84</ele>
        <time>2019-06-18T08:58:29Z</time>
      </trkpt>
      <trkpt lat="43.56573" lon="6.63982">
        <ele>220.28</ele>
        <time>2019-06-18T08:58:41Z</time>
      </trkpt>
      <trkpt lat="43.5657" lon="6.63971">
        <ele>220.76</ele>
        <time>2019-06-18T08:58:48Z</time>
      </trkpt>
      <trkpt lat="43.56569" lon="6.63962">
        <ele>222.2</ele>
        <time>2019-06-18T08:58:57Z</time>
      </trkpt>
      <trkpt lat="43.56567" lon="6.6395">
        <ele>223.16</ele>
        <time>2019-06-18T08:59:09Z</time>
      </trkpt>
      <trkpt lat="43.5657" lon="6.63942">
        <ele>224.61</ele>
        <time>2019-06-18T08:59:19Z</time>
      </trkpt>
      <trkpt lat="43.56579" lon="6.63942">
        <ele>225.09</ele>
        <time>2019-06-18T08:59:31Z</time>
      </trkpt>
      <trkpt lat="43.56585" lon="6.6394">
        <ele>226.05</ele>
        <time>2019-06-18T08:59:40Z</time>
      </trkpt>
      <trkpt lat="43.56595" lon="6.63933">
        <ele>226.05</ele>
        <time>2019-06-18T08:59:52Z</time>
      </trkpt>
      <trkpt lat="43.566" lon="6.63932">
        <ele>226.05</ele>
        <time>2019-06-18T09:00:03Z</time>
      </trkpt>
      <trkpt lat="43.566" lon="6.63934">
        <ele>226.05</ele>
        <time>2019-06-18T09:00:08Z</time>
      </trkpt>
      <trkpt lat="43.56603" lon="6.63943">
        <ele>225.09</ele>
        <time>2019-06-18T09:00:18Z</time>
      </trkpt>
      <trkpt lat="43.56605" lon="6.63953">
        <ele>225.09</ele>
        <time>2019-06-18T09:00:28Z</time>
      </trkpt>
      <trkpt lat="43.56605" lon="6.6396">
        <ele>224.61</ele>
        <time>2019-06-18T09:00:39Z</time>
      </trkpt>
      <trkpt lat="43.56605" lon="6.63961">
        <ele>224.12</ele>
        <time>2019-06-18T09:00:59Z</time>
      </trkpt>
      <trkpt lat="43.56607" lon="6.63963">
        <ele>224.12</ele>
        <time>2019-06-18T09:01:11Z</time>
      </trkpt>
      <trkpt lat="43.56611" lon="6.63958">
        <ele>224.61</ele>
        <time>2019-06-18T09:01:24Z</time>
      </trkpt>
      <trkpt lat="43.56619" lon="6.63955">
        <ele>224.12</ele>
        <time>2019-06-18T09:01:35Z</time>
      </trkpt>
      <trkpt lat="43.56617" lon="6.63951">
        <ele>224.61</ele>
        <time>2019-06-18T09:01:45Z</time>
      </trkpt>
      <trkpt lat="43.56617" lon="6.63952">
        <ele>224.12</ele>
        <time>2019-06-18T09:02:02Z</time>
      </trkpt>
      <trkpt lat="43.56617" lon="6.63952">
        <ele>224.12</ele>
        <time>2019-06-18T09:02:23Z</time>
      </trkpt>
      <trkpt lat="43.56618" lon="6.63952">
        <ele>224.12</ele>
        <time>2019-06-18T09:02:34Z</time>
      </trkpt>
      <trkpt lat="43.56619" lon="6.63952">
        <ele>224.12</ele>
        <time>2019-06-18T09:02:48Z</time>
      </trkpt>
      <trkpt lat="43.56619" lon="6.63952">
        <ele>224.12</ele>
        <time>2019-06-18T09:03:03Z</time>
      </trkpt>
      <trkpt lat="43.56618" lon="6.63951">
        <ele>224.12</ele>
        <time>2019-06-18T09:03:23Z</time>
      </trkpt>
      <trkpt lat="43.56617" lon="6.63951">
        <ele>224.12</ele>
        <time>2019-06-18T09:03:42Z</time>
      </trkpt>
      <trkpt lat="43.56617" lon="6.63951">
        <ele>224.61</ele>
        <time>2019-06-18T09:04:04Z</time>
      </trkpt>
      <trkpt lat="43.56617" lon="6.63951">
        <ele>224.12</ele>
        <time>2019-06-18T09:04:23Z</time>
      </trkpt>
      <trkpt lat="43.56616" lon="6.63951">
        <ele>224.12</ele>
        <time>2019-06-18T09:04:47Z</time>
      </trkpt>
      <trkpt lat="43.56617" lon="6.63951">
        <ele>224.12</ele>
        <time>2019-06-18T09:05:09Z</time>
      </trkpt>
      <trkpt lat="43.56617" lon="6.63951">
        <ele>224.12</ele>
        <time>2019-06-18T09:05:32Z</time>
      </trkpt>
      <trkpt lat="43.56617" lon="6.63951">
        <ele>224.12</ele>
        <time>2019-06-18T09:05:59Z</time>
      </trkpt>
      <trkpt lat="43.56617" lon="6.63951">
        <ele>224.12</ele>
        <time>2019-06-18T09:06:15Z</time>
      </trkpt>
      <trkpt lat="43.56616" lon="6.63952">
        <ele>224.12</ele>
        <time>2019-06-18T09:06:34Z</time>
      </trkpt>
      <trkpt lat="43.56616" lon="6.63951">
        <ele>224.12</ele>
        <time>2019-06-18T09:06:57Z</time>
      </trkpt>
      <trkpt lat="43.56616" lon="6.63952">
        <ele>224.12</ele>
        <time>2019-06-18T09:07:17Z</time>
      </trkpt>
      <trkpt lat="43.56617" lon="6.63952">
        <ele>224.12</ele>
        <time>2019-06-18T09:07:30Z</time>
      </trkpt>
      <trkpt lat="43.56617" lon="6.63951">
        <ele>224.12</ele>
        <time>2019-06-18T09:07:44Z</time>
      </trkpt>
      <trkpt lat="43.56617" lon="6.63951">
        <ele>224.12</ele>
        <time>2019-06-18T09:08:05Z</time>
      </trkpt>
      <trkpt lat="43.56617" lon="6.63951">
        <ele>224.12</ele>
        <time>2019-06-18T09:08:27Z</time>
      </trkpt>
      <trkpt lat="43.56617" lon="6.63951">
        <ele>224.12</ele>
        <time>2019-06-18T09:08:45Z</time>
      </trkpt>
      <trkpt lat="43.56617" lon="6.63951">
        <ele>224.12</ele>
        <time>2019-06-18T09:08:59Z</time>
      </trkpt>
      <trkpt lat="43.56617" lon="6.63951">
        <ele>227.97</ele>
        <time>2019-06-18T09:09:11Z</time>
      </trkpt>
      <trkpt lat="43.56617" lon="6.63951">
        <ele>224.61</ele>
        <time>2019-06-18T09:09:12Z</time>
      </trkpt>
      <trkpt lat="43.56617" lon="6.63951">
        <ele>218.36</ele>
        <time>2019-06-18T09:09:16Z</time>
      </trkpt>
      <trkpt lat="43.56617" lon="6.63951">
        <ele>229.41</ele>
        <time>2019-06-18T09:09:17Z</time>
      </trkpt>
      <trkpt lat="43.56617" lon="6.63951">
        <ele>224.61</ele>
        <time>2019-06-18T09:09:18Z</time>
      </trkpt>
      <trkpt lat="43.56617" lon="6.63951">
        <ele>224.12</ele>
        <time>2019-06-18T09:09:30Z</time>
      </trkpt>
      <trkpt lat="43.56618" lon="6.6395">
        <ele>224.12</ele>
        <time>2019-06-18T09:09:41Z</time>
      </trkpt>
      <trkpt lat="43.56619" lon="6.63948">
        <ele>224.12</ele>
        <time>2019-06-18T09:09:52Z</time>
      </trkpt>
      <trkpt lat="43.56618" lon="6.63949">
        <ele>224.12</ele>
        <time>2019-06-18T09:10:05Z</time>
      </trkpt>
      <trkpt lat="43.56619" lon="6.63948">
        <ele>224.12</ele>
        <time>2019-06-18T09:10:28Z</time>
      </trkpt>
      <trkpt lat="43.56619" lon="6.63948">
        <ele>224.12</ele>
        <time>2019-06-18T09:10:50Z</time>
      </trkpt>
      <trkpt lat="43.56619" lon="6.63948">
        <ele>224.12</ele>
        <time>2019-06-18T09:11:03Z</time>
      </trkpt>
      <trkpt lat="43.56618" lon="6.63949">
        <ele>224.12</ele>
        <time>2019-06-18T09:11:23Z</time>
      </trkpt>
      <trkpt lat="43.56618" lon="6.63948">
        <ele>224.12</ele>
        <time>2019-06-18T09:11:37Z</time>
      </trkpt>
      <trkpt lat="43.56618" lon="6.63949">
        <ele>224.12</ele>
        <time>2019-06-18T09:12:02Z</time>
      </trkpt>
      <trkpt lat="43.56617" lon="6.63949">
        <ele>224.12</ele>
        <time>2019-06-18T09:12:21Z</time>
      </trkpt>
      <trkpt lat="43.56616" lon="6.63949">
        <ele>224.12</ele>
        <time>2019-06-18T09:12:46Z</time>
      </trkpt>
      <trkpt lat="43.56615" lon="6.63949">
        <ele>224.12</ele>
        <time>2019-06-18T09:13:13Z</time>
      </trkpt>
      <trkpt lat="43.56616" lon="6.63949">
        <ele>224.12</ele>
        <time>2019-06-18T09:13:35Z</time>
      </trkpt>
      <trkpt lat="43.56617" lon="6.63949">
        <ele>224.12</ele>
        <time>2019-06-18T09:14:03Z</time>
      </trkpt>
      <trkpt lat="43.56618" lon="6.63949">
        <ele>224.12</ele>
        <time>2019-06-18T09:14:20Z</time>
      </trkpt>
      <trkpt lat="43.56618" lon="6.63949">
        <ele>224.12</ele>
        <time>2019-06-18T09:14:36Z</time>
      </trkpt>
      <trkpt lat="43.56618" lon="6.63949">
        <ele>224.12</ele>
        <time>2019-06-18T09:15:00Z</time>
      </trkpt>
      <trkpt lat="43.56618" lon="6.6395">
        <ele>224.12</ele>
        <time>2019-06-18T09:15:15Z</time>
      </trkpt>
      <trkpt lat="43.56618" lon="6.6395">
        <ele>224.12</ele>
        <time>2019-06-18T09:15:37Z</time>
      </trkpt>
      <trkpt lat="43.56617" lon="6.6395">
        <ele>223.64</ele>
        <time>2019-06-18T09:15:56Z</time>
      </trkpt>
      <trkpt lat="43.56617" lon="6.6395">
        <ele>224.12</ele>
        <time>2019-06-18T09:16:17Z</time>
      </trkpt>
      <trkpt lat="43.56617" lon="6.63949">
        <ele>224.12</ele>
        <time>2019-06-18T09:16:37Z</time>
      </trkpt>
      <trkpt lat="43.56617" lon="6.63948">
        <ele>224.12</ele>
        <time>2019-06-18T09:17:01Z</time>
      </trkpt>
      <trkpt lat="43.56615" lon="6.63948">
        <ele>224.12</ele>
        <time>2019-06-18T09:17:03Z</time>
      </trkpt>
      <trkpt lat="43.56609" lon="6.63943">
        <ele>224.61</ele>
        <time>2019-06-18T09:17:13Z</time>
      </trkpt>
      <trkpt lat="43.56608" lon="6.63941">
        <ele>225.09</ele>
        <time>2019-06-18T09:17:23Z</time>
      </trkpt>
      <trkpt lat="43.56608" lon="6.63941">
        <ele>225.09</ele>
        <time>2019-06-18T09:17:43Z</time>
      </trkpt>
      <trkpt lat="43.56608" lon="6.6394">
        <ele>224.61</ele>
        <time>2019-06-18T09:17:48Z</time>
      </trkpt>
      <trkpt lat="43.56608" lon="6.63927">
        <ele>225.57</ele>
        <time>2019-06-18T09:17:58Z</time>
      </trkpt>
      <trkpt lat="43.56609" lon="6.63915">
        <ele>226.53</ele>
        <time>2019-06-18T09:18:08Z</time>
      </trkpt>
      <trkpt lat="43.56607" lon="6.63916">
        <ele>226.53</ele>
        <time>2019-06-18T09:18:17Z</time>
      </trkpt>
      <trkpt lat="43.56609" lon="6.63913">
        <ele>227.01</ele>
        <time>2019-06-18T09:18:26Z</time>
      </trkpt>
      <trkpt lat="43.56603" lon="6.63916">
        <ele>226.53</ele>
        <time>2019-06-18T09:18:37Z</time>
      </trkpt>
      <trkpt lat="43.56601" lon="6.63922">
        <ele>226.53</ele>
        <time>2019-06-18T09:18:42Z</time>
      </trkpt>
      <trkpt lat="43.56601" lon="6.63926">
        <ele>226.05</ele>
        <time>2019-06-18T09:18:52Z</time>
      </trkpt>
      <trkpt lat="43.56602" lon="6.63932">
        <ele>225.57</ele>
        <time>2019-06-18T09:19:01Z</time>
      </trkpt>
      <trkpt lat="43.56605" lon="6.63941">
        <ele>225.09</ele>
        <time>2019-06-18T09:19:12Z</time>
      </trkpt>
      <trkpt lat="43.56605" lon="6.63942">
        <ele>225.09</ele>
        <time>2019-06-18T09:19:28Z</time>
      </trkpt>
      <trkpt lat="43.56606" lon="6.63941">
        <ele>225.09</ele>
        <time>2019-06-18T09:19:46Z</time>
      </trkpt>
      <trkpt lat="43.56606" lon="6.63942">
        <ele>225.09</ele>
        <time>2019-06-18T09:20:13Z</time>
      </trkpt>
      <trkpt lat="43.56607" lon="6.63941">
        <ele>225.09</ele>
        <time>2019-06-18T09:20:38Z</time>
      </trkpt>
      <trkpt lat="43.56607" lon="6.63941">
        <ele>225.09</ele>
        <time>2019-06-18T09:21:01Z</time>
      </trkpt>
      <trkpt lat="43.56607" lon="6.63943">
        <ele>225.09</ele>
        <time>2019-06-18T09:21:25Z</time>
      </trkpt>
      <trkpt lat="43.56607" lon="6.63943">
        <ele>225.09</ele>
        <time>2019-06-18T09:21:42Z</time>
      </trkpt>
      <trkpt lat="43.56608" lon="6.63944">
        <ele>225.09</ele>
        <time>2019-06-18T09:21:57Z</time>
      </trkpt>
      <trkpt lat="43.56608" lon="6.63943">
        <ele>224.61</ele>
        <time>2019-06-18T09:22:17Z</time>
      </trkpt>
      <trkpt lat="43.56609" lon="6.63943">
        <ele>224.61</ele>
        <time>2019-06-18T09:22:42Z</time>
      </trkpt>
      <trkpt lat="43.56609" lon="6.63943">
        <ele>224.61</ele>
        <time>2019-06-18T09:23:05Z</time>
      </trkpt>
      <trkpt lat="43.56609" lon="6.63943">
        <ele>224.61</ele>
        <time>2019-06-18T09:23:19Z</time>
      </trkpt>
      <trkpt lat="43.56609" lon="6.63944">
        <ele>224.61</ele>
        <time>2019-06-18T09:23:32Z</time>
      </trkpt>
      <trkpt lat="43.56609" lon="6.63944">
        <ele>224.61</ele>
        <time>2019-06-18T09:23:39Z</time>
      </trkpt>
      <trkpt lat="43.56612" lon="6.63951">
        <ele>224.61</ele>
        <time>2019-06-18T09:23:48Z</time>
      </trkpt>
      <trkpt lat="43.56612" lon="6.63948">
        <ele>224.61</ele>
        <time>2019-06-18T09:23:57Z</time>
      </trkpt>
      <trkpt lat="43.56607" lon="6.63946">
        <ele>224.61</ele>
        <time>2019-06-18T09:24:06Z</time>
      </trkpt>
      <trkpt lat="43.56606" lon="6.63946">
        <ele>224.61</ele>
        <time>2019-06-18T09:24:09Z</time>
      </trkpt>
      <trkpt lat="43.56602" lon="6.63943">
        <ele>223.64</ele>
        <time>2019-06-18T09:24:16Z</time>
      </trkpt>
      <trkpt lat="43.56602" lon="6.63946">
        <ele>224.12</ele>
        <time>2019-06-18T09:24:25Z</time>
      </trkpt>
      <trkpt lat="43.56605" lon="6.63947">
        <ele>224.61</ele>
        <time>2019-06-18T09:24:36Z</time>
      </trkpt>
      <trkpt lat="43.56605" lon="6.63944">
        <ele>224.61</ele>
        <time>2019-06-18T09:24:45Z</time>
      </trkpt>
      <trkpt lat="43.56607" lon="6.63943">
        <ele>224.61</ele>
        <time>2019-06-18T09:25:02Z</time>
      </trkpt>
      <trkpt lat="43.56608" lon="6.63942">
        <ele>224.61</ele>
        <time>2019-06-18T09:25:14Z</time>
      </trkpt>
      <trkpt lat="43.56608" lon="6.63941">
        <ele>224.12</ele>
        <time>2019-06-18T09:25:26Z</time>
      </trkpt>
      <trkpt lat="43.56607" lon="6.63941">
        <ele>224.12</ele>
        <time>2019-06-18T09:25:42Z</time>
      </trkpt>
      <trkpt lat="43.56606" lon="6.63941">
        <ele>224.12</ele>
        <time>2019-06-18T09:25:59Z</time>
      </trkpt>
      <trkpt lat="43.56605" lon="6.63941">
        <ele>223.64</ele>
        <time>2019-06-18T09:26:19Z</time>
      </trkpt>
      <trkpt lat="43.56605" lon="6.63942">
        <ele>224.12</ele>
        <time>2019-06-18T09:26:40Z</time>
      </trkpt>
      <trkpt lat="43.56605" lon="6.63942">
        <ele>224.12</ele>
        <time>2019-06-18T09:27:04Z</time>
      </trkpt>
      <trkpt lat="43.56604" lon="6.63944">
        <ele>223.64</ele>
        <time>2019-06-18T09:27:30Z</time>
      </trkpt>
      <trkpt lat="43.56604" lon="6.63944">
        <ele>224.12</ele>
        <time>2019-06-18T09:27:56Z</time>
      </trkpt>
      <trkpt lat="43.56605" lon="6.63943">
        <ele>223.64</ele>
        <time>2019-06-18T09:28:21Z</time>
      </trkpt>
      <trkpt lat="43.56606" lon="6.63943">
        <ele>223.64</ele>
        <time>2019-06-18T09:28:45Z</time>
      </trkpt>
      <trkpt lat="43.56605" lon="6.63943">
        <ele>223.64</ele>
        <time>2019-06-18T09:29:10Z</time>
      </trkpt>
      <trkpt lat="43.56606" lon="6.63943">
        <ele>223.64</ele>
        <time>2019-06-18T09:29:34Z</time>
      </trkpt>
      <trkpt lat="43.56606" lon="6.63943">
        <ele>224.12</ele>
        <time>2019-06-18T09:29:58Z</time>
      </trkpt>
      <trkpt lat="43.56606" lon="6.63943">
        <ele>224.12</ele>
        <time>2019-06-18T09:30:21Z</time>
      </trkpt>
      <trkpt lat="43.56606" lon="6.63942">
        <ele>224.12</ele>
        <time>2019-06-18T09:30:48Z</time>
      </trkpt>
      <trkpt lat="43.56605" lon="6.63942">
        <ele>224.12</ele>
        <time>2019-06-18T09:31:12Z</time>
      </trkpt>
      <trkpt lat="43.56605" lon="6.63944">
        <ele>224.12</ele>
        <time>2019-06-18T09:31:38Z</time>
      </trkpt>
      <trkpt lat="43.56605" lon="6.63944">
        <ele>224.12</ele>
        <time>2019-06-18T09:32:05Z</time>
      </trkpt>
      <trkpt lat="43.56605" lon="6.63943">
        <ele>224.12</ele>
        <time>2019-06-18T09:32:27Z</time>
      </trkpt>
      <trkpt lat="43.56605" lon="6.63943">
        <ele>224.12</ele>
        <time>2019-06-18T09:32:53Z</time>
      </trkpt>
      <trkpt lat="43.56606" lon="6.63944">
        <ele>224.12</ele>
        <time>2019-06-18T09:33:22Z</time>
      </trkpt>
      <trkpt lat="43.56606" lon="6.63944">
        <ele>224.12</ele>
        <time>2019-06-18T09:33:46Z</time>
      </trkpt>
      <trkpt lat="43.56606" lon="6.63944">
        <ele>224.12</ele>
        <time>2019-06-18T09:34:10Z</time>
      </trkpt>
      <trkpt lat="43.56606" lon="6.63944">
        <ele>224.12</ele>
        <time>2019-06-18T09:34:40Z</time>
      </trkpt>
      <trkpt lat="43.56605" lon="6.63945">
        <ele>224.12</ele>
        <time>2019-06-18T09:35:06Z</time>
      </trkpt>
      <trkpt lat="43.56605" lon="6.63945">
        <ele>224.12</ele>
        <time>2019-06-18T09:35:32Z</time>
      </trkpt>
      <trkpt lat="43.56606" lon="6.63945">
        <ele>224.12</ele>
        <time>2019-06-18T09:35:59Z</time>
      </trkpt>
      <trkpt lat="43.56606" lon="6.63945">
        <ele>224.12</ele>
        <time>2019-06-18T09:36:23Z</time>
      </trkpt>
      <trkpt lat="43.56606" lon="6.63945">
        <ele>224.12</ele>
        <time>2019-06-18T09:36:46Z</time>
      </trkpt>
      <trkpt lat="43.56606" lon="6.63944">
        <ele>224.12</ele>
        <time>2019-06-18T09:37:15Z</time>
      </trkpt>
      <trkpt lat="43.56605" lon="6.63945">
        <ele>224.12</ele>
        <time>2019-06-18T09:37:42Z</time>
      </trkpt>
      <trkpt lat="43.56605" lon="6.63946">
        <ele>224.12</ele>
        <time>2019-06-18T09:38:08Z</time>
      </trkpt>
      <trkpt lat="43.56605" lon="6.63945">
        <ele>224.12</ele>
        <time>2019-06-18T09:38:33Z</time>
      </trkpt>
      <trkpt lat="43.56604" lon="6.63946">
        <ele>224.61</ele>
        <time>2019-06-18T09:39:00Z</time>
      </trkpt>
      <trkpt lat="43.56605" lon="6.63946">
        <ele>224.12</ele>
        <time>2019-06-18T09:39:27Z</time>
      </trkpt>
      <trkpt lat="43.56605" lon="6.63946">
        <ele>224.61</ele>
        <time>2019-06-18T09:39:53Z</time>
      </trkpt>
      <trkpt lat="43.56604" lon="6.63947">
        <ele>224.61</ele>
        <time>2019-06-18T09:40:17Z</time>
      </trkpt>
      <trkpt lat="43.56605" lon="6.63948">
        <ele>224.61</ele>
        <time>2019-06-18T09:40:41Z</time>
      </trkpt>
      <trkpt lat="43.56606" lon="6.63946">
        <ele>224.61</ele>
        <time>2019-06-18T09:41:07Z</time>
      </trkpt>
      <trkpt lat="43.56607" lon="6.63945">
        <ele>224.61</ele>
        <time>2019-06-18T09:41:29Z</time>
      </trkpt>
      <trkpt lat="43.56607" lon="6.63946">
        <ele>224.61</ele>
        <time>2019-06-18T09:41:55Z</time>
      </trkpt>
      <trkpt lat="43.56607" lon="6.63946">
        <ele>224.61</ele>
        <time>2019-06-18T09:42:23Z</time>
      </trkpt>
      <trkpt lat="43.56607" lon="6.63946">
        <ele>224.61</ele>
        <time>2019-06-18T09:42:48Z</time>
      </trkpt>
      <trkpt lat="43.56607" lon="6.63947">
        <ele>224.61</ele>
        <time>2019-06-18T09:43:17Z</time>
      </trkpt>
      <trkpt lat="43.56607" lon="6.63946">
        <ele>224.61</ele>
        <time>2019-06-18T09:43:41Z</time>
      </trkpt>
      <trkpt lat="43.56607" lon="6.63947">
        <ele>224.61</ele>
        <time>2019-06-18T09:44:05Z</time>
      </trkpt>
      <trkpt lat="43.56606" lon="6.63946">
        <ele>225.09</ele>
        <time>2019-06-18T09:44:34Z</time>
      </trkpt>
      <trkpt lat="43.56607" lon="6.63946">
        <ele>225.09</ele>
        <time>2019-06-18T09:44:56Z</time>
      </trkpt>
      <trkpt lat="43.56607" lon="6.63947">
        <ele>224.61</ele>
        <time>2019-06-18T09:45:20Z</time>
      </trkpt>
      <trkpt lat="43.56608" lon="6.63946">
        <ele>224.61</ele>
        <time>2019-06-18T09:45:45Z</time>
      </trkpt>
      <trkpt lat="43.56608" lon="6.63947">
        <ele>224.61</ele>
        <time>2019-06-18T09:46:13Z</time>
      </trkpt>
      <trkpt lat="43.56608" lon="6.63947">
        <ele>224.61</ele>
        <time>2019-06-18T09:46:37Z</time>
      </trkpt>
      <trkpt lat="43.56608" lon="6.63947">
        <ele>224.61</ele>
        <time>2019-06-18T09:47:07Z</time>
      </trkpt>
      <trkpt lat="43.56607" lon="6.63947">
        <ele>224.61</ele>
        <time>2019-06-18T09:47:34Z</time>
      </trkpt>
      <trkpt lat="43.56607" lon="6.6395">
        <ele>224.61</ele>
        <time>2019-06-18T09:47:58Z</time>
      </trkpt>
      <trkpt lat="43.56607" lon="6.63951">
        <ele>224.61</ele>
        <time>2019-06-18T09:48:25Z</time>
      </trkpt>
      <trkpt lat="43.56607" lon="6.63951">
        <ele>225.09</ele>
        <time>2019-06-18T09:48:52Z</time>
      </trkpt>
      <trkpt lat="43.56606" lon="6.63951">
        <ele>225.09</ele>
        <time>2019-06-18T09:49:15Z</time>
      </trkpt>
      <trkpt lat="43.56605" lon="6.63951">
        <ele>225.09</ele>
        <time>2019-06-18T09:49:38Z</time>
      </trkpt>
      <trkpt lat="43.56607" lon="6.6395">
        <ele>224.61</ele>
        <time>2019-06-18T09:50:00Z</time>
      </trkpt>
      <trkpt lat="43.56607" lon="6.6395">
        <ele>225.09</ele>
        <time>2019-06-18T09:50:26Z</time>
      </trkpt>
      <trkpt lat="43.56607" lon="6.6395">
        <ele>225.09</ele>
        <time>2019-06-18T09:50:53Z</time>
      </trkpt>
      <trkpt lat="43.56607" lon="6.6395">
        <ele>225.09</ele>
        <time>2019-06-18T09:51:19Z</time>
      </trkpt>
      <trkpt lat="43.56607" lon="6.6395">
        <ele>225.09</ele>
        <time>2019-06-18T09:51:44Z</time>
      </trkpt>
      <trkpt lat="43.56606" lon="6.6395">
        <ele>224.61</ele>
        <time>2019-06-18T09:52:13Z</time>
      </trkpt>
      <trkpt lat="43.56606" lon="6.6395">
        <ele>225.09</ele>
        <time>2019-06-18T09:52:38Z</time>
      </trkpt>
      <trkpt lat="43.56607" lon="6.63943">
        <ele>225.57</ele>
        <time>2019-06-18T09:52:46Z</time>
      </trkpt>
      <trkpt lat="43.56606" lon="6.63941">
        <ele>225.57</ele>
        <time>2019-06-18T09:52:59Z</time>
      </trkpt>
      <trkpt lat="43.56607" lon="6.63939">
        <ele>226.05</ele>
        <time>2019-06-18T09:53:20Z</time>
      </trkpt>
      <trkpt lat="43.56607" lon="6.6394">
        <ele>225.57</ele>
        <time>2019-06-18T09:53:40Z</time>
      </trkpt>
      <trkpt lat="43.56607" lon="6.63939">
        <ele>225.57</ele>
        <time>2019-06-18T09:53:54Z</time>
      </trkpt>
      <trkpt lat="43.56607" lon="6.63938">
        <ele>225.57</ele>
        <time>2019-06-18T09:54:10Z</time>
      </trkpt>
      <trkpt lat="43.56604" lon="6.63935">
        <ele>226.05</ele>
        <time>2019-06-18T09:54:26Z</time>
      </trkpt>
      <trkpt lat="43.56602" lon="6.63935">
        <ele>225.57</ele>
        <time>2019-06-18T09:54:29Z</time>
      </trkpt>
      <trkpt lat="43.566" lon="6.63933">
        <ele>226.05</ele>
        <time>2019-06-18T09:54:39Z</time>
      </trkpt>
      <trkpt lat="43.56599" lon="6.63932">
        <ele>226.53</ele>
        <time>2019-06-18T09:54:47Z</time>
      </trkpt>
      <trkpt lat="43.56599" lon="6.63931">
        <ele>226.05</ele>
        <time>2019-06-18T09:55:01Z</time>
      </trkpt>
      <trkpt lat="43.566" lon="6.63934">
        <ele>225.57</ele>
        <time>2019-06-18T09:55:12Z</time>
      </trkpt>
      <trkpt lat="43.56601" lon="6.63935">
        <ele>225.57</ele>
        <time>2019-06-18T09:55:17Z</time>
      </trkpt>
      <trkpt lat="43.56603" lon="6.63938">
        <ele>226.05</ele>
        <time>2019-06-18T09:55:20Z</time>
      </trkpt>
      <trkpt lat="43.56605" lon="6.63939">
        <ele>225.57</ele>
        <time>2019-06-18T09:55:28Z</time>
      </trkpt>
      <trkpt lat="43.56605" lon="6.63937">
        <ele>225.57</ele>
        <time>2019-06-18T09:55:38Z</time>
      </trkpt>
      <trkpt lat="43.56604" lon="6.63935">
        <ele>226.05</ele>
        <time>2019-06-18T09:55:40Z</time>
      </trkpt>
      <trkpt lat="43.56599" lon="6.63929">
        <ele>226.05</ele>
        <time>2019-06-18T09:55:52Z</time>
      </trkpt>
      <trkpt lat="43.56599" lon="6.63929">
        <ele>226.05</ele>
        <time>2019-06-18T09:56:06Z</time>
      </trkpt>
      <trkpt lat="43.56599" lon="6.63929">
        <ele>226.05</ele>
        <time>2019-06-18T09:56:25Z</time>
      </trkpt>
      <trkpt lat="43.566" lon="6.63928">
        <ele>226.05</ele>
        <time>2019-06-18T09:56:35Z</time>
      </trkpt>
      <trkpt lat="43.566" lon="6.63927">
        <ele>226.05</ele>
        <time>2019-06-18T09:57:00Z</time>
      </trkpt>
      <trkpt lat="43.566" lon="6.63927">
        <ele>226.05</ele>
        <time>2019-06-18T09:57:19Z</time>
      </trkpt>
      <trkpt lat="43.56601" lon="6.63927">
        <ele>226.05</ele>
        <time>2019-06-18T09:57:40Z</time>
      </trkpt>
      <trkpt lat="43.566" lon="6.63926">
        <ele>225.57</ele>
        <time>2019-06-18T09:58:00Z</time>
      </trkpt>
      <trkpt lat="43.56599" lon="6.63926">
        <ele>226.05</ele>
        <time>2019-06-18T09:58:26Z</time>
      </trkpt>
      <trkpt lat="43.56599" lon="6.63926">
        <ele>226.05</ele>
        <time>2019-06-18T09:58:46Z</time>
      </trkpt>
      <trkpt lat="43.56599" lon="6.63927">
        <ele>225.09</ele>
        <time>2019-06-18T09:59:04Z</time>
      </trkpt>
      <trkpt lat="43.56599" lon="6.63928">
        <ele>225.09</ele>
        <time>2019-06-18T09:59:18Z</time>
      </trkpt>
      <trkpt lat="43.56599" lon="6.63929">
        <ele>225.57</ele>
        <time>2019-06-18T09:59:32Z</time>
      </trkpt>
      <trkpt lat="43.56599" lon="6.63929">
        <ele>225.09</ele>
        <time>2019-06-18T09:59:48Z</time>
      </trkpt>
      <trkpt lat="43.56599" lon="6.6393">
        <ele>225.09</ele>
        <time>2019-06-18T10:00:08Z</time>
      </trkpt>
      <trkpt lat="43.56599" lon="6.6393">
        <ele>225.09</ele>
        <time>2019-06-18T10:00:20Z</time>
      </trkpt>
      <trkpt lat="43.56599" lon="6.6393">
        <ele>225.57</ele>
        <time>2019-06-18T10:00:41Z</time>
      </trkpt>
      <trkpt lat="43.56599" lon="6.63929">
        <ele>225.57</ele>
        <time>2019-06-18T10:01:11Z</time>
      </trkpt>
      <trkpt lat="43.56599" lon="6.63928">
        <ele>225.57</ele>
        <time>2019-06-18T10:01:40Z</time>
      </trkpt>
      <trkpt lat="43.566" lon="6.63927">
        <ele>225.57</ele>
        <time>2019-06-18T10:02:07Z</time>
      </trkpt>
      <trkpt lat="43.56601" lon="6.63927">
        <ele>225.57</ele>
        <time>2019-06-18T10:02:38Z</time>
      </trkpt>
      <trkpt lat="43.566" lon="6.63927">
        <ele>225.09</ele>
        <time>2019-06-18T10:03:03Z</time>
      </trkpt>
      <trkpt lat="43.56599" lon="6.63927">
        <ele>225.09</ele>
        <time>2019-06-18T10:03:29Z</time>
      </trkpt>
      <trkpt lat="43.56598" lon="6.63928">
        <ele>225.57</ele>
        <time>2019-06-18T10:03:57Z</time>
      </trkpt>
      <trkpt lat="43.56598" lon="6.63928">
        <ele>225.57</ele>
        <time>2019-06-18T10:04:18Z</time>
      </trkpt>
      <trkpt lat="43.56598" lon="6.63928">
        <ele>225.09</ele>
        <time>2019-06-18T10:04:39Z</time>
      </trkpt>
      <trkpt lat="43.56597" lon="6.6393">
        <ele>225.09</ele>
        <time>2019-06-18T10:05:07Z</time>
      </trkpt>
      <trkpt lat="43.56597" lon="6.63929">
        <ele>225.09</ele>
        <time>2019-06-18T10:05:33Z</time>
      </trkpt>
      <trkpt lat="43.56598" lon="6.63929">
        <ele>225.09</ele>
        <time>2019-06-18T10:05:56Z</time>
      </trkpt>
      <trkpt lat="43.56598" lon="6.63929">
        <ele>225.09</ele>
        <time>2019-06-18T10:06:27Z</time>
      </trkpt>
      <trkpt lat="43.56598" lon="6.6393">
        <ele>225.09</ele>
        <time>2019-06-18T10:06:55Z</time>
      </trkpt>
      <trkpt lat="43.56598" lon="6.6393">
        <ele>225.09</ele>
        <time>2019-06-18T10:07:22Z</time>
      </trkpt>
      <trkpt lat="43.56597" lon="6.6393">
        <ele>226.05</ele>
        <time>2019-06-18T10:07:47Z</time>
      </trkpt>
      <trkpt lat="43.56597" lon="6.63929">
        <ele>225.57</ele>
        <time>2019-06-18T10:08:17Z</time>
      </trkpt>
      <trkpt lat="43.56597" lon="6.6393">
        <ele>225.57</ele>
        <time>2019-06-18T10:08:40Z</time>
      </trkpt>
      <trkpt lat="43.56597" lon="6.63931">
        <ele>225.57</ele>
        <time>2019-06-18T10:09:07Z</time>
      </trkpt>
      <trkpt lat="43.56596" lon="6.63931">
        <ele>225.09</ele>
        <time>2019-06-18T10:09:35Z</time>
      </trkpt>
      <trkpt lat="43.56596" lon="6.63932">
        <ele>225.09</ele>
        <time>2019-06-18T10:09:52Z</time>
      </trkpt>
      <trkpt lat="43.56596" lon="6.63932">
        <ele>225.09</ele>
        <time>2019-06-18T10:10:14Z</time>
      </trkpt>
      <trkpt lat="43.56596" lon="6.63932">
        <ele>225.09</ele>
        <time>2019-06-18T10:10:36Z</time>
      </trkpt>
      <trkpt lat="43.56597" lon="6.63933">
        <ele>225.09</ele>
        <time>2019-06-18T10:11:03Z</time>
      </trkpt>
      <trkpt lat="43.56596" lon="6.63934">
        <ele>225.09</ele>
        <time>2019-06-18T10:11:28Z</time>
      </trkpt>
      <trkpt lat="43.56596" lon="6.63934">
        <ele>225.09</ele>
        <time>2019-06-18T10:11:54Z</time>
      </trkpt>
      <trkpt lat="43.56596" lon="6.63934">
        <ele>225.09</ele>
        <time>2019-06-18T10:12:26Z</time>
      </trkpt>
      <trkpt lat="43.56597" lon="6.63934">
        <ele>225.09</ele>
        <time>2019-06-18T10:12:50Z</time>
      </trkpt>
      <trkpt lat="43.56597" lon="6.63933">
        <ele>225.09</ele>
        <time>2019-06-18T10:13:15Z</time>
      </trkpt>
      <trkpt lat="43.56597" lon="6.63933">
        <ele>225.09</ele>
        <time>2019-06-18T10:13:43Z</time>
      </trkpt>
      <trkpt lat="43.56597" lon="6.63933">
        <ele>224.61</ele>
        <time>2019-06-18T10:14:10Z</time>
      </trkpt>
      <trkpt lat="43.56597" lon="6.63934">
        <ele>224.61</ele>
        <time>2019-06-18T10:14:38Z</time>
      </trkpt>
      <trkpt lat="43.56597" lon="6.63935">
        <ele>224.61</ele>
        <time>2019-06-18T10:15:02Z</time>
      </trkpt>
      <trkpt lat="43.56597" lon="6.63935">
        <ele>224.61</ele>
        <time>2019-06-18T10:15:26Z</time>
      </trkpt>
      <trkpt lat="43.56596" lon="6.63934">
        <ele>224.61</ele>
        <time>2019-06-18T10:15:55Z</time>
      </trkpt>
      <trkpt lat="43.56596" lon="6.63934">
        <ele>224.61</ele>
        <time>2019-06-18T10:16:26Z</time>
      </trkpt>
      <trkpt lat="43.56596" lon="6.63932">
        <ele>224.12</ele>
        <time>2019-06-18T10:16:48Z</time>
      </trkpt>
      <trkpt lat="43.56595" lon="6.63933">
        <ele>223.64</ele>
        <time>2019-06-18T10:17:17Z</time>
      </trkpt>
      <trkpt lat="43.56595" lon="6.63932">
        <ele>224.12</ele>
        <time>2019-06-18T10:17:38Z</time>
      </trkpt>
      <trkpt lat="43.56596" lon="6.63932">
        <ele>224.12</ele>
        <time>2019-06-18T10:18:03Z</time>
      </trkpt>
      <trkpt lat="43.56596" lon="6.63933">
        <ele>225.09</ele>
        <time>2019-06-18T10:18:34Z</time>
      </trkpt>
      <trkpt lat="43.56596" lon="6.63933">
        <ele>224.12</ele>
        <time>2019-06-18T10:19:00Z</time>
      </trkpt>
      <trkpt lat="43.56595" lon="6.63934">
        <ele>224.12</ele>
        <time>2019-06-18T10:19:28Z</time>
      </trkpt>
      <trkpt lat="43.56595" lon="6.63934">
        <ele>224.12</ele>
        <time>2019-06-18T10:19:55Z</time>
      </trkpt>
      <trkpt lat="43.56595" lon="6.63933">
        <ele>224.12</ele>
        <time>2019-06-18T10:20:21Z</time>
      </trkpt>
      <trkpt lat="43.56595" lon="6.63934">
        <ele>223.64</ele>
        <time>2019-06-18T10:20:45Z</time>
      </trkpt>
      <trkpt lat="43.56594" lon="6.63933">
        <ele>223.64</ele>
        <time>2019-06-18T10:21:14Z</time>
      </trkpt>
      <trkpt lat="43.56594" lon="6.63933">
        <ele>223.64</ele>
        <time>2019-06-18T10:21:41Z</time>
      </trkpt>
      <trkpt lat="43.56595" lon="6.63934">
        <ele>223.64</ele>
        <time>2019-06-18T10:22:04Z</time>
      </trkpt>
      <trkpt lat="43.56595" lon="6.63934">
        <ele>223.64</ele>
        <time>2019-06-18T10:22:22Z</time>
      </trkpt>
      <trkpt lat="43.56596" lon="6.63934">
        <ele>223.64</ele>
        <time>2019-06-18T10:22:46Z</time>
      </trkpt>
      <trkpt lat="43.56596" lon="6.63934">
        <ele>223.64</ele>
        <time>2019-06-18T10:23:13Z</time>
      </trkpt>
      <trkpt lat="43.56596" lon="6.63935">
        <ele>223.64</ele>
        <time>2019-06-18T10:23:38Z</time>
      </trkpt>
      <trkpt lat="43.56597" lon="6.63933">
        <ele>223.64</ele>
        <time>2019-06-18T10:24:06Z</time>
      </trkpt>
      <trkpt lat="43.56596" lon="6.63931">
        <ele>224.12</ele>
        <time>2019-06-18T10:24:37Z</time>
      </trkpt>
      <trkpt lat="43.56597" lon="6.63932">
        <ele>224.12</ele>
        <time>2019-06-18T10:25:04Z</time>
      </trkpt>
      <trkpt lat="43.56597" lon="6.63932">
        <ele>224.12</ele>
        <time>2019-06-18T10:25:29Z</time>
      </trkpt>
      <trkpt lat="43.56598" lon="6.63931">
        <ele>224.12</ele>
        <time>2019-06-18T10:25:53Z</time>
      </trkpt>
      <trkpt lat="43.56598" lon="6.63931">
        <ele>223.64</ele>
        <time>2019-06-18T10:26:14Z</time>
      </trkpt>
      <trkpt lat="43.56598" lon="6.63931">
        <ele>223.64</ele>
        <time>2019-06-18T10:26:29Z</time>
      </trkpt>
      <trkpt lat="43.56598" lon="6.63932">
        <ele>223.64</ele>
        <time>2019-06-18T10:26:55Z</time>
      </trkpt>
      <trkpt lat="43.56598" lon="6.63933">
        <ele>223.64</ele>
        <time>2019-06-18T10:27:19Z</time>
      </trkpt>
      <trkpt lat="43.56597" lon="6.63933">
        <ele>223.64</ele>
        <time>2019-06-18T10:27:34Z</time>
      </trkpt>
      <trkpt lat="43.56597" lon="6.63933">
        <ele>224.12</ele>
        <time>2019-06-18T10:27:58Z</time>
      </trkpt>
      <trkpt lat="43.56597" lon="6.63933">
        <ele>223.64</ele>
        <time>2019-06-18T10:28:22Z</time>
      </trkpt>
      <trkpt lat="43.56597" lon="6.63933">
        <ele>223.64</ele>
        <time>2019-06-18T10:28:50Z</time>
      </trkpt>
      <trkpt lat="43.56597" lon="6.63932">
        <ele>224.12</ele>
        <time>2019-06-18T10:29:18Z</time>
      </trkpt>
      <trkpt lat="43.56597" lon="6.63932">
        <ele>223.64</ele>
        <time>2019-06-18T10:29:34Z</time>
      </trkpt>
      <trkpt lat="43.56597" lon="6.63931">
        <ele>223.64</ele>
        <time>2019-06-18T10:30:02Z</time>
      </trkpt>
      <trkpt lat="43.56597" lon="6.63932">
        <ele>223.16</ele>
        <time>2019-06-18T10:30:29Z</time>
      </trkpt>
      <trkpt lat="43.56596" lon="6.63933">
        <ele>223.16</ele>
        <time>2019-06-18T10:30:59Z</time>
      </trkpt>
      <trkpt lat="43.56596" lon="6.63933">
        <ele>223.16</ele>
        <time>2019-06-18T10:31:25Z</time>
      </trkpt>
      <trkpt lat="43.56596" lon="6.63933">
        <ele>223.16</ele>
        <time>2019-06-18T10:31:53Z</time>
      </trkpt>
      <trkpt lat="43.56596" lon="6.63934">
        <ele>223.16</ele>
        <time>2019-06-18T10:32:17Z</time>
      </trkpt>
      <trkpt lat="43.56595" lon="6.63934">
        <ele>223.16</ele>
        <time>2019-06-18T10:32:40Z</time>
      </trkpt>
      <trkpt lat="43.56595" lon="6.63934">
        <ele>223.64</ele>
        <time>2019-06-18T10:33:04Z</time>
      </trkpt>
      <trkpt lat="43.56595" lon="6.63934">
        <ele>223.16</ele>
        <time>2019-06-18T10:33:29Z</time>
      </trkpt>
      <trkpt lat="43.56595" lon="6.63933">
        <ele>223.64</ele>
        <time>2019-06-18T10:33:52Z</time>
      </trkpt>
      <trkpt lat="43.56596" lon="6.63933">
        <ele>223.64</ele>
        <time>2019-06-18T10:34:10Z</time>
      </trkpt>
      <trkpt lat="43.56595" lon="6.63932">
        <ele>223.64</ele>
        <time>2019-06-18T10:34:29Z</time>
      </trkpt>
      <trkpt lat="43.56594" lon="6.63933">
        <ele>223.64</ele>
        <time>2019-06-18T10:34:53Z</time>
      </trkpt>
      <trkpt lat="43.56594" lon="6.63934">
        <ele>223.16</ele>
        <time>2019-06-18T10:35:18Z</time>
      </trkpt>
      <trkpt lat="43.56595" lon="6.63933">
        <ele>223.64</ele>
        <time>2019-06-18T10:35:33Z</time>
      </trkpt>
      <trkpt lat="43.56596" lon="6.63933">
        <ele>224.12</ele>
        <time>2019-06-18T10:35:50Z</time>
      </trkpt>
      <trkpt lat="43.56597" lon="6.63932">
        <ele>224.12</ele>
        <time>2019-06-18T10:35:55Z</time>
      </trkpt>
      <trkpt lat="43.56598" lon="6.63934">
        <ele>223.64</ele>
        <time>2019-06-18T10:35:59Z</time>
      </trkpt>
      <trkpt lat="43.56601" lon="6.63938">
        <ele>223.16</ele>
        <time>2019-06-18T10:36:09Z</time>
      </trkpt>
      <trkpt lat="43.56602" lon="6.63937">
        <ele>223.64</ele>
        <time>2019-06-18T10:36:20Z</time>
      </trkpt>
      <trkpt lat="43.56603" lon="6.63932">
        <ele>224.12</ele>
        <time>2019-06-18T10:36:29Z</time>
      </trkpt>
      <trkpt lat="43.56603" lon="6.63932">
        <ele>224.12</ele>
        <time>2019-06-18T10:36:43Z</time>
      </trkpt>
      <trkpt lat="43.56603" lon="6.63936">
        <ele>223.64</ele>
        <time>2019-06-18T10:36:55Z</time>
      </trkpt>
      <trkpt lat="43.56605" lon="6.6394">
        <ele>223.64</ele>
        <time>2019-06-18T10:37:04Z</time>
      </trkpt>
      <trkpt lat="43.56606" lon="6.6394">
        <ele>223.64</ele>
        <time>2019-06-18T10:37:24Z</time>
      </trkpt>
      <trkpt lat="43.56606" lon="6.6394">
        <ele>223.64</ele>
        <time>2019-06-18T10:37:44Z</time>
      </trkpt>
      <trkpt lat="43.56607" lon="6.6394">
        <ele>223.64</ele>
        <time>2019-06-18T10:38:03Z</time>
      </trkpt>
      <trkpt lat="43.56607" lon="6.63939">
        <ele>223.16</ele>
        <time>2019-06-18T10:38:21Z</time>
      </trkpt>
      <trkpt lat="43.56607" lon="6.63939">
        <ele>223.16</ele>
        <time>2019-06-18T10:38:37Z</time>
      </trkpt>
      <trkpt lat="43.56608" lon="6.63939">
        <ele>223.16</ele>
        <time>2019-06-18T10:38:55Z</time>
      </trkpt>
      <trkpt lat="43.56608" lon="6.6394">
        <ele>223.16</ele>
        <time>2019-06-18T10:39:11Z</time>
      </trkpt>
      <trkpt lat="43.56608" lon="6.63941">
        <ele>223.16</ele>
        <time>2019-06-18T10:39:22Z</time>
      </trkpt>
      <trkpt lat="43.56607" lon="6.63942">
        <ele>223.16</ele>
        <time>2019-06-18T10:39:35Z</time>
      </trkpt>
      <trkpt lat="43.56607" lon="6.63941">
        <ele>223.16</ele>
        <time>2019-06-18T10:39:56Z</time>
      </trkpt>
      <trkpt lat="43.56607" lon="6.6394">
        <ele>222.68</ele>
        <time>2019-06-18T10:40:25Z</time>
      </trkpt>
      <trkpt lat="43.56607" lon="6.6394">
        <ele>223.16</ele>
        <time>2019-06-18T10:40:42Z</time>
      </trkpt>
      <trkpt lat="43.56609" lon="6.63942">
        <ele>223.16</ele>
        <time>2019-06-18T10:40:54Z</time>
      </trkpt>
      <trkpt lat="43.56608" lon="6.6395">
        <ele>223.16</ele>
        <time>2019-06-18T10:41:07Z</time>
      </trkpt>
      <trkpt lat="43.56607" lon="6.63952">
        <ele>223.16</ele>
        <time>2019-06-18T10:41:10Z</time>
      </trkpt>
      <trkpt lat="43.56607" lon="6.63958">
        <ele>222.68</ele>
        <time>2019-06-18T10:41:19Z</time>
      </trkpt>
      <trkpt lat="43.56607" lon="6.63958">
        <ele>222.68</ele>
        <time>2019-06-18T10:41:46Z</time>
      </trkpt>
      <trkpt lat="43.56608" lon="6.6396">
        <ele>222.68</ele>
        <time>2019-06-18T10:42:08Z</time>
      </trkpt>
      <trkpt lat="43.56608" lon="6.63959">
        <ele>222.68</ele>
        <time>2019-06-18T10:42:27Z</time>
      </trkpt>
      <trkpt lat="43.56609" lon="6.63959">
        <ele>223.16</ele>
        <time>2019-06-18T10:42:38Z</time>
      </trkpt>
      <trkpt lat="43.5661" lon="6.63959">
        <ele>223.16</ele>
        <time>2019-06-18T10:42:47Z</time>
      </trkpt>
      <trkpt lat="43.5661" lon="6.63958">
        <ele>223.16</ele>
        <time>2019-06-18T10:43:04Z</time>
      </trkpt>
      <trkpt lat="43.5661" lon="6.63958">
        <ele>222.68</ele>
        <time>2019-06-18T10:43:24Z</time>
      </trkpt>
      <trkpt lat="43.5661" lon="6.63958">
        <ele>222.68</ele>
        <time>2019-06-18T10:43:35Z</time>
      </trkpt>
      <trkpt lat="43.56612" lon="6.63957">
        <ele>222.68</ele>
        <time>2019-06-18T10:43:44Z</time>
      </trkpt>
      <trkpt lat="43.56614" lon="6.63956">
        <ele>222.68</ele>
        <time>2019-06-18T10:43:56Z</time>
      </trkpt>
      <trkpt lat="43.5662" lon="6.6395">
        <ele>222.68</ele>
        <time>2019-06-18T10:44:07Z</time>
      </trkpt>
      <trkpt lat="43.56625" lon="6.63945">
        <ele>222.2</ele>
        <time>2019-06-18T10:44:17Z</time>
      </trkpt>
      <trkpt lat="43.56631" lon="6.63939">
        <ele>222.2</ele>
        <time>2019-06-18T10:44:26Z</time>
      </trkpt>
      <trkpt lat="43.56636" lon="6.63934">
        <ele>221.72</ele>
        <time>2019-06-18T10:44:35Z</time>
      </trkpt>
      <trkpt lat="43.56641" lon="6.6393">
        <ele>221.24</ele>
        <time>2019-06-18T10:44:42Z</time>
      </trkpt>
      <trkpt lat="43.56648" lon="6.6392">
        <ele>220.76</ele>
        <time>2019-06-18T10:44:53Z</time>
      </trkpt>
      <trkpt lat="43.56654" lon="6.63915">
        <ele>220.28</ele>
        <time>2019-06-18T10:45:02Z</time>
      </trkpt>
      <trkpt lat="43.56661" lon="6.63909">
        <ele>219.32</ele>
        <time>2019-06-18T10:45:14Z</time>
      </trkpt>
      <trkpt lat="43.56666" lon="6.63904">
        <ele>218.36</ele>
        <time>2019-06-18T10:45:24Z</time>
      </trkpt>
      <trkpt lat="43.5667" lon="6.639">
        <ele>218.36</ele>
        <time>2019-06-18T10:45:33Z</time>
      </trkpt>
      <trkpt lat="43.5668" lon="6.63895">
        <ele>217.88</ele>
        <time>2019-06-18T10:45:45Z</time>
      </trkpt>
      <trkpt lat="43.56683" lon="6.63893">
        <ele>217.4</ele>
        <time>2019-06-18T10:45:48Z</time>
      </trkpt>
      <trkpt lat="43.56693" lon="6.63887">
        <ele>216.91</ele>
        <time>2019-06-18T10:45:59Z</time>
      </trkpt>
      <trkpt lat="43.56699" lon="6.63883">
        <ele>216.43</ele>
        <time>2019-06-18T10:46:07Z</time>
      </trkpt>
      <trkpt lat="43.56706" lon="6.63878">
        <ele>215.47</ele>
        <time>2019-06-18T10:46:17Z</time>
      </trkpt>
      <trkpt lat="43.56715" lon="6.63873">
        <ele>214.51</ele>
        <time>2019-06-18T10:46:27Z</time>
      </trkpt>
      <trkpt lat="43.56724" lon="6.63867">
        <ele>214.03</ele>
        <time>2019-06-18T10:46:37Z</time>
      </trkpt>
      <trkpt lat="43.56728" lon="6.63863">
        <ele>213.55</ele>
        <time>2019-06-18T10:46:43Z</time>
      </trkpt>
      <trkpt lat="43.56732" lon="6.63861">
        <ele>213.55</ele>
        <time>2019-06-18T10:46:48Z</time>
      </trkpt>
      <trkpt lat="43.56742" lon="6.63853">
        <ele>213.55</ele>
        <time>2019-06-18T10:47:00Z</time>
      </trkpt>
      <trkpt lat="43.56748" lon="6.63847">
        <ele>213.07</ele>
        <time>2019-06-18T10:47:08Z</time>
      </trkpt>
      <trkpt lat="43.56757" lon="6.63834">
        <ele>212.59</ele>
        <time>2019-06-18T10:47:19Z</time>
      </trkpt>
      <trkpt lat="43.56762" lon="6.63823">
        <ele>212.11</ele>
        <time>2019-06-18T10:47:28Z</time>
      </trkpt>
      <trkpt lat="43.56767" lon="6.63812">
        <ele>211.63</ele>
        <time>2019-06-18T10:47:37Z</time>
      </trkpt>
      <trkpt lat="43.56771" lon="6.63801">
        <ele>211.15</ele>
        <time>2019-06-18T10:47:46Z</time>
      </trkpt>
      <trkpt lat="43.56774" lon="6.63795">
        <ele>210.67</ele>
        <time>2019-06-18T10:47:51Z</time>
      </trkpt>
      <trkpt lat="43.56774" lon="6.63791">
        <ele>210.67</ele>
        <time>2019-06-18T10:47:54Z</time>
      </trkpt>
      <trkpt lat="43.56775" lon="6.63781">
        <ele>210.19</ele>
        <time>2019-06-18T10:48:01Z</time>
      </trkpt>
      <trkpt lat="43.56778" lon="6.63768">
        <ele>210.19</ele>
        <time>2019-06-18T10:48:11Z</time>
      </trkpt>
      <trkpt lat="43.56779" lon="6.63761">
        <ele>209.7</ele>
        <time>2019-06-18T10:48:17Z</time>
      </trkpt>
      <trkpt lat="43.56779" lon="6.63757">
        <ele>209.7</ele>
        <time>2019-06-18T10:48:20Z</time>
      </trkpt>
      <trkpt lat="43.5678" lon="6.63754">
        <ele>209.22</ele>
        <time>2019-06-18T10:48:23Z</time>
      </trkpt>
      <trkpt lat="43.56786" lon="6.63741">
        <ele>208.74</ele>
        <time>2019-06-18T10:48:33Z</time>
      </trkpt>
      <trkpt lat="43.56788" lon="6.63735">
        <ele>208.74</ele>
        <time>2019-06-18T10:48:38Z</time>
      </trkpt>
      <trkpt lat="43.56789" lon="6.6373">
        <ele>208.74</ele>
        <time>2019-06-18T10:48:41Z</time>
      </trkpt>
      <trkpt lat="43.56789" lon="6.63719">
        <ele>208.74</ele>
        <time>2019-06-18T10:48:49Z</time>
      </trkpt>
      <trkpt lat="43.56792" lon="6.6371">
        <ele>208.26</ele>
        <time>2019-06-18T10:48:56Z</time>
      </trkpt>
      <trkpt lat="43.56792" lon="6.63706">
        <ele>208.26</ele>
        <time>2019-06-18T10:49:00Z</time>
      </trkpt>
      <trkpt lat="43.56803" lon="6.63699">
        <ele>207.78</ele>
        <time>2019-06-18T10:49:12Z</time>
      </trkpt>
      <trkpt lat="43.5681" lon="6.63691">
        <ele>207.3</ele>
        <time>2019-06-18T10:49:22Z</time>
      </trkpt>
      <trkpt lat="43.56814" lon="6.63686">
        <ele>207.3</ele>
        <time>2019-06-18T10:49:27Z</time>
      </trkpt>
      <trkpt lat="43.56817" lon="6.63679">
        <ele>207.3</ele>
        <time>2019-06-18T10:49:32Z</time>
      </trkpt>
      <trkpt lat="43.56821" lon="6.63672">
        <ele>206.82</ele>
        <time>2019-06-18T10:49:37Z</time>
      </trkpt>
      <trkpt lat="43.56822" lon="6.63669">
        <ele>206.34</ele>
        <time>2019-06-18T10:49:40Z</time>
      </trkpt>
      <trkpt lat="43.56824" lon="6.63663">
        <ele>205.86</ele>
        <time>2019-06-18T10:49:45Z</time>
      </trkpt>
      <trkpt lat="43.5683" lon="6.63657">
        <ele>204.9</ele>
        <time>2019-06-18T10:49:53Z</time>
      </trkpt>
      <trkpt lat="43.56835" lon="6.63655">
        <ele>204.42</ele>
        <time>2019-06-18T10:50:00Z</time>
      </trkpt>
      <trkpt lat="43.56837" lon="6.63658">
        <ele>204.42</ele>
        <time>2019-06-18T10:50:10Z</time>
      </trkpt>
      <trkpt lat="43.56838" lon="6.63659">
        <ele>204.42</ele>
        <time>2019-06-18T10:50:11Z</time>
      </trkpt>
      <trkpt lat="43.56841" lon="6.63668">
        <ele>205.38</ele>
        <time>2019-06-18T10:50:21Z</time>
      </trkpt>
      <trkpt lat="43.56843" lon="6.63672">
        <ele>205.38</ele>
        <time>2019-06-18T10:50:25Z</time>
      </trkpt>
      <trkpt lat="43.56846" lon="6.63676">
        <ele>205.86</ele>
        <time>2019-06-18T10:50:30Z</time>
      </trkpt>
      <trkpt lat="43.56847" lon="6.63689">
        <ele>206.82</ele>
        <time>2019-06-18T10:50:41Z</time>
      </trkpt>
      <trkpt lat="43.56847" lon="6.63697">
        <ele>207.78</ele>
        <time>2019-06-18T10:50:50Z</time>
      </trkpt>
      <trkpt lat="43.56847" lon="6.63707">
        <ele>208.74</ele>
        <time>2019-06-18T10:50:59Z</time>
      </trkpt>
      <trkpt lat="43.56846" lon="6.63716">
        <ele>209.22</ele>
        <time>2019-06-18T10:51:08Z</time>
      </trkpt>
      <trkpt lat="43.56846" lon="6.6372">
        <ele>209.7</ele>
        <time>2019-06-18T10:51:11Z</time>
      </trkpt>
      <trkpt lat="43.56847" lon="6.63735">
        <ele>210.67</ele>
        <time>2019-06-18T10:51:21Z</time>
      </trkpt>
      <trkpt lat="43.56848" lon="6.63747">
        <ele>212.11</ele>
        <time>2019-06-18T10:51:31Z</time>
      </trkpt>
      <trkpt lat="43.56853" lon="6.63763">
        <ele>213.07</ele>
        <time>2019-06-18T10:51:42Z</time>
      </trkpt>
      <trkpt lat="43.56855" lon="6.63769">
        <ele>213.55</ele>
        <time>2019-06-18T10:51:48Z</time>
      </trkpt>
      <trkpt lat="43.56857" lon="6.63781">
        <ele>214.51</ele>
        <time>2019-06-18T10:51:58Z</time>
      </trkpt>
      <trkpt lat="43.56858" lon="6.63789">
        <ele>214.99</ele>
        <time>2019-06-18T10:52:06Z</time>
      </trkpt>
      <trkpt lat="43.56855" lon="6.63796">
        <ele>215.95</ele>
        <time>2019-06-18T10:52:15Z</time>
      </trkpt>
      <trkpt lat="43.56855" lon="6.6381">
        <ele>216.43</ele>
        <time>2019-06-18T10:52:26Z</time>
      </trkpt>
      <trkpt lat="43.56858" lon="6.63818">
        <ele>216.43</ele>
        <time>2019-06-18T10:52:34Z</time>
      </trkpt>
      <trkpt lat="43.56858" lon="6.6382">
        <ele>216.43</ele>
        <time>2019-06-18T10:52:40Z</time>
      </trkpt>
      <trkpt lat="43.56864" lon="6.63827">
        <ele>216.43</ele>
        <time>2019-06-18T10:52:49Z</time>
      </trkpt>
      <trkpt lat="43.56866" lon="6.63827">
        <ele>216.43</ele>
        <time>2019-06-18T10:52:52Z</time>
      </trkpt>
      <trkpt lat="43.56879" lon="6.63829">
        <ele>215.47</ele>
        <time>2019-06-18T10:53:04Z</time>
      </trkpt>
      <trkpt lat="43.56884" lon="6.63828">
        <ele>214.99</ele>
        <time>2019-06-18T10:53:12Z</time>
      </trkpt>
      <trkpt lat="43.56887" lon="6.63829">
        <ele>214.51</ele>
        <time>2019-06-18T10:53:16Z</time>
      </trkpt>
      <trkpt lat="43.56895" lon="6.63828">
        <ele>213.55</ele>
        <time>2019-06-18T10:53:25Z</time>
      </trkpt>
      <trkpt lat="43.56905" lon="6.63826">
        <ele>212.59</ele>
        <time>2019-06-18T10:53:35Z</time>
      </trkpt>
      <trkpt lat="43.56907" lon="6.63826">
        <ele>212.11</ele>
        <time>2019-06-18T10:53:38Z</time>
      </trkpt>
      <trkpt lat="43.56916" lon="6.63821">
        <ele>211.63</ele>
        <time>2019-06-18T10:53:48Z</time>
      </trkpt>
      <trkpt lat="43.56922" lon="6.6382">
        <ele>211.15</ele>
        <time>2019-06-18T10:53:55Z</time>
      </trkpt>
      <trkpt lat="43.56929" lon="6.63816">
        <ele>210.67</ele>
        <time>2019-06-18T10:54:03Z</time>
      </trkpt>
      <trkpt lat="43.56933" lon="6.63814">
        <ele>210.67</ele>
        <time>2019-06-18T10:54:07Z</time>
      </trkpt>
      <trkpt lat="43.5694" lon="6.6381">
        <ele>210.19</ele>
        <time>2019-06-18T10:54:15Z</time>
      </trkpt>
      <trkpt lat="43.56947" lon="6.63801">
        <ele>209.7</ele>
        <time>2019-06-18T10:54:24Z</time>
      </trkpt>
      <trkpt lat="43.56954" lon="6.63792">
        <ele>208.74</ele>
        <time>2019-06-18T10:54:34Z</time>
      </trkpt>
      <trkpt lat="43.56961" lon="6.63784">
        <ele>208.26</ele>
        <time>2019-06-18T10:54:44Z</time>
      </trkpt>
      <trkpt lat="43.56962" lon="6.63783">
        <ele>208.26</ele>
        <time>2019-06-18T10:54:45Z</time>
      </trkpt>
      <trkpt lat="43.56968" lon="6.63777">
        <ele>207.3</ele>
        <time>2019-06-18T10:54:55Z</time>
      </trkpt>
      <trkpt lat="43.5697" lon="6.63775">
        <ele>206.82</ele>
        <time>2019-06-18T10:54:57Z</time>
      </trkpt>
      <trkpt lat="43.56978" lon="6.63766">
        <ele>206.34</ele>
        <time>2019-06-18T10:55:04Z</time>
      </trkpt>
      <trkpt lat="43.56986" lon="6.63759">
        <ele>205.38</ele>
        <time>2019-06-18T10:55:14Z</time>
      </trkpt>
      <trkpt lat="43.56992" lon="6.63754">
        <ele>204.9</ele>
        <time>2019-06-18T10:55:20Z</time>
      </trkpt>
      <trkpt lat="43.56997" lon="6.6375">
        <ele>204.42</ele>
        <time>2019-06-18T10:55:26Z</time>
      </trkpt>
      <trkpt lat="43.57" lon="6.63749">
        <ele>203.94</ele>
        <time>2019-06-18T10:55:36Z</time>
      </trkpt>
      <trkpt lat="43.57" lon="6.63749">
        <ele>204.42</ele>
        <time>2019-06-18T10:55:54Z</time>
      </trkpt>
      <trkpt lat="43.57006" lon="6.63744">
        <ele>203.94</ele>
        <time>2019-06-18T10:56:04Z</time>
      </trkpt>
      <trkpt lat="43.57009" lon="6.63741">
        <ele>203.46</ele>
        <time>2019-06-18T10:56:13Z</time>
      </trkpt>
      <trkpt lat="43.57013" lon="6.63737">
        <ele>203.46</ele>
        <time>2019-06-18T10:56:26Z</time>
      </trkpt>
      <trkpt lat="43.57014" lon="6.63737">
        <ele>202.98</ele>
        <time>2019-06-18T10:56:29Z</time>
      </trkpt>
      <trkpt lat="43.5702" lon="6.63731">
        <ele>202.49</ele>
        <time>2019-06-18T10:56:39Z</time>
      </trkpt>
      <trkpt lat="43.57026" lon="6.63727">
        <ele>202.01</ele>
        <time>2019-06-18T10:56:47Z</time>
      </trkpt>
      <trkpt lat="43.57033" lon="6.63722">
        <ele>201.53</ele>
        <time>2019-06-18T10:56:56Z</time>
      </trkpt>
      <trkpt lat="43.57035" lon="6.63719">
        <ele>201.05</ele>
        <time>2019-06-18T10:56:59Z</time>
      </trkpt>
      <trkpt lat="43.57042" lon="6.63715">
        <ele>200.57</ele>
        <time>2019-06-18T10:57:06Z</time>
      </trkpt>
      <trkpt lat="43.57054" lon="6.63704">
        <ele>199.61</ele>
        <time>2019-06-18T10:57:18Z</time>
      </trkpt>
      <trkpt lat="43.57063" lon="6.63699">
        <ele>199.61</ele>
        <time>2019-06-18T10:57:30Z</time>
      </trkpt>
      <trkpt lat="43.57071" lon="6.63694">
        <ele>199.61</ele>
        <time>2019-06-18T10:57:41Z</time>
      </trkpt>
      <trkpt lat="43.57071" lon="6.63692">
        <ele>199.13</ele>
        <time>2019-06-18T10:57:56Z</time>
      </trkpt>
      <trkpt lat="43.57073" lon="6.63691">
        <ele>198.65</ele>
        <time>2019-06-18T10:58:04Z</time>
      </trkpt>
      <trkpt lat="43.57074" lon="6.6369">
        <ele>199.13</ele>
        <time>2019-06-18T10:58:22Z</time>
      </trkpt>
      <trkpt lat="43.57081" lon="6.63689">
        <ele>198.65</ele>
        <time>2019-06-18T10:58:30Z</time>
      </trkpt>
      <trkpt lat="43.57092" lon="6.63685">
        <ele>198.17</ele>
        <time>2019-06-18T10:58:39Z</time>
      </trkpt>
      <trkpt lat="43.57096" lon="6.63684">
        <ele>198.17</ele>
        <time>2019-06-18T10:58:43Z</time>
      </trkpt>
      <trkpt lat="43.57104" lon="6.63683">
        <ele>197.21</ele>
        <time>2019-06-18T10:58:52Z</time>
      </trkpt>
      <trkpt lat="43.5711" lon="6.63684">
        <ele>197.69</ele>
        <time>2019-06-18T10:58:58Z</time>
      </trkpt>
      <trkpt lat="43.5712" lon="6.63686">
        <ele>197.21</ele>
        <time>2019-06-18T10:59:08Z</time>
      </trkpt>
      <trkpt lat="43.57125" lon="6.63687">
        <ele>197.21</ele>
        <time>2019-06-18T10:59:12Z</time>
      </trkpt>
      <trkpt lat="43.57129" lon="6.63687">
        <ele>197.21</ele>
        <time>2019-06-18T10:59:16Z</time>
      </trkpt>
      <trkpt lat="43.57134" lon="6.63688">
        <ele>197.21</ele>
        <time>2019-06-18T10:59:20Z</time>
      </trkpt>
      <trkpt lat="43.57144" lon="6.6369">
        <ele>197.69</ele>
        <time>2019-06-18T10:59:30Z</time>
      </trkpt>
      <trkpt lat="43.57152" lon="6.63692">
        <ele>199.13</ele>
        <time>2019-06-18T10:59:39Z</time>
      </trkpt>
      <trkpt lat="43.57153" lon="6.63693">
        <ele>194.8</ele>
        <time>2019-06-18T10:59:41Z</time>
      </trkpt>
      <trkpt lat="43.57154" lon="6.63693">
        <ele>200.09</ele>
        <time>2019-06-18T10:59:42Z</time>
      </trkpt>
      <trkpt lat="43.57154" lon="6.63694">
        <ele>195.28</ele>
        <time>2019-06-18T10:59:43Z</time>
      </trkpt>
      <trkpt lat="43.57156" lon="6.63697">
        <ele>196.25</ele>
        <time>2019-06-18T10:59:46Z</time>
      </trkpt>
      <trkpt lat="43.57156" lon="6.63703">
        <ele>196.25</ele>
        <time>2019-06-18T10:59:50Z</time>
      </trkpt>
      <trkpt lat="43.57153" lon="6.63714">
        <ele>198.17</ele>
        <time>2019-06-18T11:00:01Z</time>
      </trkpt>
      <trkpt lat="43.57151" lon="6.63715">
        <ele>198.17</ele>
        <time>2019-06-18T11:00:03Z</time>
      </trkpt>
      <trkpt lat="43.57139" lon="6.63714">
        <ele>199.61</ele>
        <time>2019-06-18T11:00:15Z</time>
      </trkpt>
      <trkpt lat="43.57135" lon="6.63715">
        <ele>199.61</ele>
        <time>2019-06-18T11:00:20Z</time>
      </trkpt>
      <trkpt lat="43.57126" lon="6.6372">
        <ele>200.09</ele>
        <time>2019-06-18T11:00:31Z</time>
      </trkpt>
      <trkpt lat="43.57119" lon="6.63726">
        <ele>200.09</ele>
        <time>2019-06-18T11:00:40Z</time>
      </trkpt>
      <trkpt lat="43.57115" lon="6.63729">
        <ele>200.09</ele>
        <time>2019-06-18T11:00:49Z</time>
      </trkpt>
      <trkpt lat="43.57116" lon="6.63734">
        <ele>200.09</ele>
        <time>2019-06-18T11:01:01Z</time>
      </trkpt>
      <trkpt lat="43.57115" lon="6.63748">
        <ele>200.57</ele>
        <time>2019-06-18T11:01:13Z</time>
      </trkpt>
      <trkpt lat="43.57115" lon="6.63749">
        <ele>200.57</ele>
        <time>2019-06-18T11:01:14Z</time>
      </trkpt>
      <trkpt lat="43.57113" lon="6.6376">
        <ele>201.53</ele>
        <time>2019-06-18T11:01:24Z</time>
      </trkpt>
      <trkpt lat="43.57111" lon="6.63774">
        <ele>202.01</ele>
        <time>2019-06-18T11:01:35Z</time>
      </trkpt>
      <trkpt lat="43.57113" lon="6.63785">
        <ele>202.98</ele>
        <time>2019-06-18T11:01:45Z</time>
      </trkpt>
      <trkpt lat="43.57116" lon="6.63791">
        <ele>202.49</ele>
        <time>2019-06-18T11:01:55Z</time>
      </trkpt>
      <trkpt lat="43.5712" lon="6.63794">
        <ele>202.49</ele>
        <time>2019-06-18T11:02:05Z</time>
      </trkpt>
      <trkpt lat="43.57129" lon="6.63797">
        <ele>202.98</ele>
        <time>2019-06-18T11:02:14Z</time>
      </trkpt>
      <trkpt lat="43.57138" lon="6.63799">
        <ele>202.98</ele>
        <time>2019-06-18T11:02:25Z</time>
      </trkpt>
      <trkpt lat="43.57141" lon="6.63799">
        <ele>202.98</ele>
        <time>2019-06-18T11:02:28Z</time>
      </trkpt>
      <trkpt lat="43.57144" lon="6.63799">
        <ele>203.46</ele>
        <time>2019-06-18T11:02:31Z</time>
      </trkpt>
      <trkpt lat="43.57151" lon="6.63799">
        <ele>204.42</ele>
        <time>2019-06-18T11:02:38Z</time>
      </trkpt>
      <trkpt lat="43.57156" lon="6.63799">
        <ele>203.46</ele>
        <time>2019-06-18T11:02:42Z</time>
      </trkpt>
      <trkpt lat="43.57166" lon="6.63796">
        <ele>203.94</ele>
        <time>2019-06-18T11:02:53Z</time>
      </trkpt>
      <trkpt lat="43.5717" lon="6.63795">
        <ele>204.42</ele>
        <time>2019-06-18T11:02:59Z</time>
      </trkpt>
      <trkpt lat="43.57181" lon="6.63793">
        <ele>204.42</ele>
        <time>2019-06-18T11:03:11Z</time>
      </trkpt>
      <trkpt lat="43.57191" lon="6.6379">
        <ele>204.9</ele>
        <time>2019-06-18T11:03:21Z</time>
      </trkpt>
      <trkpt lat="43.57202" lon="6.63787">
        <ele>204.9</ele>
        <time>2019-06-18T11:03:32Z</time>
      </trkpt>
      <trkpt lat="43.57211" lon="6.63786">
        <ele>205.38</ele>
        <time>2019-06-18T11:03:42Z</time>
      </trkpt>
      <trkpt lat="43.57221" lon="6.63785">
        <ele>205.86</ele>
        <time>2019-06-18T11:03:52Z</time>
      </trkpt>
      <trkpt lat="43.57223" lon="6.63785">
        <ele>206.34</ele>
        <time>2019-06-18T11:03:54Z</time>
      </trkpt>
      <trkpt lat="43.57231" lon="6.63784">
        <ele>206.82</ele>
        <time>2019-06-18T11:04:03Z</time>
      </trkpt>
      <trkpt lat="43.57234" lon="6.63783">
        <ele>206.82</ele>
        <time>2019-06-18T11:04:06Z</time>
      </trkpt>
      <trkpt lat="43.57238" lon="6.63782">
        <ele>207.3</ele>
        <time>2019-06-18T11:04:10Z</time>
      </trkpt>
      <trkpt lat="43.57252" lon="6.63782">
        <ele>207.78</ele>
        <time>2019-06-18T11:04:23Z</time>
      </trkpt>
      <trkpt lat="43.57259" lon="6.63778">
        <ele>207.78</ele>
        <time>2019-06-18T11:04:30Z</time>
      </trkpt>
      <trkpt lat="43.57262" lon="6.63774">
        <ele>208.26</ele>
        <time>2019-06-18T11:04:33Z</time>
      </trkpt>
      <trkpt lat="43.57269" lon="6.6376">
        <ele>208.74</ele>
        <time>2019-06-18T11:04:44Z</time>
      </trkpt>
      <trkpt lat="43.57274" lon="6.63746">
        <ele>209.22</ele>
        <time>2019-06-18T11:04:54Z</time>
      </trkpt>
      <trkpt lat="43.57275" lon="6.63741">
        <ele>209.22</ele>
        <time>2019-06-18T11:04:58Z</time>
      </trkpt>
      <trkpt lat="43.57282" lon="6.63727">
        <ele>209.7</ele>
        <time>2019-06-18T11:05:09Z</time>
      </trkpt>
      <trkpt lat="43.57284" lon="6.63723">
        <ele>209.7</ele>
        <time>2019-06-18T11:05:12Z</time>
      </trkpt>
      <trkpt lat="43.57287" lon="6.63718">
        <ele>209.7</ele>
        <time>2019-06-18T11:05:17Z</time>
      </trkpt>
      <trkpt lat="43.57294" lon="6.63706">
        <ele>210.19</ele>
        <time>2019-06-18T11:05:28Z</time>
      </trkpt>
      <trkpt lat="43.57298" lon="6.63694">
        <ele>210.67</ele>
        <time>2019-06-18T11:05:37Z</time>
      </trkpt>
      <trkpt lat="43.57302" lon="6.63683">
        <ele>211.15</ele>
        <time>2019-06-18T11:05:47Z</time>
      </trkpt>
      <trkpt lat="43.57307" lon="6.63671">
        <ele>212.11</ele>
        <time>2019-06-18T11:05:58Z</time>
      </trkpt>
      <trkpt lat="43.57312" lon="6.6366">
        <ele>214.03</ele>
        <time>2019-06-18T11:06:08Z</time>
      </trkpt>
      <trkpt lat="43.57319" lon="6.63648">
        <ele>214.51</ele>
        <time>2019-06-18T11:06:19Z</time>
      </trkpt>
      <trkpt lat="43.57328" lon="6.63636">
        <ele>215.47</ele>
        <time>2019-06-18T11:06:33Z</time>
      </trkpt>
      <trkpt lat="43.57335" lon="6.63626">
        <ele>216.43</ele>
        <time>2019-06-18T11:06:44Z</time>
      </trkpt>
      <trkpt lat="43.57341" lon="6.63621">
        <ele>217.4</ele>
        <time>2019-06-18T11:06:53Z</time>
      </trkpt>
      <trkpt lat="43.57349" lon="6.63616">
        <ele>218.36</ele>
        <time>2019-06-18T11:07:02Z</time>
      </trkpt>
      <trkpt lat="43.57351" lon="6.63615">
        <ele>218.36</ele>
        <time>2019-06-18T11:07:04Z</time>
      </trkpt>
      <trkpt lat="43.57354" lon="6.63614">
        <ele>218.84</ele>
        <time>2019-06-18T11:07:08Z</time>
      </trkpt>
      <trkpt lat="43.57363" lon="6.63612">
        <ele>219.32</ele>
        <time>2019-06-18T11:07:17Z</time>
      </trkpt>
      <trkpt lat="43.57372" lon="6.63605">
        <ele>220.28</ele>
        <time>2019-06-18T11:07:26Z</time>
      </trkpt>
      <trkpt lat="43.57379" lon="6.63599">
        <ele>220.76</ele>
        <time>2019-06-18T11:07:34Z</time>
      </trkpt>
      <trkpt lat="43.57385" lon="6.63591">
        <ele>221.24</ele>
        <time>2019-06-18T11:07:42Z</time>
      </trkpt>
      <trkpt lat="43.57391" lon="6.63584">
        <ele>221.72</ele>
        <time>2019-06-18T11:07:50Z</time>
      </trkpt>
      <trkpt lat="43.57399" lon="6.63574">
        <ele>222.68</ele>
        <time>2019-06-18T11:08:00Z</time>
      </trkpt>
      <trkpt lat="43.574" lon="6.63573">
        <ele>222.68</ele>
        <time>2019-06-18T11:08:01Z</time>
      </trkpt>
      <trkpt lat="43.57401" lon="6.6357">
        <ele>222.68</ele>
        <time>2019-06-18T11:08:03Z</time>
      </trkpt>
      <trkpt lat="43.57407" lon="6.63559">
        <ele>223.64</ele>
        <time>2019-06-18T11:08:13Z</time>
      </trkpt>
      <trkpt lat="43.57412" lon="6.63547">
        <ele>223.64</ele>
        <time>2019-06-18T11:08:23Z</time>
      </trkpt>
      <trkpt lat="43.57416" lon="6.63538">
        <ele>224.61</ele>
        <time>2019-06-18T11:08:31Z</time>
      </trkpt>
      <trkpt lat="43.5742" lon="6.63535">
        <ele>224.61</ele>
        <time>2019-06-18T11:08:35Z</time>
      </trkpt>
      <trkpt lat="43.57422" lon="6.6353">
        <ele>226.05</ele>
        <time>2019-06-18T11:08:39Z</time>
      </trkpt>
      <trkpt lat="43.57427" lon="6.6352">
        <ele>226.05</ele>
        <time>2019-06-18T11:08:49Z</time>
      </trkpt>
      <trkpt lat="43.57429" lon="6.63518">
        <ele>226.05</ele>
        <time>2019-06-18T11:08:52Z</time>
      </trkpt>
      <trkpt lat="43.57436" lon="6.63507">
        <ele>226.53</ele>
        <time>2019-06-18T11:09:02Z</time>
      </trkpt>
      <trkpt lat="43.57443" lon="6.63501">
        <ele>227.01</ele>
        <time>2019-06-18T11:09:11Z</time>
      </trkpt>
      <trkpt lat="43.57446" lon="6.63499">
        <ele>227.49</ele>
        <time>2019-06-18T11:09:14Z</time>
      </trkpt>
      <trkpt lat="43.57456" lon="6.63499">
        <ele>228.45</ele>
        <time>2019-06-18T11:09:26Z</time>
      </trkpt>
      <trkpt lat="43.57461" lon="6.63502">
        <ele>229.41</ele>
        <time>2019-06-18T11:09:33Z</time>
      </trkpt>
      <trkpt lat="43.57472" lon="6.63508">
        <ele>230.37</ele>
        <time>2019-06-18T11:09:43Z</time>
      </trkpt>
      <trkpt lat="43.57481" lon="6.63513">
        <ele>231.33</ele>
        <time>2019-06-18T11:09:53Z</time>
      </trkpt>
      <trkpt lat="43.57492" lon="6.63515">
        <ele>231.81</ele>
        <time>2019-06-18T11:10:03Z</time>
      </trkpt>
      <trkpt lat="43.57492" lon="6.63515">
        <ele>231.81</ele>
        <time>2019-06-18T11:10:04Z</time>
      </trkpt>
      <trkpt lat="43.57503" lon="6.63509">
        <ele>232.78</ele>
        <time>2019-06-18T11:10:15Z</time>
      </trkpt>
      <trkpt lat="43.57512" lon="6.63503">
        <ele>233.74</ele>
        <time>2019-06-18T11:10:25Z</time>
      </trkpt>
      <trkpt lat="43.5752" lon="6.63501">
        <ele>234.22</ele>
        <time>2019-06-18T11:10:33Z</time>
      </trkpt>
      <trkpt lat="43.57529" lon="6.635">
        <ele>234.7</ele>
        <time>2019-06-18T11:10:42Z</time>
      </trkpt>
      <trkpt lat="43.57537" lon="6.63496">
        <ele>235.18</ele>
        <time>2019-06-18T11:10:51Z</time>
      </trkpt>
      <trkpt lat="43.5754" lon="6.6349">
        <ele>235.66</ele>
        <time>2019-06-18T11:10:57Z</time>
      </trkpt>
      <trkpt lat="43.57542" lon="6.63484">
        <ele>235.66</ele>
        <time>2019-06-18T11:11:02Z</time>
      </trkpt>
      <trkpt lat="43.57543" lon="6.63482">
        <ele>236.14</ele>
        <time>2019-06-18T11:11:04Z</time>
      </trkpt>
      <trkpt lat="43.57546" lon="6.63464">
        <ele>236.62</ele>
        <time>2019-06-18T11:11:16Z</time>
      </trkpt>
      <trkpt lat="43.5755" lon="6.63449">
        <ele>237.58</ele>
        <time>2019-06-18T11:11:26Z</time>
      </trkpt>
      <trkpt lat="43.57553" lon="6.63437">
        <ele>238.06</ele>
        <time>2019-06-18T11:11:35Z</time>
      </trkpt>
      <trkpt lat="43.57556" lon="6.63433">
        <ele>238.54</ele>
        <time>2019-06-18T11:11:41Z</time>
      </trkpt>
      <trkpt lat="43.57562" lon="6.63433">
        <ele>239.02</ele>
        <time>2019-06-18T11:11:51Z</time>
      </trkpt>
      <trkpt lat="43.57565" lon="6.63432">
        <ele>239.51</ele>
        <time>2019-06-18T11:12:04Z</time>
      </trkpt>
      <trkpt lat="43.57566" lon="6.63434">
        <ele>239.51</ele>
        <time>2019-06-18T11:12:14Z</time>
      </trkpt>
      <trkpt lat="43.57567" lon="6.63434">
        <ele>239.51</ele>
        <time>2019-06-18T11:12:27Z</time>
      </trkpt>
      <trkpt lat="43.57567" lon="6.63433">
        <ele>239.51</ele>
        <time>2019-06-18T11:12:44Z</time>
      </trkpt>
      <trkpt lat="43.57568" lon="6.63432">
        <ele>239.02</ele>
        <time>2019-06-18T11:13:05Z</time>
      </trkpt>
      <trkpt lat="43.57568" lon="6.63432">
        <ele>239.02</ele>
        <time>2019-06-18T11:13:21Z</time>
      </trkpt>
      <trkpt lat="43.57569" lon="6.63431">
        <ele>239.02</ele>
        <time>2019-06-18T11:13:41Z</time>
      </trkpt>
      <trkpt lat="43.57569" lon="6.6343">
        <ele>239.02</ele>
        <time>2019-06-18T11:13:59Z</time>
      </trkpt>
      <trkpt lat="43.5757" lon="6.63429">
        <ele>239.02</ele>
        <time>2019-06-18T11:14:22Z</time>
      </trkpt>
      <trkpt lat="43.57569" lon="6.63429">
        <ele>239.02</ele>
        <time>2019-06-18T11:14:34Z</time>
      </trkpt>
      <trkpt lat="43.5757" lon="6.6343">
        <ele>238.54</ele>
        <time>2019-06-18T11:14:58Z</time>
      </trkpt>
      <trkpt lat="43.57571" lon="6.6343">
        <ele>239.02</ele>
        <time>2019-06-18T11:15:18Z</time>
      </trkpt>
      <trkpt lat="43.57571" lon="6.6343">
        <ele>239.02</ele>
        <time>2019-06-18T11:15:35Z</time>
      </trkpt>
      <trkpt lat="43.57571" lon="6.6343">
        <ele>239.02</ele>
        <time>2019-06-18T11:15:59Z</time>
      </trkpt>
      <trkpt lat="43.57571" lon="6.63429">
        <ele>239.02</ele>
        <time>2019-06-18T11:16:18Z</time>
      </trkpt>
      <trkpt lat="43.57571" lon="6.63429">
        <ele>239.02</ele>
        <time>2019-06-18T11:16:30Z</time>
      </trkpt>
      <trkpt lat="43.57571" lon="6.63428">
        <ele>239.51</ele>
        <time>2019-06-18T11:16:54Z</time>
      </trkpt>
      <trkpt lat="43.5757" lon="6.63428">
        <ele>239.51</ele>
        <time>2019-06-18T11:17:15Z</time>
      </trkpt>
      <trkpt lat="43.5757" lon="6.63428">
        <ele>239.51</ele>
        <time>2019-06-18T11:17:35Z</time>
      </trkpt>
      <trkpt lat="43.5757" lon="6.63427">
        <ele>239.51</ele>
        <time>2019-06-18T11:17:59Z</time>
      </trkpt>
      <trkpt lat="43.57571" lon="6.63427">
        <ele>239.51</ele>
        <time>2019-06-18T11:18:19Z</time>
      </trkpt>
      <trkpt lat="43.57571" lon="6.63426">
        <ele>239.51</ele>
        <time>2019-06-18T11:18:42Z</time>
      </trkpt>
      <trkpt lat="43.57572" lon="6.63429">
        <ele>239.99</ele>
        <time>2019-06-18T11:18:51Z</time>
      </trkpt>
      <trkpt lat="43.57576" lon="6.63432">
        <ele>239.99</ele>
        <time>2019-06-18T11:18:55Z</time>
      </trkpt>
      <trkpt lat="43.57582" lon="6.63436">
        <ele>240.47</ele>
        <time>2019-06-18T11:19:01Z</time>
      </trkpt>
      <trkpt lat="43.57592" lon="6.63438">
        <ele>241.43</ele>
        <time>2019-06-18T11:19:12Z</time>
      </trkpt>
      <trkpt lat="43.57597" lon="6.63436">
        <ele>241.43</ele>
        <time>2019-06-18T11:19:17Z</time>
      </trkpt>
      <trkpt lat="43.57601" lon="6.63433">
        <ele>241.91</ele>
        <time>2019-06-18T11:19:22Z</time>
      </trkpt>
      <trkpt lat="43.57605" lon="6.6343">
        <ele>241.91</ele>
        <time>2019-06-18T11:19:25Z</time>
      </trkpt>
      <trkpt lat="43.57609" lon="6.63421">
        <ele>242.39</ele>
        <time>2019-06-18T11:19:31Z</time>
      </trkpt>
      <trkpt lat="43.57614" lon="6.63412">
        <ele>242.87</ele>
        <time>2019-06-18T11:19:39Z</time>
      </trkpt>
      <trkpt lat="43.5762" lon="6.63409">
        <ele>242.87</ele>
        <time>2019-06-18T11:19:45Z</time>
      </trkpt>
      <trkpt lat="43.57626" lon="6.63409">
        <ele>243.35</ele>
        <time>2019-06-18T11:19:50Z</time>
      </trkpt>
      <trkpt lat="43.57629" lon="6.63411">
        <ele>243.83</ele>
        <time>2019-06-18T11:19:54Z</time>
      </trkpt>
      <trkpt lat="43.57633" lon="6.63422">
        <ele>244.31</ele>
        <time>2019-06-18T11:20:04Z</time>
      </trkpt>
      <trkpt lat="43.57637" lon="6.63434">
        <ele>245.27</ele>
        <time>2019-06-18T11:20:15Z</time>
      </trkpt>
      <trkpt lat="43.57638" lon="6.63445">
        <ele>245.75</ele>
        <time>2019-06-18T11:20:24Z</time>
      </trkpt>
      <trkpt lat="43.5764" lon="6.63455">
        <ele>245.75</ele>
        <time>2019-06-18T11:20:30Z</time>
      </trkpt>
      <trkpt lat="43.57641" lon="6.63458">
        <ele>246.23</ele>
        <time>2019-06-18T11:20:32Z</time>
      </trkpt>
      <trkpt lat="43.57646" lon="6.63466">
        <ele>246.72</ele>
        <time>2019-06-18T11:20:39Z</time>
      </trkpt>
      <trkpt lat="43.57649" lon="6.63468">
        <ele>246.72</ele>
        <time>2019-06-18T11:20:41Z</time>
      </trkpt>
      <trkpt lat="43.57661" lon="6.63474">
        <ele>247.2</ele>
        <time>2019-06-18T11:20:52Z</time>
      </trkpt>
      <trkpt lat="43.5767" lon="6.63478">
        <ele>247.68</ele>
        <time>2019-06-18T11:21:01Z</time>
      </trkpt>
      <trkpt lat="43.57684" lon="6.63483">
        <ele>248.64</ele>
        <time>2019-06-18T11:21:13Z</time>
      </trkpt>
      <trkpt lat="43.57693" lon="6.63487">
        <ele>248.64</ele>
        <time>2019-06-18T11:21:22Z</time>
      </trkpt>
      <trkpt lat="43.57705" lon="6.63495">
        <ele>248.64</ele>
        <time>2019-06-18T11:21:33Z</time>
      </trkpt>
      <trkpt lat="43.57709" lon="6.635">
        <ele>248.64</ele>
        <time>2019-06-18T11:21:37Z</time>
      </trkpt>
      <trkpt lat="43.57722" lon="6.63508">
        <ele>249.12</ele>
        <time>2019-06-18T11:21:49Z</time>
      </trkpt>
      <trkpt lat="43.57734" lon="6.63508">
        <ele>249.6</ele>
        <time>2019-06-18T11:22:00Z</time>
      </trkpt>
      <trkpt lat="43.57748" lon="6.63505">
        <ele>250.08</ele>
        <time>2019-06-18T11:22:12Z</time>
      </trkpt>
      <trkpt lat="43.57759" lon="6.63495">
        <ele>250.08</ele>
        <time>2019-06-18T11:22:22Z</time>
      </trkpt>
      <trkpt lat="43.57761" lon="6.63488">
        <ele>250.56</ele>
        <time>2019-06-18T11:22:31Z</time>
      </trkpt>
      <trkpt lat="43.57761" lon="6.63488">
        <ele>250.56</ele>
        <time>2019-06-18T11:22:53Z</time>
      </trkpt>
      <trkpt lat="43.57761" lon="6.63488">
        <ele>250.56</ele>
        <time>2019-06-18T11:22:57Z</time>
      </trkpt>
      <trkpt lat="43.57763" lon="6.63486">
        <ele>250.56</ele>
        <time>2019-06-18T11:23:10Z</time>
      </trkpt>
      <trkpt lat="43.57763" lon="6.63485">
        <ele>250.56</ele>
        <time>2019-06-18T11:23:29Z</time>
      </trkpt>
      <trkpt lat="43.57763" lon="6.63484">
        <ele>250.56</ele>
        <time>2019-06-18T11:23:43Z</time>
      </trkpt>
      <trkpt lat="43.57763" lon="6.6348">
        <ele>251.04</ele>
        <time>2019-06-18T11:24:09Z</time>
      </trkpt>
      <trkpt lat="43.57763" lon="6.6348">
        <ele>250.56</ele>
        <time>2019-06-18T11:24:32Z</time>
      </trkpt>
      <trkpt lat="43.57763" lon="6.63482">
        <ele>251.04</ele>
        <time>2019-06-18T11:24:42Z</time>
      </trkpt>
      <trkpt lat="43.57765" lon="6.63486">
        <ele>251.04</ele>
        <time>2019-06-18T11:24:46Z</time>
      </trkpt>
      <trkpt lat="43.57769" lon="6.6349">
        <ele>251.04</ele>
        <time>2019-06-18T11:24:53Z</time>
      </trkpt>
      <trkpt lat="43.57778" lon="6.63488">
        <ele>251.04</ele>
        <time>2019-06-18T11:25:03Z</time>
      </trkpt>
      <trkpt lat="43.57791" lon="6.63487">
        <ele>250.56</ele>
        <time>2019-06-18T11:25:15Z</time>
      </trkpt>
      <trkpt lat="43.578" lon="6.6348">
        <ele>251.04</ele>
        <time>2019-06-18T11:25:27Z</time>
      </trkpt>
      <trkpt lat="43.5781" lon="6.63475">
        <ele>251.04</ele>
        <time>2019-06-18T11:25:40Z</time>
      </trkpt>
      <trkpt lat="43.5782" lon="6.6347">
        <ele>251.04</ele>
        <time>2019-06-18T11:25:48Z</time>
      </trkpt>
      <trkpt lat="43.57823" lon="6.63467">
        <ele>251.52</ele>
        <time>2019-06-18T11:25:51Z</time>
      </trkpt>
      <trkpt lat="43.57832" lon="6.63466">
        <ele>252</ele>
        <time>2019-06-18T11:26:01Z</time>
      </trkpt>
      <trkpt lat="43.57841" lon="6.6347">
        <ele>252.48</ele>
        <time>2019-06-18T11:26:10Z</time>
      </trkpt>
      <trkpt lat="43.57847" lon="6.63474">
        <ele>252.96</ele>
        <time>2019-06-18T11:26:16Z</time>
      </trkpt>
      <trkpt lat="43.57854" lon="6.63484">
        <ele>253.93</ele>
        <time>2019-06-18T11:26:26Z</time>
      </trkpt>
      <trkpt lat="43.5786" lon="6.63499">
        <ele>254.89</ele>
        <time>2019-06-18T11:26:38Z</time>
      </trkpt>
      <trkpt lat="43.57868" lon="6.63513">
        <ele>255.37</ele>
        <time>2019-06-18T11:26:50Z</time>
      </trkpt>
      <trkpt lat="43.57874" lon="6.6352">
        <ele>255.85</ele>
        <time>2019-06-18T11:26:58Z</time>
      </trkpt>
      <trkpt lat="43.5788" lon="6.63525">
        <ele>255.85</ele>
        <time>2019-06-18T11:27:03Z</time>
      </trkpt>
      <trkpt lat="43.57893" lon="6.63528">
        <ele>256.81</ele>
        <time>2019-06-18T11:27:15Z</time>
      </trkpt>
      <trkpt lat="43.57905" lon="6.63524">
        <ele>256.81</ele>
        <time>2019-06-18T11:27:25Z</time>
      </trkpt>
      <trkpt lat="43.57907" lon="6.63522">
        <ele>256.81</ele>
        <time>2019-06-18T11:27:29Z</time>
      </trkpt>
      <trkpt lat="43.57913" lon="6.63513">
        <ele>252</ele>
        <time>2019-06-18T11:27:35Z</time>
      </trkpt>
      <trkpt lat="43.57914" lon="6.63511">
        <ele>262.1</ele>
        <time>2019-06-18T11:27:36Z</time>
      </trkpt>
      <trkpt lat="43.57915" lon="6.6351">
        <ele>257.77</ele>
        <time>2019-06-18T11:27:37Z</time>
      </trkpt>
      <trkpt lat="43.57917" lon="6.63506">
        <ele>257.77</ele>
        <time>2019-06-18T11:27:39Z</time>
      </trkpt>
      <trkpt lat="43.57927" lon="6.63495">
        <ele>258.25</ele>
        <time>2019-06-18T11:27:51Z</time>
      </trkpt>
      <trkpt lat="43.57934" lon="6.63489">
        <ele>258.73</ele>
        <time>2019-06-18T11:28:02Z</time>
      </trkpt>
      <trkpt lat="43.57942" lon="6.63482">
        <ele>259.21</ele>
        <time>2019-06-18T11:28:11Z</time>
      </trkpt>
      <trkpt lat="43.5795" lon="6.63474">
        <ele>260.17</ele>
        <time>2019-06-18T11:28:21Z</time>
      </trkpt>
      <trkpt lat="43.57958" lon="6.63459">
        <ele>260.65</ele>
        <time>2019-06-18T11:28:33Z</time>
      </trkpt>
      <trkpt lat="43.57958" lon="6.63458">
        <ele>260.65</ele>
        <time>2019-06-18T11:28:34Z</time>
      </trkpt>
      <trkpt lat="43.5796" lon="6.6345">
        <ele>260.65</ele>
        <time>2019-06-18T11:28:40Z</time>
      </trkpt>
      <trkpt lat="43.57963" lon="6.63443">
        <ele>261.14</ele>
        <time>2019-06-18T11:28:45Z</time>
      </trkpt>
      <trkpt lat="43.57964" lon="6.63437">
        <ele>261.62</ele>
        <time>2019-06-18T11:28:50Z</time>
      </trkpt>
      <trkpt lat="43.57967" lon="6.6343">
        <ele>262.1</ele>
        <time>2019-06-18T11:28:55Z</time>
      </trkpt>
      <trkpt lat="43.57968" lon="6.63428">
        <ele>262.1</ele>
        <time>2019-06-18T11:28:57Z</time>
      </trkpt>
      <trkpt lat="43.57971" lon="6.63415">
        <ele>262.1</ele>
        <time>2019-06-18T11:29:05Z</time>
      </trkpt>
      <trkpt lat="43.57975" lon="6.63409">
        <ele>262.1</ele>
        <time>2019-06-18T11:29:10Z</time>
      </trkpt>
      <trkpt lat="43.57978" lon="6.63389">
        <ele>262.58</ele>
        <time>2019-06-18T11:29:22Z</time>
      </trkpt>
      <trkpt lat="43.57983" lon="6.63376">
        <ele>263.06</ele>
        <time>2019-06-18T11:29:32Z</time>
      </trkpt>
      <trkpt lat="43.57986" lon="6.63368">
        <ele>263.06</ele>
        <time>2019-06-18T11:29:38Z</time>
      </trkpt>
      <trkpt lat="43.57988" lon="6.63363">
        <ele>263.54</ele>
        <time>2019-06-18T11:29:42Z</time>
      </trkpt>
      <trkpt lat="43.5799" lon="6.63345">
        <ele>263.06</ele>
        <time>2019-06-18T11:29:52Z</time>
      </trkpt>
      <trkpt lat="43.5799" lon="6.63344">
        <ele>263.06</ele>
        <time>2019-06-18T11:29:53Z</time>
      </trkpt>
      <trkpt lat="43.57988" lon="6.6333">
        <ele>261.62</ele>
        <time>2019-06-18T11:30:04Z</time>
      </trkpt>
      <trkpt lat="43.57989" lon="6.63318">
        <ele>261.14</ele>
        <time>2019-06-18T11:30:11Z</time>
      </trkpt>
      <trkpt lat="43.57989" lon="6.63313">
        <ele>261.14</ele>
        <time>2019-06-18T11:30:14Z</time>
      </trkpt>
      <trkpt lat="43.5799" lon="6.63296">
        <ele>260.65</ele>
        <time>2019-06-18T11:30:25Z</time>
      </trkpt>
      <trkpt lat="43.57991" lon="6.63285">
        <ele>260.17</ele>
        <time>2019-06-18T11:30:32Z</time>
      </trkpt>
      <trkpt lat="43.57992" lon="6.63279">
        <ele>260.17</ele>
        <time>2019-06-18T11:30:36Z</time>
      </trkpt>
      <trkpt lat="43.57993" lon="6.63275">
        <ele>260.17</ele>
        <time>2019-06-18T11:30:38Z</time>
      </trkpt>
      <trkpt lat="43.57997" lon="6.63258">
        <ele>260.65</ele>
        <time>2019-06-18T11:30:49Z</time>
      </trkpt>
      <trkpt lat="43.57993" lon="6.6324">
        <ele>261.14</ele>
        <time>2019-06-18T11:31:00Z</time>
      </trkpt>
      <trkpt lat="43.57993" lon="6.63239">
        <ele>261.62</ele>
        <time>2019-06-18T11:31:01Z</time>
      </trkpt>
      <trkpt lat="43.57982" lon="6.63224">
        <ele>262.1</ele>
        <time>2019-06-18T11:31:12Z</time>
      </trkpt>
      <trkpt lat="43.57981" lon="6.63221">
        <ele>262.1</ele>
        <time>2019-06-18T11:31:14Z</time>
      </trkpt>
      <trkpt lat="43.57978" lon="6.63219">
        <ele>262.58</ele>
        <time>2019-06-18T11:31:17Z</time>
      </trkpt>
      <trkpt lat="43.57977" lon="6.63215">
        <ele>262.58</ele>
        <time>2019-06-18T11:31:20Z</time>
      </trkpt>
      <trkpt lat="43.57971" lon="6.63203">
        <ele>263.06</ele>
        <time>2019-06-18T11:31:30Z</time>
      </trkpt>
      <trkpt lat="43.57971" lon="6.63198">
        <ele>263.06</ele>
        <time>2019-06-18T11:31:33Z</time>
      </trkpt>
      <trkpt lat="43.57975" lon="6.63192">
        <ele>264.02</ele>
        <time>2019-06-18T11:31:41Z</time>
      </trkpt>
      <trkpt lat="43.57977" lon="6.63187">
        <ele>264.5</ele>
        <time>2019-06-18T11:31:48Z</time>
      </trkpt>
      <trkpt lat="43.57985" lon="6.63184">
        <ele>264.5</ele>
        <time>2019-06-18T11:31:56Z</time>
      </trkpt>
      <trkpt lat="43.57999" lon="6.63173">
        <ele>265.46</ele>
        <time>2019-06-18T11:32:08Z</time>
      </trkpt>
      <trkpt lat="43.58003" lon="6.6317">
        <ele>265.46</ele>
        <time>2019-06-18T11:32:19Z</time>
      </trkpt>
      <trkpt lat="43.58003" lon="6.63171">
        <ele>265.46</ele>
        <time>2019-06-18T11:32:29Z</time>
      </trkpt>
      <trkpt lat="43.58003" lon="6.63171">
        <ele>265.46</ele>
        <time>2019-06-18T11:32:38Z</time>
      </trkpt>
      <trkpt lat="43.58002" lon="6.6317">
        <ele>265.46</ele>
        <time>2019-06-18T11:32:48Z</time>
      </trkpt>
      <trkpt lat="43.58003" lon="6.6317">
        <ele>265.46</ele>
        <time>2019-06-18T11:33:02Z</time>
      </trkpt>
      <trkpt lat="43.58004" lon="6.63168">
        <ele>265.94</ele>
        <time>2019-06-18T11:33:18Z</time>
      </trkpt>
      <trkpt lat="43.58004" lon="6.63168">
        <ele>264.5</ele>
        <time>2019-06-18T11:33:28Z</time>
      </trkpt>
    </trkseg>
  </trk>
</gpx>